<?xml version="1.0" encoding="UTF-8" standalone="no" ?>
<gpx xmlns="http://www.topografix.com/GPX/1/1" xmlns:xsi="http://www.w3.org/2001/XMLSchema-instance" xsi:schemaLocation="http://www.topografix.com/GPX/1/1 http://www.topografix.com/GPX/1/1/gpx.xsd" version="1.1" creator="VisuGPX - https://www.visugpx.com">
  <metadata>
    <name>Vallon des Conquettes</name>
    <desc><![CDATA[départ du camping de Ceyreste]]></desc>
  </metadata>
  <trk>
    <name><![CDATA[2015-09-27 Conquettes]]></name>
    <desc><![CDATA[Guillaume]]></desc>
    <trkseg>
      <trkpt lat="43.22202" lon="5.62972">
        <ele>175.97265625</ele>
        <time>2015-09-27T07:03:57Z</time>
      </trkpt>
      <trkpt lat="43.22202" lon="5.62973">
        <ele>175.85546875</ele>
        <time>2015-09-27T07:04:03Z</time>
      </trkpt>
      <trkpt lat="43.22201" lon="5.62973">
        <ele>175.7578125</ele>
        <time>2015-09-27T07:04:05Z</time>
      </trkpt>
      <trkpt lat="43.22203" lon="5.62971">
        <ele>176.09375</ele>
        <time>2015-09-27T07:04:12Z</time>
      </trkpt>
      <trkpt lat="43.22202" lon="5.62973">
        <ele>175.96875</ele>
        <time>2015-09-27T07:04:25Z</time>
      </trkpt>
      <trkpt lat="43.222" lon="5.62972">
        <ele>175.67578125</ele>
        <time>2015-09-27T07:04:40Z</time>
      </trkpt>
      <trkpt lat="43.22199" lon="5.62971">
        <ele>175.578125</ele>
        <time>2015-09-27T07:04:48Z</time>
      </trkpt>
      <trkpt lat="43.22199" lon="5.62971">
        <ele>175.5703125</ele>
        <time>2015-09-27T07:04:49Z</time>
      </trkpt>
      <trkpt lat="43.22199" lon="5.6297">
        <ele>175.55078125</ele>
        <time>2015-09-27T07:04:52Z</time>
      </trkpt>
      <trkpt lat="43.22199" lon="5.6297">
        <ele>175.52734375</ele>
        <time>2015-09-27T07:04:53Z</time>
      </trkpt>
      <trkpt lat="43.22198" lon="5.62968">
        <ele>175.53125</ele>
        <time>2015-09-27T07:05:17Z</time>
      </trkpt>
      <trkpt lat="43.22196" lon="5.62967">
        <ele>175.23828125</ele>
        <time>2015-09-27T07:05:21Z</time>
      </trkpt>
      <trkpt lat="43.22198" lon="5.62971">
        <ele>175.3671875</ele>
        <time>2015-09-27T07:05:24Z</time>
      </trkpt>
      <trkpt lat="43.22208" lon="5.62972">
        <ele>176.78515625</ele>
        <time>2015-09-27T07:05:40Z</time>
      </trkpt>
      <trkpt lat="43.22207" lon="5.62974">
        <ele>176.6640625</ele>
        <time>2015-09-27T07:06:18Z</time>
      </trkpt>
      <trkpt lat="43.22205" lon="5.62967">
        <ele>176.54296875</ele>
        <time>2015-09-27T07:06:43Z</time>
      </trkpt>
      <trkpt lat="43.22204" lon="5.62965">
        <ele>176.5</ele>
        <time>2015-09-27T07:07:20Z</time>
      </trkpt>
      <trkpt lat="43.22205" lon="5.62966">
        <ele>176.609375</ele>
        <time>2015-09-27T07:07:49Z</time>
      </trkpt>
      <trkpt lat="43.22206" lon="5.62968">
        <ele>176.62109375</ele>
        <time>2015-09-27T07:08:13Z</time>
      </trkpt>
      <trkpt lat="43.22208" lon="5.62968">
        <ele>176.8984375</ele>
        <time>2015-09-27T07:08:36Z</time>
      </trkpt>
      <trkpt lat="43.22207" lon="5.62965">
        <ele>176.91796875</ele>
        <time>2015-09-27T07:08:58Z</time>
      </trkpt>
      <trkpt lat="43.22215" lon="5.6296">
        <ele>178.2734375</ele>
        <time>2015-09-27T07:09:05Z</time>
      </trkpt>
      <trkpt lat="43.22216" lon="5.62962">
        <ele>178.32421875</ele>
        <time>2015-09-27T07:09:06Z</time>
      </trkpt>
      <trkpt lat="43.22225" lon="5.62981">
        <ele>178.94921875</ele>
        <time>2015-09-27T07:09:14Z</time>
      </trkpt>
      <trkpt lat="43.22226" lon="5.62984">
        <ele>178.9765625</ele>
        <time>2015-09-27T07:09:15Z</time>
      </trkpt>
      <trkpt lat="43.22227" lon="5.62987">
        <ele>179.03125</ele>
        <time>2015-09-27T07:09:16Z</time>
      </trkpt>
      <trkpt lat="43.22246" lon="5.63015">
        <ele>181.6875</ele>
        <time>2015-09-27T07:09:28Z</time>
      </trkpt>
      <trkpt lat="43.22268" lon="5.6305">
        <ele>182.453125</ele>
        <time>2015-09-27T07:09:41Z</time>
      </trkpt>
      <trkpt lat="43.223" lon="5.63103">
        <ele>184.0390625</ele>
        <time>2015-09-27T07:09:59Z</time>
      </trkpt>
      <trkpt lat="43.2232" lon="5.63138">
        <ele>184.51953125</ele>
        <time>2015-09-27T07:10:13Z</time>
      </trkpt>
      <trkpt lat="43.22335" lon="5.63173">
        <ele>186.84375</ele>
        <time>2015-09-27T07:10:27Z</time>
      </trkpt>
      <trkpt lat="43.22347" lon="5.6322">
        <ele>191.4296875</ele>
        <time>2015-09-27T07:10:45Z</time>
      </trkpt>
      <trkpt lat="43.22358" lon="5.63254">
        <ele>195.34375</ele>
        <time>2015-09-27T07:11:00Z</time>
      </trkpt>
      <trkpt lat="43.22363" lon="5.6326">
        <ele>196.515625</ele>
        <time>2015-09-27T07:11:04Z</time>
      </trkpt>
      <trkpt lat="43.22363" lon="5.63262">
        <ele>196.81640625</ele>
        <time>2015-09-27T07:11:05Z</time>
      </trkpt>
      <trkpt lat="43.22363" lon="5.63264">
        <ele>197.140625</ele>
        <time>2015-09-27T07:11:06Z</time>
      </trkpt>
      <trkpt lat="43.22363" lon="5.63266">
        <ele>197.3984375</ele>
        <time>2015-09-27T07:11:07Z</time>
      </trkpt>
      <trkpt lat="43.22363" lon="5.63268">
        <ele>197.63671875</ele>
        <time>2015-09-27T07:11:08Z</time>
      </trkpt>
      <trkpt lat="43.22364" lon="5.6327">
        <ele>197.76953125</ele>
        <time>2015-09-27T07:11:09Z</time>
      </trkpt>
      <trkpt lat="43.22365" lon="5.63272">
        <ele>197.9453125</ele>
        <time>2015-09-27T07:11:10Z</time>
      </trkpt>
      <trkpt lat="43.22366" lon="5.63273">
        <ele>198.13671875</ele>
        <time>2015-09-27T07:11:11Z</time>
      </trkpt>
      <trkpt lat="43.22367" lon="5.63274">
        <ele>198.31640625</ele>
        <time>2015-09-27T07:11:12Z</time>
      </trkpt>
      <trkpt lat="43.2237" lon="5.63278">
        <ele>198.7890625</ele>
        <time>2015-09-27T07:11:15Z</time>
      </trkpt>
      <trkpt lat="43.22371" lon="5.63279">
        <ele>198.99609375</ele>
        <time>2015-09-27T07:11:16Z</time>
      </trkpt>
      <trkpt lat="43.22372" lon="5.6328">
        <ele>199.17578125</ele>
        <time>2015-09-27T07:11:17Z</time>
      </trkpt>
      <trkpt lat="43.22374" lon="5.63281">
        <ele>199.375</ele>
        <time>2015-09-27T07:11:18Z</time>
      </trkpt>
      <trkpt lat="43.22375" lon="5.63282">
        <ele>199.5703125</ele>
        <time>2015-09-27T07:11:19Z</time>
      </trkpt>
      <trkpt lat="43.22387" lon="5.63288">
        <ele>201.51171875</ele>
        <time>2015-09-27T07:11:29Z</time>
      </trkpt>
      <trkpt lat="43.22389" lon="5.63288">
        <ele>201.7265625</ele>
        <time>2015-09-27T07:11:30Z</time>
      </trkpt>
      <trkpt lat="43.22397" lon="5.63291">
        <ele>202.5</ele>
        <time>2015-09-27T07:11:36Z</time>
      </trkpt>
      <trkpt lat="43.22398" lon="5.63291">
        <ele>202.47265625</ele>
        <time>2015-09-27T07:11:37Z</time>
      </trkpt>
      <trkpt lat="43.22402" lon="5.63293">
        <ele>202.5</ele>
        <time>2015-09-27T07:11:41Z</time>
      </trkpt>
      <trkpt lat="43.22405" lon="5.63295">
        <ele>202.47265625</ele>
        <time>2015-09-27T07:11:43Z</time>
      </trkpt>
      <trkpt lat="43.22407" lon="5.63295">
        <ele>202.4921875</ele>
        <time>2015-09-27T07:11:44Z</time>
      </trkpt>
      <trkpt lat="43.22409" lon="5.63295">
        <ele>202.453125</ele>
        <time>2015-09-27T07:11:45Z</time>
      </trkpt>
      <trkpt lat="43.2241" lon="5.63296">
        <ele>202.44921875</ele>
        <time>2015-09-27T07:11:46Z</time>
      </trkpt>
      <trkpt lat="43.22412" lon="5.63296">
        <ele>202.4375</ele>
        <time>2015-09-27T07:11:47Z</time>
      </trkpt>
      <trkpt lat="43.22414" lon="5.63298">
        <ele>202.5390625</ele>
        <time>2015-09-27T07:11:49Z</time>
      </trkpt>
      <trkpt lat="43.22415" lon="5.63299">
        <ele>202.6953125</ele>
        <time>2015-09-27T07:11:50Z</time>
      </trkpt>
      <trkpt lat="43.22416" lon="5.63301">
        <ele>202.859375</ele>
        <time>2015-09-27T07:11:51Z</time>
      </trkpt>
      <trkpt lat="43.22416" lon="5.63302">
        <ele>202.9921875</ele>
        <time>2015-09-27T07:11:52Z</time>
      </trkpt>
      <trkpt lat="43.22417" lon="5.63303">
        <ele>203.09375</ele>
        <time>2015-09-27T07:11:53Z</time>
      </trkpt>
      <trkpt lat="43.22418" lon="5.63304">
        <ele>203.21484375</ele>
        <time>2015-09-27T07:11:54Z</time>
      </trkpt>
      <trkpt lat="43.22425" lon="5.63311">
        <ele>204.23828125</ele>
        <time>2015-09-27T07:12:01Z</time>
      </trkpt>
      <trkpt lat="43.22427" lon="5.63313">
        <ele>204.48828125</ele>
        <time>2015-09-27T07:12:03Z</time>
      </trkpt>
      <trkpt lat="43.22428" lon="5.63314">
        <ele>204.6328125</ele>
        <time>2015-09-27T07:12:04Z</time>
      </trkpt>
      <trkpt lat="43.22429" lon="5.63315">
        <ele>204.76171875</ele>
        <time>2015-09-27T07:12:05Z</time>
      </trkpt>
      <trkpt lat="43.2243" lon="5.63316">
        <ele>204.94140625</ele>
        <time>2015-09-27T07:12:06Z</time>
      </trkpt>
      <trkpt lat="43.22431" lon="5.63317">
        <ele>205.13671875</ele>
        <time>2015-09-27T07:12:07Z</time>
      </trkpt>
      <trkpt lat="43.22433" lon="5.63318">
        <ele>205.3984375</ele>
        <time>2015-09-27T07:12:09Z</time>
      </trkpt>
      <trkpt lat="43.22434" lon="5.63319">
        <ele>205.56640625</ele>
        <time>2015-09-27T07:12:10Z</time>
      </trkpt>
      <trkpt lat="43.22436" lon="5.6332">
        <ele>205.80859375</ele>
        <time>2015-09-27T07:12:11Z</time>
      </trkpt>
      <trkpt lat="43.22451" lon="5.63331">
        <ele>208.03515625</ele>
        <time>2015-09-27T07:12:23Z</time>
      </trkpt>
      <trkpt lat="43.22471" lon="5.63344">
        <ele>208.796875</ele>
        <time>2015-09-27T07:12:37Z</time>
      </trkpt>
      <trkpt lat="43.22478" lon="5.63349">
        <ele>209.5390625</ele>
        <time>2015-09-27T07:12:42Z</time>
      </trkpt>
      <trkpt lat="43.22479" lon="5.63351">
        <ele>209.7265625</ele>
        <time>2015-09-27T07:12:43Z</time>
      </trkpt>
      <trkpt lat="43.22481" lon="5.63352">
        <ele>209.7578125</ele>
        <time>2015-09-27T07:12:44Z</time>
      </trkpt>
      <trkpt lat="43.22482" lon="5.63353">
        <ele>209.74609375</ele>
        <time>2015-09-27T07:12:45Z</time>
      </trkpt>
      <trkpt lat="43.22483" lon="5.63354">
        <ele>209.75390625</ele>
        <time>2015-09-27T07:12:46Z</time>
      </trkpt>
      <trkpt lat="43.22497" lon="5.63367">
        <ele>210.44140625</ele>
        <time>2015-09-27T07:12:59Z</time>
      </trkpt>
      <trkpt lat="43.22498" lon="5.63368">
        <ele>210.47265625</ele>
        <time>2015-09-27T07:13:00Z</time>
      </trkpt>
      <trkpt lat="43.2252" lon="5.63379">
        <ele>209.97265625</ele>
        <time>2015-09-27T07:13:12Z</time>
      </trkpt>
      <trkpt lat="43.22521" lon="5.63381">
        <ele>210.16796875</ele>
        <time>2015-09-27T07:13:13Z</time>
      </trkpt>
      <trkpt lat="43.22523" lon="5.63383">
        <ele>210.3828125</ele>
        <time>2015-09-27T07:13:14Z</time>
      </trkpt>
      <trkpt lat="43.22523" lon="5.63384">
        <ele>210.62890625</ele>
        <time>2015-09-27T07:13:15Z</time>
      </trkpt>
      <trkpt lat="43.22524" lon="5.63386">
        <ele>210.92578125</ele>
        <time>2015-09-27T07:13:16Z</time>
      </trkpt>
      <trkpt lat="43.22536" lon="5.63404">
        <ele>213.8046875</ele>
        <time>2015-09-27T07:13:27Z</time>
      </trkpt>
      <trkpt lat="43.22558" lon="5.63425">
        <ele>212.421875</ele>
        <time>2015-09-27T07:13:43Z</time>
      </trkpt>
      <trkpt lat="43.22576" lon="5.63441">
        <ele>210.45703125</ele>
        <time>2015-09-27T07:13:55Z</time>
      </trkpt>
      <trkpt lat="43.22582" lon="5.63475">
        <ele>214.6328125</ele>
        <time>2015-09-27T07:14:07Z</time>
      </trkpt>
      <trkpt lat="43.22589" lon="5.63528">
        <ele>220.37890625</ele>
        <time>2015-09-27T07:14:22Z</time>
      </trkpt>
      <trkpt lat="43.22611" lon="5.63555">
        <ele>223.390625</ele>
        <time>2015-09-27T07:14:38Z</time>
      </trkpt>
      <trkpt lat="43.22626" lon="5.63565">
        <ele>226.32421875</ele>
        <time>2015-09-27T07:14:48Z</time>
      </trkpt>
      <trkpt lat="43.2263" lon="5.63566">
        <ele>226.88671875</ele>
        <time>2015-09-27T07:14:51Z</time>
      </trkpt>
      <trkpt lat="43.22648" lon="5.63567">
        <ele>228.8984375</ele>
        <time>2015-09-27T07:15:03Z</time>
      </trkpt>
      <trkpt lat="43.22649" lon="5.63568">
        <ele>228.98828125</ele>
        <time>2015-09-27T07:15:04Z</time>
      </trkpt>
      <trkpt lat="43.2265" lon="5.6357">
        <ele>229.296875</ele>
        <time>2015-09-27T07:15:05Z</time>
      </trkpt>
      <trkpt lat="43.22651" lon="5.63583">
        <ele>231.6875</ele>
        <time>2015-09-27T07:15:14Z</time>
      </trkpt>
      <trkpt lat="43.2265" lon="5.63591">
        <ele>232.984375</ele>
        <time>2015-09-27T07:15:19Z</time>
      </trkpt>
      <trkpt lat="43.22651" lon="5.63593">
        <ele>233.27734375</ele>
        <time>2015-09-27T07:15:20Z</time>
      </trkpt>
      <trkpt lat="43.22651" lon="5.63594">
        <ele>233.578125</ele>
        <time>2015-09-27T07:15:21Z</time>
      </trkpt>
      <trkpt lat="43.22651" lon="5.63596">
        <ele>233.84375</ele>
        <time>2015-09-27T07:15:22Z</time>
      </trkpt>
      <trkpt lat="43.22651" lon="5.63597">
        <ele>234.13671875</ele>
        <time>2015-09-27T07:15:23Z</time>
      </trkpt>
      <trkpt lat="43.22651" lon="5.63599">
        <ele>234.3984375</ele>
        <time>2015-09-27T07:15:24Z</time>
      </trkpt>
      <trkpt lat="43.22652" lon="5.63608">
        <ele>235.3671875</ele>
        <time>2015-09-27T07:15:29Z</time>
      </trkpt>
      <trkpt lat="43.22652" lon="5.6361">
        <ele>235.4921875</ele>
        <time>2015-09-27T07:15:30Z</time>
      </trkpt>
      <trkpt lat="43.22652" lon="5.63612">
        <ele>235.67578125</ele>
        <time>2015-09-27T07:15:31Z</time>
      </trkpt>
      <trkpt lat="43.22653" lon="5.63614">
        <ele>235.87890625</ele>
        <time>2015-09-27T07:15:32Z</time>
      </trkpt>
      <trkpt lat="43.22653" lon="5.63616">
        <ele>236.0546875</ele>
        <time>2015-09-27T07:15:33Z</time>
      </trkpt>
      <trkpt lat="43.2266" lon="5.63644">
        <ele>239.44140625</ele>
        <time>2015-09-27T07:15:50Z</time>
      </trkpt>
      <trkpt lat="43.22663" lon="5.63652">
        <ele>240.68359375</ele>
        <time>2015-09-27T07:15:54Z</time>
      </trkpt>
      <trkpt lat="43.22663" lon="5.63653">
        <ele>240.890625</ele>
        <time>2015-09-27T07:15:55Z</time>
      </trkpt>
      <trkpt lat="43.22663" lon="5.63655">
        <ele>241.20703125</ele>
        <time>2015-09-27T07:15:56Z</time>
      </trkpt>
      <trkpt lat="43.22664" lon="5.63657">
        <ele>241.49609375</ele>
        <time>2015-09-27T07:15:57Z</time>
      </trkpt>
      <trkpt lat="43.22665" lon="5.63659">
        <ele>241.68359375</ele>
        <time>2015-09-27T07:15:58Z</time>
      </trkpt>
      <trkpt lat="43.22671" lon="5.63686">
        <ele>243.84375</ele>
        <time>2015-09-27T07:16:12Z</time>
      </trkpt>
      <trkpt lat="43.22674" lon="5.637">
        <ele>244.5546875</ele>
        <time>2015-09-27T07:16:19Z</time>
      </trkpt>
      <trkpt lat="43.22675" lon="5.63702">
        <ele>244.625</ele>
        <time>2015-09-27T07:16:20Z</time>
      </trkpt>
      <trkpt lat="43.22675" lon="5.63704">
        <ele>244.71875</ele>
        <time>2015-09-27T07:16:21Z</time>
      </trkpt>
      <trkpt lat="43.22676" lon="5.63706">
        <ele>244.859375</ele>
        <time>2015-09-27T07:16:22Z</time>
      </trkpt>
      <trkpt lat="43.22676" lon="5.63708">
        <ele>244.95703125</ele>
        <time>2015-09-27T07:16:23Z</time>
      </trkpt>
      <trkpt lat="43.22677" lon="5.63709">
        <ele>245.1015625</ele>
        <time>2015-09-27T07:16:24Z</time>
      </trkpt>
      <trkpt lat="43.22677" lon="5.63711">
        <ele>245.234375</ele>
        <time>2015-09-27T07:16:25Z</time>
      </trkpt>
      <trkpt lat="43.22678" lon="5.63713">
        <ele>245.35546875</ele>
        <time>2015-09-27T07:16:26Z</time>
      </trkpt>
      <trkpt lat="43.22689" lon="5.63732">
        <ele>247.4609375</ele>
        <time>2015-09-27T07:16:37Z</time>
      </trkpt>
      <trkpt lat="43.22708" lon="5.63758">
        <ele>250.4453125</ele>
        <time>2015-09-27T07:16:55Z</time>
      </trkpt>
      <trkpt lat="43.22725" lon="5.63778">
        <ele>253.1328125</ele>
        <time>2015-09-27T07:17:11Z</time>
      </trkpt>
      <trkpt lat="43.22738" lon="5.63789">
        <ele>255.47265625</ele>
        <time>2015-09-27T07:17:21Z</time>
      </trkpt>
      <trkpt lat="43.22739" lon="5.63789">
        <ele>255.75390625</ele>
        <time>2015-09-27T07:17:22Z</time>
      </trkpt>
      <trkpt lat="43.2274" lon="5.63789">
        <ele>256.03515625</ele>
        <time>2015-09-27T07:17:23Z</time>
      </trkpt>
      <trkpt lat="43.22743" lon="5.63791">
        <ele>256.46484375</ele>
        <time>2015-09-27T07:17:25Z</time>
      </trkpt>
      <trkpt lat="43.22744" lon="5.63793">
        <ele>256.60546875</ele>
        <time>2015-09-27T07:17:26Z</time>
      </trkpt>
      <trkpt lat="43.22745" lon="5.63794">
        <ele>256.79296875</ele>
        <time>2015-09-27T07:17:27Z</time>
      </trkpt>
      <trkpt lat="43.22746" lon="5.63795">
        <ele>256.98046875</ele>
        <time>2015-09-27T07:17:28Z</time>
      </trkpt>
      <trkpt lat="43.22747" lon="5.63795">
        <ele>257.18359375</ele>
        <time>2015-09-27T07:17:29Z</time>
      </trkpt>
      <trkpt lat="43.22748" lon="5.63796">
        <ele>257.40625</ele>
        <time>2015-09-27T07:17:30Z</time>
      </trkpt>
      <trkpt lat="43.22749" lon="5.63797">
        <ele>257.609375</ele>
        <time>2015-09-27T07:17:31Z</time>
      </trkpt>
      <trkpt lat="43.2275" lon="5.63798">
        <ele>257.7265625</ele>
        <time>2015-09-27T07:17:32Z</time>
      </trkpt>
      <trkpt lat="43.22751" lon="5.63799">
        <ele>257.85546875</ele>
        <time>2015-09-27T07:17:33Z</time>
      </trkpt>
      <trkpt lat="43.22752" lon="5.638">
        <ele>257.96875</ele>
        <time>2015-09-27T07:17:34Z</time>
      </trkpt>
      <trkpt lat="43.22769" lon="5.63813">
        <ele>260.28515625</ele>
        <time>2015-09-27T07:17:49Z</time>
      </trkpt>
      <trkpt lat="43.22786" lon="5.63831">
        <ele>262.72265625</ele>
        <time>2015-09-27T07:18:05Z</time>
      </trkpt>
      <trkpt lat="43.22801" lon="5.63849">
        <ele>267.05859375</ele>
        <time>2015-09-27T07:18:19Z</time>
      </trkpt>
      <trkpt lat="43.22811" lon="5.63873">
        <ele>270.7734375</ele>
        <time>2015-09-27T07:18:34Z</time>
      </trkpt>
      <trkpt lat="43.22814" lon="5.63901">
        <ele>270.26171875</ele>
        <time>2015-09-27T07:18:49Z</time>
      </trkpt>
      <trkpt lat="43.22813" lon="5.63906">
        <ele>269.74609375</ele>
        <time>2015-09-27T07:18:52Z</time>
      </trkpt>
      <trkpt lat="43.22821" lon="5.63936">
        <ele>270.19140625</ele>
        <time>2015-09-27T07:19:07Z</time>
      </trkpt>
      <trkpt lat="43.22837" lon="5.63959">
        <ele>273.7734375</ele>
        <time>2015-09-27T07:19:22Z</time>
      </trkpt>
      <trkpt lat="43.22851" lon="5.63982">
        <ele>276.51171875</ele>
        <time>2015-09-27T07:19:37Z</time>
      </trkpt>
      <trkpt lat="43.2286" lon="5.64003">
        <ele>278.19140625</ele>
        <time>2015-09-27T07:19:51Z</time>
      </trkpt>
      <trkpt lat="43.22863" lon="5.64004">
        <ele>279.05859375</ele>
        <time>2015-09-27T07:19:54Z</time>
      </trkpt>
      <trkpt lat="43.22865" lon="5.64003">
        <ele>279.53515625</ele>
        <time>2015-09-27T07:19:55Z</time>
      </trkpt>
      <trkpt lat="43.22866" lon="5.64002">
        <ele>279.9921875</ele>
        <time>2015-09-27T07:19:56Z</time>
      </trkpt>
      <trkpt lat="43.22867" lon="5.64">
        <ele>280.37890625</ele>
        <time>2015-09-27T07:19:57Z</time>
      </trkpt>
      <trkpt lat="43.22867" lon="5.63998">
        <ele>280.66015625</ele>
        <time>2015-09-27T07:19:58Z</time>
      </trkpt>
      <trkpt lat="43.22868" lon="5.63996">
        <ele>280.89453125</ele>
        <time>2015-09-27T07:19:59Z</time>
      </trkpt>
      <trkpt lat="43.22868" lon="5.63994">
        <ele>281.0859375</ele>
        <time>2015-09-27T07:20:00Z</time>
      </trkpt>
      <trkpt lat="43.22868" lon="5.63992">
        <ele>281.3203125</ele>
        <time>2015-09-27T07:20:01Z</time>
      </trkpt>
      <trkpt lat="43.22868" lon="5.6399">
        <ele>281.53515625</ele>
        <time>2015-09-27T07:20:02Z</time>
      </trkpt>
      <trkpt lat="43.22868" lon="5.63988">
        <ele>281.62109375</ele>
        <time>2015-09-27T07:20:03Z</time>
      </trkpt>
      <trkpt lat="43.22868" lon="5.63986">
        <ele>281.66796875</ele>
        <time>2015-09-27T07:20:04Z</time>
      </trkpt>
      <trkpt lat="43.22871" lon="5.63951">
        <ele>283.83984375</ele>
        <time>2015-09-27T07:20:21Z</time>
      </trkpt>
      <trkpt lat="43.22877" lon="5.63925">
        <ele>286.57421875</ele>
        <time>2015-09-27T07:20:35Z</time>
      </trkpt>
      <trkpt lat="43.22881" lon="5.63892">
        <ele>287.7421875</ele>
        <time>2015-09-27T07:20:51Z</time>
      </trkpt>
      <trkpt lat="43.22885" lon="5.63878">
        <ele>288.38671875</ele>
        <time>2015-09-27T07:20:59Z</time>
      </trkpt>
      <trkpt lat="43.22887" lon="5.63877">
        <ele>288.640625</ele>
        <time>2015-09-27T07:21:00Z</time>
      </trkpt>
      <trkpt lat="43.22888" lon="5.63878">
        <ele>288.8515625</ele>
        <time>2015-09-27T07:21:01Z</time>
      </trkpt>
      <trkpt lat="43.2289" lon="5.6388">
        <ele>289.30859375</ele>
        <time>2015-09-27T07:21:03Z</time>
      </trkpt>
      <trkpt lat="43.22891" lon="5.63881">
        <ele>289.42578125</ele>
        <time>2015-09-27T07:21:04Z</time>
      </trkpt>
      <trkpt lat="43.22891" lon="5.63883">
        <ele>289.48828125</ele>
        <time>2015-09-27T07:21:05Z</time>
      </trkpt>
      <trkpt lat="43.22891" lon="5.63885">
        <ele>289.54296875</ele>
        <time>2015-09-27T07:21:06Z</time>
      </trkpt>
      <trkpt lat="43.22892" lon="5.63887">
        <ele>289.61328125</ele>
        <time>2015-09-27T07:21:07Z</time>
      </trkpt>
      <trkpt lat="43.22894" lon="5.63903">
        <ele>290.07421875</ele>
        <time>2015-09-27T07:21:16Z</time>
      </trkpt>
      <trkpt lat="43.22895" lon="5.63905">
        <ele>290.16015625</ele>
        <time>2015-09-27T07:21:17Z</time>
      </trkpt>
      <trkpt lat="43.22908" lon="5.63934">
        <ele>292.60546875</ele>
        <time>2015-09-27T07:21:32Z</time>
      </trkpt>
      <trkpt lat="43.22924" lon="5.63957">
        <ele>295.515625</ele>
        <time>2015-09-27T07:21:46Z</time>
      </trkpt>
      <trkpt lat="43.22939" lon="5.63981">
        <ele>297.89453125</ele>
        <time>2015-09-27T07:22:01Z</time>
      </trkpt>
      <trkpt lat="43.22941" lon="5.63982">
        <ele>298.1875</ele>
        <time>2015-09-27T07:22:02Z</time>
      </trkpt>
      <trkpt lat="43.22942" lon="5.63984">
        <ele>298.5</ele>
        <time>2015-09-27T07:22:03Z</time>
      </trkpt>
      <trkpt lat="43.22943" lon="5.63985">
        <ele>298.7578125</ele>
        <time>2015-09-27T07:22:04Z</time>
      </trkpt>
      <trkpt lat="43.22945" lon="5.63987">
        <ele>299.0390625</ele>
        <time>2015-09-27T07:22:05Z</time>
      </trkpt>
      <trkpt lat="43.22949" lon="5.63992">
        <ele>299.921875</ele>
        <time>2015-09-27T07:22:09Z</time>
      </trkpt>
      <trkpt lat="43.22951" lon="5.63993">
        <ele>300.15234375</ele>
        <time>2015-09-27T07:22:10Z</time>
      </trkpt>
      <trkpt lat="43.22952" lon="5.63995">
        <ele>300.3046875</ele>
        <time>2015-09-27T07:22:11Z</time>
      </trkpt>
      <trkpt lat="43.22953" lon="5.63997">
        <ele>300.45703125</ele>
        <time>2015-09-27T07:22:12Z</time>
      </trkpt>
      <trkpt lat="43.22954" lon="5.63999">
        <ele>300.578125</ele>
        <time>2015-09-27T07:22:13Z</time>
      </trkpt>
      <trkpt lat="43.22968" lon="5.64021">
        <ele>302.15625</ele>
        <time>2015-09-27T07:22:26Z</time>
      </trkpt>
      <trkpt lat="43.22982" lon="5.64044">
        <ele>304.06640625</ele>
        <time>2015-09-27T07:22:40Z</time>
      </trkpt>
      <trkpt lat="43.22993" lon="5.64066">
        <ele>306.0234375</ele>
        <time>2015-09-27T07:22:52Z</time>
      </trkpt>
      <trkpt lat="43.22993" lon="5.64067">
        <ele>306.09375</ele>
        <time>2015-09-27T07:22:53Z</time>
      </trkpt>
      <trkpt lat="43.22994" lon="5.64069">
        <ele>306.26953125</ele>
        <time>2015-09-27T07:22:54Z</time>
      </trkpt>
      <trkpt lat="43.22995" lon="5.64071">
        <ele>306.48046875</ele>
        <time>2015-09-27T07:22:55Z</time>
      </trkpt>
      <trkpt lat="43.22995" lon="5.64073">
        <ele>306.6171875</ele>
        <time>2015-09-27T07:22:56Z</time>
      </trkpt>
      <trkpt lat="43.23002" lon="5.64087">
        <ele>307.703125</ele>
        <time>2015-09-27T07:23:04Z</time>
      </trkpt>
      <trkpt lat="43.23003" lon="5.64089">
        <ele>307.828125</ele>
        <time>2015-09-27T07:23:05Z</time>
      </trkpt>
      <trkpt lat="43.23003" lon="5.64091">
        <ele>307.9375</ele>
        <time>2015-09-27T07:23:06Z</time>
      </trkpt>
      <trkpt lat="43.23016" lon="5.6411">
        <ele>309.35546875</ele>
        <time>2015-09-27T07:23:17Z</time>
      </trkpt>
      <trkpt lat="43.23017" lon="5.6411">
        <ele>309.62109375</ele>
        <time>2015-09-27T07:23:18Z</time>
      </trkpt>
      <trkpt lat="43.23019" lon="5.64109">
        <ele>309.9140625</ele>
        <time>2015-09-27T07:23:19Z</time>
      </trkpt>
      <trkpt lat="43.2302" lon="5.64108">
        <ele>310.0859375</ele>
        <time>2015-09-27T07:23:20Z</time>
      </trkpt>
      <trkpt lat="43.23021" lon="5.64108">
        <ele>310.20703125</ele>
        <time>2015-09-27T07:23:21Z</time>
      </trkpt>
      <trkpt lat="43.23022" lon="5.64105">
        <ele>310.43359375</ele>
        <time>2015-09-27T07:23:22Z</time>
      </trkpt>
      <trkpt lat="43.23023" lon="5.64103">
        <ele>310.53515625</ele>
        <time>2015-09-27T07:23:23Z</time>
      </trkpt>
      <trkpt lat="43.23023" lon="5.64101">
        <ele>310.58984375</ele>
        <time>2015-09-27T07:23:24Z</time>
      </trkpt>
      <trkpt lat="43.23024" lon="5.64067">
        <ele>310.70703125</ele>
        <time>2015-09-27T07:23:40Z</time>
      </trkpt>
      <trkpt lat="43.23024" lon="5.64062">
        <ele>310.55078125</ele>
        <time>2015-09-27T07:23:43Z</time>
      </trkpt>
      <trkpt lat="43.23027" lon="5.64059">
        <ele>310.546875</ele>
        <time>2015-09-27T07:23:45Z</time>
      </trkpt>
      <trkpt lat="43.23028" lon="5.64058">
        <ele>310.60546875</ele>
        <time>2015-09-27T07:23:46Z</time>
      </trkpt>
      <trkpt lat="43.23031" lon="5.64057">
        <ele>310.734375</ele>
        <time>2015-09-27T07:23:48Z</time>
      </trkpt>
      <trkpt lat="43.23033" lon="5.64057">
        <ele>310.82421875</ele>
        <time>2015-09-27T07:23:49Z</time>
      </trkpt>
      <trkpt lat="43.2305" lon="5.6407">
        <ele>312.32421875</ele>
        <time>2015-09-27T07:24:00Z</time>
      </trkpt>
      <trkpt lat="43.23065" lon="5.64099">
        <ele>314.33203125</ele>
        <time>2015-09-27T07:24:15Z</time>
      </trkpt>
      <trkpt lat="43.23076" lon="5.64125">
        <ele>315.16796875</ele>
        <time>2015-09-27T07:24:26Z</time>
      </trkpt>
      <trkpt lat="43.23079" lon="5.6413">
        <ele>315.48046875</ele>
        <time>2015-09-27T07:24:29Z</time>
      </trkpt>
      <trkpt lat="43.2308" lon="5.64132">
        <ele>315.58984375</ele>
        <time>2015-09-27T07:24:30Z</time>
      </trkpt>
      <trkpt lat="43.23081" lon="5.64133">
        <ele>315.73828125</ele>
        <time>2015-09-27T07:24:31Z</time>
      </trkpt>
      <trkpt lat="43.23082" lon="5.64138">
        <ele>316.171875</ele>
        <time>2015-09-27T07:24:33Z</time>
      </trkpt>
      <trkpt lat="43.23082" lon="5.6414">
        <ele>316.34765625</ele>
        <time>2015-09-27T07:24:34Z</time>
      </trkpt>
      <trkpt lat="43.23082" lon="5.64142">
        <ele>316.61328125</ele>
        <time>2015-09-27T07:24:35Z</time>
      </trkpt>
      <trkpt lat="43.23083" lon="5.64144">
        <ele>316.80078125</ele>
        <time>2015-09-27T07:24:36Z</time>
      </trkpt>
      <trkpt lat="43.23084" lon="5.64146">
        <ele>316.97265625</ele>
        <time>2015-09-27T07:24:37Z</time>
      </trkpt>
      <trkpt lat="43.23085" lon="5.64148">
        <ele>317.16015625</ele>
        <time>2015-09-27T07:24:38Z</time>
      </trkpt>
      <trkpt lat="43.23086" lon="5.6415">
        <ele>317.32421875</ele>
        <time>2015-09-27T07:24:39Z</time>
      </trkpt>
      <trkpt lat="43.23087" lon="5.64152">
        <ele>317.49609375</ele>
        <time>2015-09-27T07:24:40Z</time>
      </trkpt>
      <trkpt lat="43.23103" lon="5.64175">
        <ele>319.1328125</ele>
        <time>2015-09-27T07:24:54Z</time>
      </trkpt>
      <trkpt lat="43.23112" lon="5.64195">
        <ele>320.70703125</ele>
        <time>2015-09-27T07:25:05Z</time>
      </trkpt>
      <trkpt lat="43.23124" lon="5.64217">
        <ele>321.671875</ele>
        <time>2015-09-27T07:25:18Z</time>
      </trkpt>
      <trkpt lat="43.23138" lon="5.64244">
        <ele>323.74609375</ele>
        <time>2015-09-27T07:25:32Z</time>
      </trkpt>
      <trkpt lat="43.23147" lon="5.64273">
        <ele>327.40625</ele>
        <time>2015-09-27T07:25:45Z</time>
      </trkpt>
      <trkpt lat="43.23154" lon="5.64308">
        <ele>330.27734375</ele>
        <time>2015-09-27T07:26:01Z</time>
      </trkpt>
      <trkpt lat="43.23158" lon="5.64328">
        <ele>331.0859375</ele>
        <time>2015-09-27T07:26:10Z</time>
      </trkpt>
      <trkpt lat="43.23158" lon="5.6433">
        <ele>331.1328125</ele>
        <time>2015-09-27T07:26:11Z</time>
      </trkpt>
      <trkpt lat="43.23159" lon="5.64332">
        <ele>331.18359375</ele>
        <time>2015-09-27T07:26:12Z</time>
      </trkpt>
      <trkpt lat="43.23176" lon="5.64366">
        <ele>331.46484375</ele>
        <time>2015-09-27T07:26:27Z</time>
      </trkpt>
      <trkpt lat="43.23177" lon="5.64368">
        <ele>331.42578125</ele>
        <time>2015-09-27T07:26:28Z</time>
      </trkpt>
      <trkpt lat="43.23178" lon="5.6437">
        <ele>331.3984375</ele>
        <time>2015-09-27T07:26:29Z</time>
      </trkpt>
      <trkpt lat="43.23179" lon="5.64372">
        <ele>331.37890625</ele>
        <time>2015-09-27T07:26:30Z</time>
      </trkpt>
      <trkpt lat="43.2318" lon="5.64374">
        <ele>331.3671875</ele>
        <time>2015-09-27T07:26:31Z</time>
      </trkpt>
      <trkpt lat="43.23194" lon="5.64404">
        <ele>332.3359375</ele>
        <time>2015-09-27T07:26:44Z</time>
      </trkpt>
      <trkpt lat="43.2321" lon="5.64436">
        <ele>336.23046875</ele>
        <time>2015-09-27T07:26:58Z</time>
      </trkpt>
      <trkpt lat="43.23213" lon="5.64442">
        <ele>336.9609375</ele>
        <time>2015-09-27T07:27:12Z</time>
      </trkpt>
      <trkpt lat="43.23219" lon="5.6444">
        <ele>337.52734375</ele>
        <time>2015-09-27T07:27:46Z</time>
      </trkpt>
      <trkpt lat="43.23225" lon="5.64439">
        <ele>338.1640625</ele>
        <time>2015-09-27T07:28:11Z</time>
      </trkpt>
      <trkpt lat="43.23225" lon="5.64437">
        <ele>337.96875</ele>
        <time>2015-09-27T07:28:35Z</time>
      </trkpt>
      <trkpt lat="43.23222" lon="5.6444">
        <ele>337.86328125</ele>
        <time>2015-09-27T07:28:46Z</time>
      </trkpt>
      <trkpt lat="43.23222" lon="5.64441">
        <ele>337.9296875</ele>
        <time>2015-09-27T07:28:47Z</time>
      </trkpt>
      <trkpt lat="43.23225" lon="5.64461">
        <ele>339.7109375</ele>
        <time>2015-09-27T07:28:58Z</time>
      </trkpt>
      <trkpt lat="43.23238" lon="5.64479">
        <ele>342.84375</ele>
        <time>2015-09-27T07:29:09Z</time>
      </trkpt>
      <trkpt lat="43.23241" lon="5.64511">
        <ele>345.93359375</ele>
        <time>2015-09-27T07:29:23Z</time>
      </trkpt>
      <trkpt lat="43.23241" lon="5.64514">
        <ele>346.19921875</ele>
        <time>2015-09-27T07:29:24Z</time>
      </trkpt>
      <trkpt lat="43.23243" lon="5.64546">
        <ele>348.80078125</ele>
        <time>2015-09-27T07:29:38Z</time>
      </trkpt>
      <trkpt lat="43.2325" lon="5.64558">
        <ele>350.26171875</ele>
        <time>2015-09-27T07:29:46Z</time>
      </trkpt>
      <trkpt lat="43.23251" lon="5.64559">
        <ele>350.640625</ele>
        <time>2015-09-27T07:29:47Z</time>
      </trkpt>
      <trkpt lat="43.23253" lon="5.64558">
        <ele>350.984375</ele>
        <time>2015-09-27T07:29:48Z</time>
      </trkpt>
      <trkpt lat="43.23254" lon="5.64558">
        <ele>351.3046875</ele>
        <time>2015-09-27T07:29:49Z</time>
      </trkpt>
      <trkpt lat="43.23256" lon="5.64558">
        <ele>351.52734375</ele>
        <time>2015-09-27T07:29:50Z</time>
      </trkpt>
      <trkpt lat="43.23257" lon="5.64558">
        <ele>351.66015625</ele>
        <time>2015-09-27T07:29:51Z</time>
      </trkpt>
      <trkpt lat="43.23258" lon="5.64559">
        <ele>351.79296875</ele>
        <time>2015-09-27T07:29:52Z</time>
      </trkpt>
      <trkpt lat="43.23259" lon="5.64559">
        <ele>351.93359375</ele>
        <time>2015-09-27T07:29:53Z</time>
      </trkpt>
      <trkpt lat="43.23276" lon="5.64581">
        <ele>355.50390625</ele>
        <time>2015-09-27T07:30:10Z</time>
      </trkpt>
      <trkpt lat="43.23277" lon="5.64584">
        <ele>355.87109375</ele>
        <time>2015-09-27T07:30:12Z</time>
      </trkpt>
      <trkpt lat="43.23278" lon="5.64586">
        <ele>356.08203125</ele>
        <time>2015-09-27T07:30:13Z</time>
      </trkpt>
      <trkpt lat="43.2329" lon="5.64619">
        <ele>359.60546875</ele>
        <time>2015-09-27T07:30:31Z</time>
      </trkpt>
      <trkpt lat="43.23303" lon="5.64652">
        <ele>363.2734375</ele>
        <time>2015-09-27T07:30:48Z</time>
      </trkpt>
      <trkpt lat="43.23311" lon="5.64669">
        <ele>366.08203125</ele>
        <time>2015-09-27T07:30:57Z</time>
      </trkpt>
      <trkpt lat="43.23311" lon="5.6467">
        <ele>366.3125</ele>
        <time>2015-09-27T07:30:58Z</time>
      </trkpt>
      <trkpt lat="43.23312" lon="5.64672">
        <ele>366.62890625</ele>
        <time>2015-09-27T07:30:59Z</time>
      </trkpt>
      <trkpt lat="43.23321" lon="5.64693">
        <ele>369.19140625</ele>
        <time>2015-09-27T07:31:11Z</time>
      </trkpt>
      <trkpt lat="43.23332" lon="5.6472">
        <ele>371.921875</ele>
        <time>2015-09-27T07:31:26Z</time>
      </trkpt>
      <trkpt lat="43.23335" lon="5.64723">
        <ele>372.59375</ele>
        <time>2015-09-27T07:31:28Z</time>
      </trkpt>
      <trkpt lat="43.23349" lon="5.64753">
        <ele>375.20703125</ele>
        <time>2015-09-27T07:31:44Z</time>
      </trkpt>
      <trkpt lat="43.2336" lon="5.64773">
        <ele>378.2421875</ele>
        <time>2015-09-27T07:31:57Z</time>
      </trkpt>
      <trkpt lat="43.23369" lon="5.64802">
        <ele>379.4921875</ele>
        <time>2015-09-27T07:32:11Z</time>
      </trkpt>
      <trkpt lat="43.2337" lon="5.64804">
        <ele>379.47265625</ele>
        <time>2015-09-27T07:32:12Z</time>
      </trkpt>
      <trkpt lat="43.23371" lon="5.64806">
        <ele>379.5</ele>
        <time>2015-09-27T07:32:13Z</time>
      </trkpt>
      <trkpt lat="43.23371" lon="5.64808">
        <ele>379.484375</ele>
        <time>2015-09-27T07:32:14Z</time>
      </trkpt>
      <trkpt lat="43.23372" lon="5.64809">
        <ele>379.46484375</ele>
        <time>2015-09-27T07:32:15Z</time>
      </trkpt>
      <trkpt lat="43.23372" lon="5.64811">
        <ele>379.3984375</ele>
        <time>2015-09-27T07:32:16Z</time>
      </trkpt>
      <trkpt lat="43.23372" lon="5.64813">
        <ele>379.37890625</ele>
        <time>2015-09-27T07:32:17Z</time>
      </trkpt>
      <trkpt lat="43.23373" lon="5.64815">
        <ele>379.44140625</ele>
        <time>2015-09-27T07:32:18Z</time>
      </trkpt>
      <trkpt lat="43.23379" lon="5.6483">
        <ele>380.17578125</ele>
        <time>2015-09-27T07:32:25Z</time>
      </trkpt>
      <trkpt lat="43.23379" lon="5.64832">
        <ele>380.25390625</ele>
        <time>2015-09-27T07:32:26Z</time>
      </trkpt>
      <trkpt lat="43.23383" lon="5.64839">
        <ele>381</ele>
        <time>2015-09-27T07:32:30Z</time>
      </trkpt>
      <trkpt lat="43.23389" lon="5.64852">
        <ele>382.125</ele>
        <time>2015-09-27T07:32:38Z</time>
      </trkpt>
      <trkpt lat="43.2339" lon="5.64854">
        <ele>382.17578125</ele>
        <time>2015-09-27T07:32:39Z</time>
      </trkpt>
      <trkpt lat="43.23391" lon="5.64855">
        <ele>382.37109375</ele>
        <time>2015-09-27T07:32:40Z</time>
      </trkpt>
      <trkpt lat="43.23391" lon="5.64857">
        <ele>382.5390625</ele>
        <time>2015-09-27T07:32:41Z</time>
      </trkpt>
      <trkpt lat="43.23392" lon="5.64858">
        <ele>382.71875</ele>
        <time>2015-09-27T07:32:42Z</time>
      </trkpt>
      <trkpt lat="43.23393" lon="5.64861">
        <ele>382.828125</ele>
        <time>2015-09-27T07:32:43Z</time>
      </trkpt>
      <trkpt lat="43.23394" lon="5.64862">
        <ele>382.8359375</ele>
        <time>2015-09-27T07:32:44Z</time>
      </trkpt>
      <trkpt lat="43.23395" lon="5.64864">
        <ele>382.86328125</ele>
        <time>2015-09-27T07:32:45Z</time>
      </trkpt>
      <trkpt lat="43.23404" lon="5.64874">
        <ele>383.98046875</ele>
        <time>2015-09-27T07:32:53Z</time>
      </trkpt>
      <trkpt lat="43.23405" lon="5.64875">
        <ele>384.0546875</ele>
        <time>2015-09-27T07:32:54Z</time>
      </trkpt>
      <trkpt lat="43.23422" lon="5.64892">
        <ele>387.63671875</ele>
        <time>2015-09-27T07:33:08Z</time>
      </trkpt>
      <trkpt lat="43.23439" lon="5.64905">
        <ele>392.15234375</ele>
        <time>2015-09-27T07:33:21Z</time>
      </trkpt>
      <trkpt lat="43.23449" lon="5.64927">
        <ele>394.984375</ele>
        <time>2015-09-27T07:33:34Z</time>
      </trkpt>
      <trkpt lat="43.23449" lon="5.64929">
        <ele>394.87890625</ele>
        <time>2015-09-27T07:33:35Z</time>
      </trkpt>
      <trkpt lat="43.23445" lon="5.64939">
        <ele>393.7421875</ele>
        <time>2015-09-27T07:33:41Z</time>
      </trkpt>
      <trkpt lat="43.23444" lon="5.64941">
        <ele>393.70703125</ele>
        <time>2015-09-27T07:33:42Z</time>
      </trkpt>
      <trkpt lat="43.23444" lon="5.64943">
        <ele>393.5859375</ele>
        <time>2015-09-27T07:33:43Z</time>
      </trkpt>
      <trkpt lat="43.23439" lon="5.64958">
        <ele>392.66796875</ele>
        <time>2015-09-27T07:33:51Z</time>
      </trkpt>
      <trkpt lat="43.23439" lon="5.6496">
        <ele>392.7734375</ele>
        <time>2015-09-27T07:33:52Z</time>
      </trkpt>
      <trkpt lat="43.23439" lon="5.64962">
        <ele>392.8515625</ele>
        <time>2015-09-27T07:33:53Z</time>
      </trkpt>
      <trkpt lat="43.2344" lon="5.64964">
        <ele>392.90234375</ele>
        <time>2015-09-27T07:33:54Z</time>
      </trkpt>
      <trkpt lat="43.2344" lon="5.64966">
        <ele>392.984375</ele>
        <time>2015-09-27T07:33:55Z</time>
      </trkpt>
      <trkpt lat="43.23452" lon="5.64992">
        <ele>395.640625</ele>
        <time>2015-09-27T07:34:10Z</time>
      </trkpt>
      <trkpt lat="43.23463" lon="5.65019">
        <ele>397.390625</ele>
        <time>2015-09-27T07:34:25Z</time>
      </trkpt>
      <trkpt lat="43.23472" lon="5.65036">
        <ele>398.17578125</ele>
        <time>2015-09-27T07:34:35Z</time>
      </trkpt>
      <trkpt lat="43.23475" lon="5.6504">
        <ele>398.87109375</ele>
        <time>2015-09-27T07:34:51Z</time>
      </trkpt>
      <trkpt lat="43.23474" lon="5.65044">
        <ele>398.328125</ele>
        <time>2015-09-27T07:35:22Z</time>
      </trkpt>
      <trkpt lat="43.23475" lon="5.65041">
        <ele>398.67578125</ele>
        <time>2015-09-27T07:35:47Z</time>
      </trkpt>
      <trkpt lat="43.23469" lon="5.65042">
        <ele>397.03515625</ele>
        <time>2015-09-27T07:36:17Z</time>
      </trkpt>
      <trkpt lat="43.23472" lon="5.65045">
        <ele>397.57421875</ele>
        <time>2015-09-27T07:36:47Z</time>
      </trkpt>
      <trkpt lat="43.23474" lon="5.65043">
        <ele>398.171875</ele>
        <time>2015-09-27T07:37:15Z</time>
      </trkpt>
      <trkpt lat="43.23473" lon="5.65048">
        <ele>397.71875</ele>
        <time>2015-09-27T07:37:44Z</time>
      </trkpt>
      <trkpt lat="43.23475" lon="5.65046">
        <ele>398.25390625</ele>
        <time>2015-09-27T07:38:14Z</time>
      </trkpt>
      <trkpt lat="43.23475" lon="5.65051">
        <ele>397.88671875</ele>
        <time>2015-09-27T07:38:43Z</time>
      </trkpt>
      <trkpt lat="43.23475" lon="5.65053">
        <ele>397.94921875</ele>
        <time>2015-09-27T07:38:44Z</time>
      </trkpt>
      <trkpt lat="43.23476" lon="5.65054">
        <ele>398.09375</ele>
        <time>2015-09-27T07:38:45Z</time>
      </trkpt>
      <trkpt lat="43.23477" lon="5.65056">
        <ele>398.265625</ele>
        <time>2015-09-27T07:38:46Z</time>
      </trkpt>
      <trkpt lat="43.23478" lon="5.65057">
        <ele>398.46875</ele>
        <time>2015-09-27T07:38:47Z</time>
      </trkpt>
      <trkpt lat="43.2348" lon="5.65059">
        <ele>398.76171875</ele>
        <time>2015-09-27T07:38:48Z</time>
      </trkpt>
      <trkpt lat="43.23497" lon="5.65083">
        <ele>401.171875</ele>
        <time>2015-09-27T07:39:04Z</time>
      </trkpt>
      <trkpt lat="43.23514" lon="5.65107">
        <ele>403.07421875</ele>
        <time>2015-09-27T07:39:20Z</time>
      </trkpt>
      <trkpt lat="43.23528" lon="5.65132">
        <ele>404.1953125</ele>
        <time>2015-09-27T07:39:34Z</time>
      </trkpt>
      <trkpt lat="43.23545" lon="5.65146">
        <ele>405.87109375</ele>
        <time>2015-09-27T07:39:47Z</time>
      </trkpt>
      <trkpt lat="43.23564" lon="5.65144">
        <ele>409.81640625</ele>
        <time>2015-09-27T07:39:59Z</time>
      </trkpt>
      <trkpt lat="43.23586" lon="5.65134">
        <ele>415.4140625</ele>
        <time>2015-09-27T07:40:13Z</time>
      </trkpt>
      <trkpt lat="43.23599" lon="5.65134">
        <ele>418.61328125</ele>
        <time>2015-09-27T07:40:20Z</time>
      </trkpt>
      <trkpt lat="43.236" lon="5.65135">
        <ele>418.98046875</ele>
        <time>2015-09-27T07:40:21Z</time>
      </trkpt>
      <trkpt lat="43.23602" lon="5.65136">
        <ele>419.32421875</ele>
        <time>2015-09-27T07:40:22Z</time>
      </trkpt>
      <trkpt lat="43.23603" lon="5.65137">
        <ele>419.62109375</ele>
        <time>2015-09-27T07:40:23Z</time>
      </trkpt>
      <trkpt lat="43.23604" lon="5.65139">
        <ele>419.82421875</ele>
        <time>2015-09-27T07:40:24Z</time>
      </trkpt>
      <trkpt lat="43.23604" lon="5.65141">
        <ele>419.90234375</ele>
        <time>2015-09-27T07:40:25Z</time>
      </trkpt>
      <trkpt lat="43.23605" lon="5.65143">
        <ele>419.98046875</ele>
        <time>2015-09-27T07:40:26Z</time>
      </trkpt>
      <trkpt lat="43.23605" lon="5.65145">
        <ele>420.11328125</ele>
        <time>2015-09-27T07:40:27Z</time>
      </trkpt>
      <trkpt lat="43.23606" lon="5.65147">
        <ele>420.234375</ele>
        <time>2015-09-27T07:40:28Z</time>
      </trkpt>
      <trkpt lat="43.23606" lon="5.65149">
        <ele>420.3828125</ele>
        <time>2015-09-27T07:40:29Z</time>
      </trkpt>
      <trkpt lat="43.23607" lon="5.65151">
        <ele>420.4921875</ele>
        <time>2015-09-27T07:40:30Z</time>
      </trkpt>
      <trkpt lat="43.23607" lon="5.65153">
        <ele>420.51171875</ele>
        <time>2015-09-27T07:40:31Z</time>
      </trkpt>
      <trkpt lat="43.23607" lon="5.65155">
        <ele>420.5703125</ele>
        <time>2015-09-27T07:40:32Z</time>
      </trkpt>
      <trkpt lat="43.23608" lon="5.65156">
        <ele>420.6953125</ele>
        <time>2015-09-27T07:40:33Z</time>
      </trkpt>
      <trkpt lat="43.23609" lon="5.65165">
        <ele>421.13671875</ele>
        <time>2015-09-27T07:40:37Z</time>
      </trkpt>
      <trkpt lat="43.23609" lon="5.65167">
        <ele>421.203125</ele>
        <time>2015-09-27T07:40:38Z</time>
      </trkpt>
      <trkpt lat="43.2361" lon="5.65168">
        <ele>421.34375</ele>
        <time>2015-09-27T07:40:39Z</time>
      </trkpt>
      <trkpt lat="43.2361" lon="5.6517">
        <ele>421.45703125</ele>
        <time>2015-09-27T07:40:40Z</time>
      </trkpt>
      <trkpt lat="43.2361" lon="5.65171">
        <ele>421.52734375</ele>
        <time>2015-09-27T07:40:41Z</time>
      </trkpt>
      <trkpt lat="43.2361" lon="5.65173">
        <ele>421.5703125</ele>
        <time>2015-09-27T07:40:42Z</time>
      </trkpt>
      <trkpt lat="43.23611" lon="5.65175">
        <ele>421.65625</ele>
        <time>2015-09-27T07:40:43Z</time>
      </trkpt>
      <trkpt lat="43.23616" lon="5.65209">
        <ele>423.12890625</ele>
        <time>2015-09-27T07:40:59Z</time>
      </trkpt>
      <trkpt lat="43.23621" lon="5.65242">
        <ele>425.046875</ele>
        <time>2015-09-27T07:41:15Z</time>
      </trkpt>
      <trkpt lat="43.23624" lon="5.65275">
        <ele>426.734375</ele>
        <time>2015-09-27T07:41:30Z</time>
      </trkpt>
      <trkpt lat="43.23626" lon="5.65312">
        <ele>427.9453125</ele>
        <time>2015-09-27T07:41:46Z</time>
      </trkpt>
      <trkpt lat="43.2363" lon="5.6534">
        <ele>428.50390625</ele>
        <time>2015-09-27T07:41:58Z</time>
      </trkpt>
      <trkpt lat="43.23635" lon="5.65378">
        <ele>428.125</ele>
        <time>2015-09-27T07:42:12Z</time>
      </trkpt>
      <trkpt lat="43.23652" lon="5.65391">
        <ele>428.48828125</ele>
        <time>2015-09-27T07:42:24Z</time>
      </trkpt>
      <trkpt lat="43.23675" lon="5.65399">
        <ele>429.2265625</ele>
        <time>2015-09-27T07:42:38Z</time>
      </trkpt>
      <trkpt lat="43.23697" lon="5.65391">
        <ele>429.51953125</ele>
        <time>2015-09-27T07:42:52Z</time>
      </trkpt>
      <trkpt lat="43.23702" lon="5.65357">
        <ele>431.39453125</ele>
        <time>2015-09-27T07:43:05Z</time>
      </trkpt>
      <trkpt lat="43.2371" lon="5.65322">
        <ele>433.0078125</ele>
        <time>2015-09-27T07:43:19Z</time>
      </trkpt>
      <trkpt lat="43.23712" lon="5.65312">
        <ele>433.3515625</ele>
        <time>2015-09-27T07:43:23Z</time>
      </trkpt>
      <trkpt lat="43.23713" lon="5.6531">
        <ele>433.44140625</ele>
        <time>2015-09-27T07:43:24Z</time>
      </trkpt>
      <trkpt lat="43.23723" lon="5.65272">
        <ele>434.8046875</ele>
        <time>2015-09-27T07:43:39Z</time>
      </trkpt>
      <trkpt lat="43.23727" lon="5.65253">
        <ele>435.49609375</ele>
        <time>2015-09-27T07:43:47Z</time>
      </trkpt>
      <trkpt lat="43.23727" lon="5.6525">
        <ele>435.5703125</ele>
        <time>2015-09-27T07:43:48Z</time>
      </trkpt>
      <trkpt lat="43.23727" lon="5.65248">
        <ele>435.625</ele>
        <time>2015-09-27T07:43:49Z</time>
      </trkpt>
      <trkpt lat="43.23728" lon="5.65246">
        <ele>435.671875</ele>
        <time>2015-09-27T07:43:50Z</time>
      </trkpt>
      <trkpt lat="43.23728" lon="5.65243">
        <ele>435.72265625</ele>
        <time>2015-09-27T07:43:51Z</time>
      </trkpt>
      <trkpt lat="43.23729" lon="5.65241">
        <ele>435.76171875</ele>
        <time>2015-09-27T07:43:52Z</time>
      </trkpt>
      <trkpt lat="43.2373" lon="5.65239">
        <ele>435.78125</ele>
        <time>2015-09-27T07:43:53Z</time>
      </trkpt>
      <trkpt lat="43.23734" lon="5.65223">
        <ele>436.078125</ele>
        <time>2015-09-27T07:44:00Z</time>
      </trkpt>
      <trkpt lat="43.23735" lon="5.65221">
        <ele>436.0703125</ele>
        <time>2015-09-27T07:44:01Z</time>
      </trkpt>
      <trkpt lat="43.23748" lon="5.65187">
        <ele>436.96875</ele>
        <time>2015-09-27T07:44:15Z</time>
      </trkpt>
      <trkpt lat="43.23764" lon="5.65139">
        <ele>439.6015625</ele>
        <time>2015-09-27T07:44:33Z</time>
      </trkpt>
      <trkpt lat="43.23774" lon="5.65102">
        <ele>440.94921875</ele>
        <time>2015-09-27T07:44:46Z</time>
      </trkpt>
      <trkpt lat="43.23785" lon="5.65055">
        <ele>442.78125</ele>
        <time>2015-09-27T07:45:02Z</time>
      </trkpt>
      <trkpt lat="43.23787" lon="5.65014">
        <ele>444.76171875</ele>
        <time>2015-09-27T07:45:17Z</time>
      </trkpt>
      <trkpt lat="43.23792" lon="5.64969">
        <ele>448.9140625</ele>
        <time>2015-09-27T07:45:32Z</time>
      </trkpt>
      <trkpt lat="43.23793" lon="5.64963">
        <ele>449.5546875</ele>
        <time>2015-09-27T07:45:34Z</time>
      </trkpt>
      <trkpt lat="43.23797" lon="5.64938">
        <ele>451.265625</ele>
        <time>2015-09-27T07:45:48Z</time>
      </trkpt>
      <trkpt lat="43.23797" lon="5.64937">
        <ele>451.34765625</ele>
        <time>2015-09-27T07:46:12Z</time>
      </trkpt>
      <trkpt lat="43.23797" lon="5.64936">
        <ele>451.4375</ele>
        <time>2015-09-27T07:46:13Z</time>
      </trkpt>
      <trkpt lat="43.23801" lon="5.64921">
        <ele>452.42578125</ele>
        <time>2015-09-27T07:46:21Z</time>
      </trkpt>
      <trkpt lat="43.23802" lon="5.64919">
        <ele>452.6015625</ele>
        <time>2015-09-27T07:46:22Z</time>
      </trkpt>
      <trkpt lat="43.23803" lon="5.64917">
        <ele>452.76953125</ele>
        <time>2015-09-27T07:46:23Z</time>
      </trkpt>
      <trkpt lat="43.23804" lon="5.64916">
        <ele>452.9375</ele>
        <time>2015-09-27T07:46:24Z</time>
      </trkpt>
      <trkpt lat="43.23805" lon="5.64914">
        <ele>453.1015625</ele>
        <time>2015-09-27T07:46:25Z</time>
      </trkpt>
      <trkpt lat="43.23806" lon="5.64912">
        <ele>453.27734375</ele>
        <time>2015-09-27T07:46:26Z</time>
      </trkpt>
      <trkpt lat="43.23807" lon="5.6491">
        <ele>453.46484375</ele>
        <time>2015-09-27T07:46:27Z</time>
      </trkpt>
      <trkpt lat="43.23807" lon="5.64908">
        <ele>453.64453125</ele>
        <time>2015-09-27T07:46:28Z</time>
      </trkpt>
      <trkpt lat="43.23808" lon="5.64906">
        <ele>453.8515625</ele>
        <time>2015-09-27T07:46:29Z</time>
      </trkpt>
      <trkpt lat="43.23809" lon="5.64904">
        <ele>453.99609375</ele>
        <time>2015-09-27T07:46:30Z</time>
      </trkpt>
      <trkpt lat="43.2381" lon="5.64902">
        <ele>454.1328125</ele>
        <time>2015-09-27T07:46:31Z</time>
      </trkpt>
      <trkpt lat="43.23811" lon="5.649">
        <ele>454.2890625</ele>
        <time>2015-09-27T07:46:32Z</time>
      </trkpt>
      <trkpt lat="43.23811" lon="5.64898">
        <ele>454.453125</ele>
        <time>2015-09-27T07:46:33Z</time>
      </trkpt>
      <trkpt lat="43.23812" lon="5.64895">
        <ele>454.6328125</ele>
        <time>2015-09-27T07:46:34Z</time>
      </trkpt>
      <trkpt lat="43.2382" lon="5.64864">
        <ele>456.921875</ele>
        <time>2015-09-27T07:46:48Z</time>
      </trkpt>
      <trkpt lat="43.23826" lon="5.64816">
        <ele>459.3046875</ele>
        <time>2015-09-27T07:47:05Z</time>
      </trkpt>
      <trkpt lat="43.23843" lon="5.64772">
        <ele>462.58984375</ele>
        <time>2015-09-27T07:47:20Z</time>
      </trkpt>
      <trkpt lat="43.23858" lon="5.64745">
        <ele>465.47265625</ele>
        <time>2015-09-27T07:47:33Z</time>
      </trkpt>
      <trkpt lat="43.23876" lon="5.64714">
        <ele>468.9296875</ele>
        <time>2015-09-27T07:47:49Z</time>
      </trkpt>
      <trkpt lat="43.23898" lon="5.64692">
        <ele>472.23828125</ele>
        <time>2015-09-27T07:48:05Z</time>
      </trkpt>
      <trkpt lat="43.23903" lon="5.64688">
        <ele>472.84765625</ele>
        <time>2015-09-27T07:48:08Z</time>
      </trkpt>
      <trkpt lat="43.23904" lon="5.64686">
        <ele>472.99609375</ele>
        <time>2015-09-27T07:48:09Z</time>
      </trkpt>
      <trkpt lat="43.23905" lon="5.64684">
        <ele>473.19921875</ele>
        <time>2015-09-27T07:48:10Z</time>
      </trkpt>
      <trkpt lat="43.23919" lon="5.64669">
        <ele>474.5390625</ele>
        <time>2015-09-27T07:48:24Z</time>
      </trkpt>
      <trkpt lat="43.23921" lon="5.64669">
        <ele>474.87890625</ele>
        <time>2015-09-27T07:48:47Z</time>
      </trkpt>
      <trkpt lat="43.23918" lon="5.64668">
        <ele>474.21484375</ele>
        <time>2015-09-27T07:49:20Z</time>
      </trkpt>
      <trkpt lat="43.2392" lon="5.64666">
        <ele>474.44921875</ele>
        <time>2015-09-27T07:49:42Z</time>
      </trkpt>
      <trkpt lat="43.2392" lon="5.64666">
        <ele>474.44921875</ele>
        <time>2015-09-27T07:50:09Z</time>
      </trkpt>
      <trkpt lat="43.23917" lon="5.64663">
        <ele>473.734375</ele>
        <time>2015-09-27T07:50:26Z</time>
      </trkpt>
      <trkpt lat="43.23918" lon="5.64664">
        <ele>473.94921875</ele>
        <time>2015-09-27T07:50:59Z</time>
      </trkpt>
      <trkpt lat="43.23918" lon="5.6466">
        <ele>473.703125</ele>
        <time>2015-09-27T07:51:32Z</time>
      </trkpt>
      <trkpt lat="43.23917" lon="5.64664">
        <ele>473.6796875</ele>
        <time>2015-09-27T07:51:57Z</time>
      </trkpt>
      <trkpt lat="43.23921" lon="5.64664">
        <ele>474.53515625</ele>
        <time>2015-09-27T07:52:17Z</time>
      </trkpt>
      <trkpt lat="43.23922" lon="5.64663">
        <ele>474.6484375</ele>
        <time>2015-09-27T07:52:18Z</time>
      </trkpt>
      <trkpt lat="43.23923" lon="5.64661">
        <ele>474.9296875</ele>
        <time>2015-09-27T07:52:20Z</time>
      </trkpt>
      <trkpt lat="43.23924" lon="5.6466">
        <ele>475.1171875</ele>
        <time>2015-09-27T07:52:21Z</time>
      </trkpt>
      <trkpt lat="43.23943" lon="5.64635">
        <ele>477.90234375</ele>
        <time>2015-09-27T07:52:33Z</time>
      </trkpt>
      <trkpt lat="43.23967" lon="5.64606">
        <ele>480.1484375</ele>
        <time>2015-09-27T07:52:47Z</time>
      </trkpt>
      <trkpt lat="43.23973" lon="5.64602">
        <ele>480.97265625</ele>
        <time>2015-09-27T07:52:50Z</time>
      </trkpt>
      <trkpt lat="43.23974" lon="5.64601">
        <ele>481.4140625</ele>
        <time>2015-09-27T07:52:51Z</time>
      </trkpt>
      <trkpt lat="43.23976" lon="5.646">
        <ele>481.75</ele>
        <time>2015-09-27T07:52:52Z</time>
      </trkpt>
      <trkpt lat="43.23977" lon="5.64598">
        <ele>482.03125</ele>
        <time>2015-09-27T07:52:53Z</time>
      </trkpt>
      <trkpt lat="43.23979" lon="5.64596">
        <ele>482.36328125</ele>
        <time>2015-09-27T07:52:54Z</time>
      </trkpt>
      <trkpt lat="43.2398" lon="5.64594">
        <ele>482.64453125</ele>
        <time>2015-09-27T07:52:55Z</time>
      </trkpt>
      <trkpt lat="43.23981" lon="5.64593">
        <ele>482.9609375</ele>
        <time>2015-09-27T07:52:56Z</time>
      </trkpt>
      <trkpt lat="43.24002" lon="5.64568">
        <ele>487.01171875</ele>
        <time>2015-09-27T07:53:11Z</time>
      </trkpt>
      <trkpt lat="43.24015" lon="5.64537">
        <ele>488.98046875</ele>
        <time>2015-09-27T07:53:25Z</time>
      </trkpt>
      <trkpt lat="43.24005" lon="5.64503">
        <ele>486.16796875</ele>
        <time>2015-09-27T07:53:38Z</time>
      </trkpt>
      <trkpt lat="43.23996" lon="5.64491">
        <ele>483.91796875</ele>
        <time>2015-09-27T07:53:45Z</time>
      </trkpt>
      <trkpt lat="43.23983" lon="5.64464">
        <ele>483.60546875</ele>
        <time>2015-09-27T07:53:58Z</time>
      </trkpt>
      <trkpt lat="43.23979" lon="5.64429">
        <ele>485.828125</ele>
        <time>2015-09-27T07:54:12Z</time>
      </trkpt>
      <trkpt lat="43.2398" lon="5.64421">
        <ele>486.7734375</ele>
        <time>2015-09-27T07:54:16Z</time>
      </trkpt>
      <trkpt lat="43.23979" lon="5.64399">
        <ele>488.01953125</ele>
        <time>2015-09-27T07:54:29Z</time>
      </trkpt>
      <trkpt lat="43.23979" lon="5.64398">
        <ele>487.94921875</ele>
        <time>2015-09-27T07:54:30Z</time>
      </trkpt>
      <trkpt lat="43.23979" lon="5.64396">
        <ele>487.94140625</ele>
        <time>2015-09-27T07:54:31Z</time>
      </trkpt>
      <trkpt lat="43.2398" lon="5.64395">
        <ele>488.015625</ele>
        <time>2015-09-27T07:54:32Z</time>
      </trkpt>
      <trkpt lat="43.23985" lon="5.64396">
        <ele>488.58984375</ele>
        <time>2015-09-27T07:54:43Z</time>
      </trkpt>
      <trkpt lat="43.23985" lon="5.64395">
        <ele>488.55859375</ele>
        <time>2015-09-27T07:54:56Z</time>
      </trkpt>
      <trkpt lat="43.23986" lon="5.64395">
        <ele>488.6015625</ele>
        <time>2015-09-27T07:55:10Z</time>
      </trkpt>
      <trkpt lat="43.23986" lon="5.64396">
        <ele>488.65625</ele>
        <time>2015-09-27T07:55:46Z</time>
      </trkpt>
      <trkpt lat="43.23986" lon="5.64395">
        <ele>488.625</ele>
        <time>2015-09-27T07:56:08Z</time>
      </trkpt>
      <trkpt lat="43.23987" lon="5.64394">
        <ele>488.72265625</ele>
        <time>2015-09-27T07:56:39Z</time>
      </trkpt>
      <trkpt lat="43.23989" lon="5.6439">
        <ele>488.765625</ele>
        <time>2015-09-27T07:57:03Z</time>
      </trkpt>
      <trkpt lat="43.23989" lon="5.64398">
        <ele>489.08203125</ele>
        <time>2015-09-27T07:57:34Z</time>
      </trkpt>
      <trkpt lat="43.23987" lon="5.64395">
        <ele>488.75</ele>
        <time>2015-09-27T07:58:07Z</time>
      </trkpt>
      <trkpt lat="43.23986" lon="5.64396">
        <ele>488.609375</ele>
        <time>2015-09-27T07:58:43Z</time>
      </trkpt>
      <trkpt lat="43.23983" lon="5.64403">
        <ele>488.5390625</ele>
        <time>2015-09-27T07:59:19Z</time>
      </trkpt>
      <trkpt lat="43.23985" lon="5.64395">
        <ele>488.55078125</ele>
        <time>2015-09-27T07:59:58Z</time>
      </trkpt>
      <trkpt lat="43.23983" lon="5.64394">
        <ele>488.234375</ele>
        <time>2015-09-27T08:00:06Z</time>
      </trkpt>
      <trkpt lat="43.23982" lon="5.64393">
        <ele>488.0625</ele>
        <time>2015-09-27T08:00:07Z</time>
      </trkpt>
      <trkpt lat="43.2398" lon="5.64391">
        <ele>487.83203125</ele>
        <time>2015-09-27T08:00:08Z</time>
      </trkpt>
      <trkpt lat="43.23979" lon="5.64389">
        <ele>487.640625</ele>
        <time>2015-09-27T08:00:09Z</time>
      </trkpt>
      <trkpt lat="43.23978" lon="5.64386">
        <ele>487.48828125</ele>
        <time>2015-09-27T08:00:10Z</time>
      </trkpt>
      <trkpt lat="43.23978" lon="5.64384">
        <ele>487.33984375</ele>
        <time>2015-09-27T08:00:11Z</time>
      </trkpt>
      <trkpt lat="43.2398" lon="5.64341">
        <ele>486.36328125</ele>
        <time>2015-09-27T08:00:25Z</time>
      </trkpt>
      <trkpt lat="43.23974" lon="5.64282">
        <ele>481.26953125</ele>
        <time>2015-09-27T08:00:34Z</time>
      </trkpt>
      <trkpt lat="43.23971" lon="5.64269">
        <ele>480.66015625</ele>
        <time>2015-09-27T08:00:36Z</time>
      </trkpt>
      <trkpt lat="43.2396" lon="5.64194">
        <ele>477.73828125</ele>
        <time>2015-09-27T08:00:47Z</time>
      </trkpt>
      <trkpt lat="43.23961" lon="5.64188">
        <ele>477.46875</ele>
        <time>2015-09-27T08:00:48Z</time>
      </trkpt>
      <trkpt lat="43.23963" lon="5.64176">
        <ele>476.99609375</ele>
        <time>2015-09-27T08:00:50Z</time>
      </trkpt>
      <trkpt lat="43.23965" lon="5.64169">
        <ele>476.80859375</ele>
        <time>2015-09-27T08:00:51Z</time>
      </trkpt>
      <trkpt lat="43.23969" lon="5.64151">
        <ele>476.859375</ele>
        <time>2015-09-27T08:00:54Z</time>
      </trkpt>
      <trkpt lat="43.23971" lon="5.64145">
        <ele>477.0859375</ele>
        <time>2015-09-27T08:00:55Z</time>
      </trkpt>
      <trkpt lat="43.23996" lon="5.64085">
        <ele>479.984375</ele>
        <time>2015-09-27T08:01:10Z</time>
      </trkpt>
      <trkpt lat="43.24012" lon="5.64045">
        <ele>484.171875</ele>
        <time>2015-09-27T08:01:25Z</time>
      </trkpt>
      <trkpt lat="43.24018" lon="5.6402">
        <ele>486.65234375</ele>
        <time>2015-09-27T08:01:37Z</time>
      </trkpt>
      <trkpt lat="43.24023" lon="5.6399">
        <ele>488.9609375</ele>
        <time>2015-09-27T08:01:52Z</time>
      </trkpt>
      <trkpt lat="43.24027" lon="5.6396">
        <ele>491.5</ele>
        <time>2015-09-27T08:02:06Z</time>
      </trkpt>
      <trkpt lat="43.24031" lon="5.6393">
        <ele>493.53125</ele>
        <time>2015-09-27T08:02:20Z</time>
      </trkpt>
      <trkpt lat="43.24033" lon="5.63918">
        <ele>494.64453125</ele>
        <time>2015-09-27T08:02:25Z</time>
      </trkpt>
      <trkpt lat="43.24035" lon="5.63915">
        <ele>494.875</ele>
        <time>2015-09-27T08:02:27Z</time>
      </trkpt>
      <trkpt lat="43.24035" lon="5.63912">
        <ele>495.109375</ele>
        <time>2015-09-27T08:02:28Z</time>
      </trkpt>
      <trkpt lat="43.24035" lon="5.6391">
        <ele>495.37890625</ele>
        <time>2015-09-27T08:02:29Z</time>
      </trkpt>
      <trkpt lat="43.24036" lon="5.63908">
        <ele>495.6328125</ele>
        <time>2015-09-27T08:02:30Z</time>
      </trkpt>
      <trkpt lat="43.24036" lon="5.63905">
        <ele>495.83203125</ele>
        <time>2015-09-27T08:02:31Z</time>
      </trkpt>
      <trkpt lat="43.24038" lon="5.63884">
        <ele>497.34375</ele>
        <time>2015-09-27T08:02:41Z</time>
      </trkpt>
      <trkpt lat="43.24038" lon="5.63882">
        <ele>497.53125</ele>
        <time>2015-09-27T08:02:42Z</time>
      </trkpt>
      <trkpt lat="43.24038" lon="5.6388">
        <ele>497.71484375</ele>
        <time>2015-09-27T08:02:43Z</time>
      </trkpt>
      <trkpt lat="43.24038" lon="5.63878">
        <ele>497.859375</ele>
        <time>2015-09-27T08:02:44Z</time>
      </trkpt>
      <trkpt lat="43.24038" lon="5.63876">
        <ele>497.9921875</ele>
        <time>2015-09-27T08:02:45Z</time>
      </trkpt>
      <trkpt lat="43.24039" lon="5.63874">
        <ele>498.12109375</ele>
        <time>2015-09-27T08:02:46Z</time>
      </trkpt>
      <trkpt lat="43.24039" lon="5.63872">
        <ele>498.26953125</ele>
        <time>2015-09-27T08:02:47Z</time>
      </trkpt>
      <trkpt lat="43.24039" lon="5.6387">
        <ele>498.44140625</ele>
        <time>2015-09-27T08:02:48Z</time>
      </trkpt>
      <trkpt lat="43.24039" lon="5.63868">
        <ele>498.61328125</ele>
        <time>2015-09-27T08:02:49Z</time>
      </trkpt>
      <trkpt lat="43.24046" lon="5.63832">
        <ele>501.3828125</ele>
        <time>2015-09-27T08:03:06Z</time>
      </trkpt>
      <trkpt lat="43.24055" lon="5.63798">
        <ele>504.43359375</ele>
        <time>2015-09-27T08:03:22Z</time>
      </trkpt>
      <trkpt lat="43.2407" lon="5.63764">
        <ele>507.1953125</ele>
        <time>2015-09-27T08:03:40Z</time>
      </trkpt>
      <trkpt lat="43.24087" lon="5.63742">
        <ele>508.78515625</ele>
        <time>2015-09-27T08:03:53Z</time>
      </trkpt>
      <trkpt lat="43.24109" lon="5.63725">
        <ele>510.29296875</ele>
        <time>2015-09-27T08:04:08Z</time>
      </trkpt>
      <trkpt lat="43.24131" lon="5.63713">
        <ele>510.9375</ele>
        <time>2015-09-27T08:04:23Z</time>
      </trkpt>
      <trkpt lat="43.24152" lon="5.63695">
        <ele>511.35546875</ele>
        <time>2015-09-27T08:04:38Z</time>
      </trkpt>
      <trkpt lat="43.24173" lon="5.63668">
        <ele>512.5546875</ele>
        <time>2015-09-27T08:04:53Z</time>
      </trkpt>
      <trkpt lat="43.24208" lon="5.6364">
        <ele>514.04296875</ele>
        <time>2015-09-27T08:05:10Z</time>
      </trkpt>
      <trkpt lat="43.24224" lon="5.63626">
        <ele>515.1953125</ele>
        <time>2015-09-27T08:05:20Z</time>
      </trkpt>
      <trkpt lat="43.24224" lon="5.63624">
        <ele>515.3359375</ele>
        <time>2015-09-27T08:05:21Z</time>
      </trkpt>
      <trkpt lat="43.24223" lon="5.6362">
        <ele>515.58984375</ele>
        <time>2015-09-27T08:05:23Z</time>
      </trkpt>
      <trkpt lat="43.24221" lon="5.63617">
        <ele>515.78515625</ele>
        <time>2015-09-27T08:05:25Z</time>
      </trkpt>
      <trkpt lat="43.24219" lon="5.63616">
        <ele>515.8046875</ele>
        <time>2015-09-27T08:05:26Z</time>
      </trkpt>
      <trkpt lat="43.24218" lon="5.63615">
        <ele>515.82421875</ele>
        <time>2015-09-27T08:05:27Z</time>
      </trkpt>
      <trkpt lat="43.24217" lon="5.63613">
        <ele>515.9296875</ele>
        <time>2015-09-27T08:05:28Z</time>
      </trkpt>
      <trkpt lat="43.24216" lon="5.63612">
        <ele>515.9921875</ele>
        <time>2015-09-27T08:05:29Z</time>
      </trkpt>
      <trkpt lat="43.24215" lon="5.63612">
        <ele>515.9453125</ele>
        <time>2015-09-27T08:05:30Z</time>
      </trkpt>
      <trkpt lat="43.24214" lon="5.63614">
        <ele>515.84375</ele>
        <time>2015-09-27T08:05:31Z</time>
      </trkpt>
      <trkpt lat="43.24212" lon="5.63615">
        <ele>515.765625</ele>
        <time>2015-09-27T08:05:32Z</time>
      </trkpt>
      <trkpt lat="43.24211" lon="5.63615">
        <ele>515.7265625</ele>
        <time>2015-09-27T08:05:43Z</time>
      </trkpt>
      <trkpt lat="43.24211" lon="5.63616">
        <ele>515.6796875</ele>
        <time>2015-09-27T08:06:23Z</time>
      </trkpt>
      <trkpt lat="43.2421" lon="5.63616">
        <ele>515.640625</ele>
        <time>2015-09-27T08:06:56Z</time>
      </trkpt>
      <trkpt lat="43.2421" lon="5.63617">
        <ele>515.61328125</ele>
        <time>2015-09-27T08:06:58Z</time>
      </trkpt>
      <trkpt lat="43.24211" lon="5.63618">
        <ele>515.5703125</ele>
        <time>2015-09-27T08:06:59Z</time>
      </trkpt>
      <trkpt lat="43.24212" lon="5.63618">
        <ele>515.546875</ele>
        <time>2015-09-27T08:07:00Z</time>
      </trkpt>
      <trkpt lat="43.24213" lon="5.63619">
        <ele>515.54296875</ele>
        <time>2015-09-27T08:07:01Z</time>
      </trkpt>
      <trkpt lat="43.24214" lon="5.63619">
        <ele>515.56640625</ele>
        <time>2015-09-27T08:07:02Z</time>
      </trkpt>
      <trkpt lat="43.24216" lon="5.63619">
        <ele>515.59375</ele>
        <time>2015-09-27T08:07:03Z</time>
      </trkpt>
      <trkpt lat="43.24217" lon="5.63618">
        <ele>515.640625</ele>
        <time>2015-09-27T08:07:04Z</time>
      </trkpt>
      <trkpt lat="43.24219" lon="5.63618">
        <ele>515.6640625</ele>
        <time>2015-09-27T08:07:05Z</time>
      </trkpt>
      <trkpt lat="43.24221" lon="5.6362">
        <ele>515.6015625</ele>
        <time>2015-09-27T08:07:06Z</time>
      </trkpt>
      <trkpt lat="43.24222" lon="5.63621">
        <ele>515.484375</ele>
        <time>2015-09-27T08:07:07Z</time>
      </trkpt>
      <trkpt lat="43.24223" lon="5.63623">
        <ele>515.3828125</ele>
        <time>2015-09-27T08:07:08Z</time>
      </trkpt>
      <trkpt lat="43.24224" lon="5.63624">
        <ele>515.3125</ele>
        <time>2015-09-27T08:07:09Z</time>
      </trkpt>
      <trkpt lat="43.24225" lon="5.63625">
        <ele>515.2578125</ele>
        <time>2015-09-27T08:07:10Z</time>
      </trkpt>
      <trkpt lat="43.24227" lon="5.63626">
        <ele>515.20703125</ele>
        <time>2015-09-27T08:07:11Z</time>
      </trkpt>
      <trkpt lat="43.24228" lon="5.63627">
        <ele>515.1484375</ele>
        <time>2015-09-27T08:07:12Z</time>
      </trkpt>
      <trkpt lat="43.2423" lon="5.63627">
        <ele>515.15625</ele>
        <time>2015-09-27T08:07:13Z</time>
      </trkpt>
      <trkpt lat="43.24232" lon="5.63626">
        <ele>515.2421875</ele>
        <time>2015-09-27T08:07:14Z</time>
      </trkpt>
      <trkpt lat="43.24261" lon="5.636">
        <ele>517.79296875</ele>
        <time>2015-09-27T08:07:27Z</time>
      </trkpt>
      <trkpt lat="43.24292" lon="5.63577">
        <ele>517.69140625</ele>
        <time>2015-09-27T08:07:40Z</time>
      </trkpt>
      <trkpt lat="43.24311" lon="5.63549">
        <ele>516.60546875</ele>
        <time>2015-09-27T08:07:53Z</time>
      </trkpt>
      <trkpt lat="43.24327" lon="5.6353">
        <ele>512.90234375</ele>
        <time>2015-09-27T08:08:01Z</time>
      </trkpt>
      <trkpt lat="43.24329" lon="5.63526">
        <ele>512.38671875</ele>
        <time>2015-09-27T08:08:02Z</time>
      </trkpt>
      <trkpt lat="43.24331" lon="5.63521">
        <ele>511.9765625</ele>
        <time>2015-09-27T08:08:03Z</time>
      </trkpt>
      <trkpt lat="43.24333" lon="5.63517">
        <ele>511.625</ele>
        <time>2015-09-27T08:08:04Z</time>
      </trkpt>
      <trkpt lat="43.24334" lon="5.63512">
        <ele>511.1328125</ele>
        <time>2015-09-27T08:08:05Z</time>
      </trkpt>
      <trkpt lat="43.24334" lon="5.63507">
        <ele>510.72265625</ele>
        <time>2015-09-27T08:08:06Z</time>
      </trkpt>
      <trkpt lat="43.24334" lon="5.63503">
        <ele>510.3671875</ele>
        <time>2015-09-27T08:08:07Z</time>
      </trkpt>
      <trkpt lat="43.24335" lon="5.63498">
        <ele>509.89453125</ele>
        <time>2015-09-27T08:08:08Z</time>
      </trkpt>
      <trkpt lat="43.24336" lon="5.63493">
        <ele>509.40625</ele>
        <time>2015-09-27T08:08:09Z</time>
      </trkpt>
      <trkpt lat="43.24337" lon="5.63486">
        <ele>508.4921875</ele>
        <time>2015-09-27T08:08:11Z</time>
      </trkpt>
      <trkpt lat="43.24335" lon="5.63474">
        <ele>507</ele>
        <time>2015-09-27T08:08:13Z</time>
      </trkpt>
      <trkpt lat="43.24333" lon="5.63467">
        <ele>506.05859375</ele>
        <time>2015-09-27T08:08:14Z</time>
      </trkpt>
      <trkpt lat="43.24332" lon="5.6346">
        <ele>505.203125</ele>
        <time>2015-09-27T08:08:15Z</time>
      </trkpt>
      <trkpt lat="43.24329" lon="5.63454">
        <ele>504.40234375</ele>
        <time>2015-09-27T08:08:16Z</time>
      </trkpt>
      <trkpt lat="43.24326" lon="5.63448">
        <ele>503.73046875</ele>
        <time>2015-09-27T08:08:17Z</time>
      </trkpt>
      <trkpt lat="43.24323" lon="5.63443">
        <ele>503.0390625</ele>
        <time>2015-09-27T08:08:18Z</time>
      </trkpt>
      <trkpt lat="43.2432" lon="5.63436">
        <ele>502.16015625</ele>
        <time>2015-09-27T08:08:19Z</time>
      </trkpt>
      <trkpt lat="43.24318" lon="5.63428">
        <ele>500.95703125</ele>
        <time>2015-09-27T08:08:20Z</time>
      </trkpt>
      <trkpt lat="43.24311" lon="5.63392">
        <ele>495.1953125</ele>
        <time>2015-09-27T08:08:24Z</time>
      </trkpt>
      <trkpt lat="43.24309" lon="5.63382">
        <ele>493.546875</ele>
        <time>2015-09-27T08:08:25Z</time>
      </trkpt>
      <trkpt lat="43.24308" lon="5.63371">
        <ele>492.05078125</ele>
        <time>2015-09-27T08:08:26Z</time>
      </trkpt>
      <trkpt lat="43.24305" lon="5.63337">
        <ele>488.18359375</ele>
        <time>2015-09-27T08:08:29Z</time>
      </trkpt>
      <trkpt lat="43.24304" lon="5.63325">
        <ele>487.1796875</ele>
        <time>2015-09-27T08:08:30Z</time>
      </trkpt>
      <trkpt lat="43.24302" lon="5.63313">
        <ele>486.6015625</ele>
        <time>2015-09-27T08:08:31Z</time>
      </trkpt>
      <trkpt lat="43.24297" lon="5.6329">
        <ele>486.203125</ele>
        <time>2015-09-27T08:08:33Z</time>
      </trkpt>
      <trkpt lat="43.24293" lon="5.63278">
        <ele>486.5625</ele>
        <time>2015-09-27T08:08:34Z</time>
      </trkpt>
      <trkpt lat="43.24276" lon="5.63234">
        <ele>486.421875</ele>
        <time>2015-09-27T08:08:38Z</time>
      </trkpt>
      <trkpt lat="43.24258" lon="5.63177">
        <ele>483.61328125</ele>
        <time>2015-09-27T08:08:44Z</time>
      </trkpt>
      <trkpt lat="43.24249" lon="5.63149">
        <ele>481.4375</ele>
        <time>2015-09-27T08:08:48Z</time>
      </trkpt>
      <trkpt lat="43.24238" lon="5.63076">
        <ele>473.40625</ele>
        <time>2015-09-27T08:08:55Z</time>
      </trkpt>
      <trkpt lat="43.24236" lon="5.63051">
        <ele>470.8203125</ele>
        <time>2015-09-27T08:08:58Z</time>
      </trkpt>
      <trkpt lat="43.24236" lon="5.63045">
        <ele>470.2421875</ele>
        <time>2015-09-27T08:08:59Z</time>
      </trkpt>
      <trkpt lat="43.24244" lon="5.63015">
        <ele>466.86328125</ele>
        <time>2015-09-27T08:09:05Z</time>
      </trkpt>
      <trkpt lat="43.24246" lon="5.63008">
        <ele>466.1796875</ele>
        <time>2015-09-27T08:09:06Z</time>
      </trkpt>
      <trkpt lat="43.24248" lon="5.63">
        <ele>465.44921875</ele>
        <time>2015-09-27T08:09:07Z</time>
      </trkpt>
      <trkpt lat="43.24251" lon="5.62984">
        <ele>463.8359375</ele>
        <time>2015-09-27T08:09:09Z</time>
      </trkpt>
      <trkpt lat="43.24255" lon="5.62976">
        <ele>462.875</ele>
        <time>2015-09-27T08:09:10Z</time>
      </trkpt>
      <trkpt lat="43.24262" lon="5.62958">
        <ele>460.4375</ele>
        <time>2015-09-27T08:09:12Z</time>
      </trkpt>
      <trkpt lat="43.24264" lon="5.6295">
        <ele>459.2265625</ele>
        <time>2015-09-27T08:09:13Z</time>
      </trkpt>
      <trkpt lat="43.24265" lon="5.6294">
        <ele>458.0390625</ele>
        <time>2015-09-27T08:09:14Z</time>
      </trkpt>
      <trkpt lat="43.24265" lon="5.62931">
        <ele>457.31640625</ele>
        <time>2015-09-27T08:09:15Z</time>
      </trkpt>
      <trkpt lat="43.24265" lon="5.6292">
        <ele>457.078125</ele>
        <time>2015-09-27T08:09:16Z</time>
      </trkpt>
      <trkpt lat="43.24266" lon="5.6291">
        <ele>456.734375</ele>
        <time>2015-09-27T08:09:17Z</time>
      </trkpt>
      <trkpt lat="43.24268" lon="5.62899">
        <ele>456.45703125</ele>
        <time>2015-09-27T08:09:18Z</time>
      </trkpt>
      <trkpt lat="43.24271" lon="5.62889">
        <ele>456.13671875</ele>
        <time>2015-09-27T08:09:19Z</time>
      </trkpt>
      <trkpt lat="43.24274" lon="5.62879">
        <ele>455.81640625</ele>
        <time>2015-09-27T08:09:20Z</time>
      </trkpt>
      <trkpt lat="43.24277" lon="5.62868">
        <ele>455.75390625</ele>
        <time>2015-09-27T08:09:21Z</time>
      </trkpt>
      <trkpt lat="43.24284" lon="5.62839">
        <ele>455.6328125</ele>
        <time>2015-09-27T08:09:24Z</time>
      </trkpt>
      <trkpt lat="43.24285" lon="5.6283">
        <ele>455.68359375</ele>
        <time>2015-09-27T08:09:25Z</time>
      </trkpt>
      <trkpt lat="43.24285" lon="5.62821">
        <ele>456.03125</ele>
        <time>2015-09-27T08:09:26Z</time>
      </trkpt>
      <trkpt lat="43.24283" lon="5.62814">
        <ele>456.55078125</ele>
        <time>2015-09-27T08:09:27Z</time>
      </trkpt>
      <trkpt lat="43.24281" lon="5.62807">
        <ele>457.0390625</ele>
        <time>2015-09-27T08:09:28Z</time>
      </trkpt>
      <trkpt lat="43.24278" lon="5.62801">
        <ele>457.14453125</ele>
        <time>2015-09-27T08:09:29Z</time>
      </trkpt>
      <trkpt lat="43.24275" lon="5.62796">
        <ele>457.265625</ele>
        <time>2015-09-27T08:09:30Z</time>
      </trkpt>
      <trkpt lat="43.24271" lon="5.62791">
        <ele>457.390625</ele>
        <time>2015-09-27T08:09:31Z</time>
      </trkpt>
      <trkpt lat="43.24267" lon="5.62787">
        <ele>457.5234375</ele>
        <time>2015-09-27T08:09:32Z</time>
      </trkpt>
      <trkpt lat="43.2426" lon="5.62778">
        <ele>457.78515625</ele>
        <time>2015-09-27T08:09:34Z</time>
      </trkpt>
      <trkpt lat="43.24243" lon="5.6275">
        <ele>458.109375</ele>
        <time>2015-09-27T08:09:39Z</time>
      </trkpt>
      <trkpt lat="43.24212" lon="5.62695">
        <ele>457.41796875</ele>
        <time>2015-09-27T08:09:47Z</time>
      </trkpt>
      <trkpt lat="43.24204" lon="5.62684">
        <ele>456.62109375</ele>
        <time>2015-09-27T08:09:49Z</time>
      </trkpt>
      <trkpt lat="43.24189" lon="5.62661">
        <ele>455.65234375</ele>
        <time>2015-09-27T08:09:53Z</time>
      </trkpt>
      <trkpt lat="43.24185" lon="5.62654">
        <ele>455.3984375</ele>
        <time>2015-09-27T08:09:54Z</time>
      </trkpt>
      <trkpt lat="43.24182" lon="5.62646">
        <ele>455.0078125</ele>
        <time>2015-09-27T08:09:55Z</time>
      </trkpt>
      <trkpt lat="43.24179" lon="5.62638">
        <ele>454.59765625</ele>
        <time>2015-09-27T08:09:56Z</time>
      </trkpt>
      <trkpt lat="43.24172" lon="5.62621">
        <ele>453.46484375</ele>
        <time>2015-09-27T08:09:58Z</time>
      </trkpt>
      <trkpt lat="43.2417" lon="5.62612">
        <ele>452.67578125</ele>
        <time>2015-09-27T08:09:59Z</time>
      </trkpt>
      <trkpt lat="43.24169" lon="5.62601">
        <ele>451.89453125</ele>
        <time>2015-09-27T08:10:00Z</time>
      </trkpt>
      <trkpt lat="43.24167" lon="5.62556">
        <ele>446.93359375</ele>
        <time>2015-09-27T08:10:04Z</time>
      </trkpt>
      <trkpt lat="43.24166" lon="5.62512">
        <ele>442.40625</ele>
        <time>2015-09-27T08:10:08Z</time>
      </trkpt>
      <trkpt lat="43.24166" lon="5.62502">
        <ele>441.42578125</ele>
        <time>2015-09-27T08:10:09Z</time>
      </trkpt>
      <trkpt lat="43.24168" lon="5.62492">
        <ele>440.375</ele>
        <time>2015-09-27T08:10:10Z</time>
      </trkpt>
      <trkpt lat="43.24172" lon="5.62459">
        <ele>437.81640625</ele>
        <time>2015-09-27T08:10:14Z</time>
      </trkpt>
      <trkpt lat="43.2417" lon="5.62454">
        <ele>438.12890625</ele>
        <time>2015-09-27T08:10:15Z</time>
      </trkpt>
      <trkpt lat="43.24167" lon="5.62451">
        <ele>438.55078125</ele>
        <time>2015-09-27T08:10:16Z</time>
      </trkpt>
      <trkpt lat="43.24164" lon="5.62448">
        <ele>438.98046875</ele>
        <time>2015-09-27T08:10:17Z</time>
      </trkpt>
      <trkpt lat="43.24161" lon="5.62446">
        <ele>439.359375</ele>
        <time>2015-09-27T08:10:18Z</time>
      </trkpt>
      <trkpt lat="43.24159" lon="5.62445">
        <ele>439.75390625</ele>
        <time>2015-09-27T08:10:19Z</time>
      </trkpt>
      <trkpt lat="43.2412" lon="5.62446">
        <ele>441.15625</ele>
        <time>2015-09-27T08:10:30Z</time>
      </trkpt>
      <trkpt lat="43.24095" lon="5.62469">
        <ele>440.47265625</ele>
        <time>2015-09-27T08:10:38Z</time>
      </trkpt>
      <trkpt lat="43.2409" lon="5.62482">
        <ele>440.76953125</ele>
        <time>2015-09-27T08:10:43Z</time>
      </trkpt>
      <trkpt lat="43.24088" lon="5.62483">
        <ele>440.74609375</ele>
        <time>2015-09-27T08:10:44Z</time>
      </trkpt>
      <trkpt lat="43.24087" lon="5.62481">
        <ele>440.61328125</ele>
        <time>2015-09-27T08:10:45Z</time>
      </trkpt>
      <trkpt lat="43.24085" lon="5.62478">
        <ele>440.34765625</ele>
        <time>2015-09-27T08:10:46Z</time>
      </trkpt>
      <trkpt lat="43.2408" lon="5.62471">
        <ele>439.74609375</ele>
        <time>2015-09-27T08:10:48Z</time>
      </trkpt>
      <trkpt lat="43.24061" lon="5.62448">
        <ele>436.99609375</ele>
        <time>2015-09-27T08:10:54Z</time>
      </trkpt>
      <trkpt lat="43.24057" lon="5.62432">
        <ele>435.66796875</ele>
        <time>2015-09-27T08:10:57Z</time>
      </trkpt>
      <trkpt lat="43.24055" lon="5.62426">
        <ele>435.31640625</ele>
        <time>2015-09-27T08:10:58Z</time>
      </trkpt>
      <trkpt lat="43.24053" lon="5.62422">
        <ele>434.90234375</ele>
        <time>2015-09-27T08:10:59Z</time>
      </trkpt>
      <trkpt lat="43.24035" lon="5.62396">
        <ele>431.94921875</ele>
        <time>2015-09-27T08:11:04Z</time>
      </trkpt>
      <trkpt lat="43.24032" lon="5.62391">
        <ele>431.4140625</ele>
        <time>2015-09-27T08:11:05Z</time>
      </trkpt>
      <trkpt lat="43.2403" lon="5.62385">
        <ele>430.953125</ele>
        <time>2015-09-27T08:11:06Z</time>
      </trkpt>
      <trkpt lat="43.24027" lon="5.6238">
        <ele>430.48046875</ele>
        <time>2015-09-27T08:11:07Z</time>
      </trkpt>
      <trkpt lat="43.24024" lon="5.62377">
        <ele>430.12109375</ele>
        <time>2015-09-27T08:11:08Z</time>
      </trkpt>
      <trkpt lat="43.2402" lon="5.62376">
        <ele>429.72265625</ele>
        <time>2015-09-27T08:11:09Z</time>
      </trkpt>
      <trkpt lat="43.24017" lon="5.62376">
        <ele>429.328125</ele>
        <time>2015-09-27T08:11:10Z</time>
      </trkpt>
      <trkpt lat="43.24013" lon="5.62376">
        <ele>428.90625</ele>
        <time>2015-09-27T08:11:11Z</time>
      </trkpt>
      <trkpt lat="43.24009" lon="5.62378">
        <ele>428.46875</ele>
        <time>2015-09-27T08:11:12Z</time>
      </trkpt>
      <trkpt lat="43.24005" lon="5.62381">
        <ele>428.16796875</ele>
        <time>2015-09-27T08:11:13Z</time>
      </trkpt>
      <trkpt lat="43.23958" lon="5.62404">
        <ele>425.40234375</ele>
        <time>2015-09-27T08:11:22Z</time>
      </trkpt>
      <trkpt lat="43.23953" lon="5.62407">
        <ele>425.2734375</ele>
        <time>2015-09-27T08:11:23Z</time>
      </trkpt>
      <trkpt lat="43.23947" lon="5.6241">
        <ele>424.98046875</ele>
        <time>2015-09-27T08:11:24Z</time>
      </trkpt>
      <trkpt lat="43.23942" lon="5.62412">
        <ele>424.53515625</ele>
        <time>2015-09-27T08:11:25Z</time>
      </trkpt>
      <trkpt lat="43.23937" lon="5.62414">
        <ele>424.15234375</ele>
        <time>2015-09-27T08:11:26Z</time>
      </trkpt>
      <trkpt lat="43.23923" lon="5.6242">
        <ele>423.19140625</ele>
        <time>2015-09-27T08:11:29Z</time>
      </trkpt>
      <trkpt lat="43.23919" lon="5.62423">
        <ele>422.87890625</ele>
        <time>2015-09-27T08:11:30Z</time>
      </trkpt>
      <trkpt lat="43.23915" lon="5.62426">
        <ele>422.37109375</ele>
        <time>2015-09-27T08:11:31Z</time>
      </trkpt>
      <trkpt lat="43.23911" lon="5.62428">
        <ele>421.73828125</ele>
        <time>2015-09-27T08:11:32Z</time>
      </trkpt>
      <trkpt lat="43.23907" lon="5.6243">
        <ele>421.1640625</ele>
        <time>2015-09-27T08:11:33Z</time>
      </trkpt>
      <trkpt lat="43.23904" lon="5.62431">
        <ele>420.68359375</ele>
        <time>2015-09-27T08:11:34Z</time>
      </trkpt>
      <trkpt lat="43.23896" lon="5.62434">
        <ele>419.54296875</ele>
        <time>2015-09-27T08:11:36Z</time>
      </trkpt>
      <trkpt lat="43.23893" lon="5.62435">
        <ele>418.87109375</ele>
        <time>2015-09-27T08:11:37Z</time>
      </trkpt>
      <trkpt lat="43.23889" lon="5.62436">
        <ele>418.375</ele>
        <time>2015-09-27T08:11:38Z</time>
      </trkpt>
      <trkpt lat="43.23886" lon="5.62439">
        <ele>417.9453125</ele>
        <time>2015-09-27T08:11:39Z</time>
      </trkpt>
      <trkpt lat="43.23882" lon="5.62441">
        <ele>417.53125</ele>
        <time>2015-09-27T08:11:40Z</time>
      </trkpt>
      <trkpt lat="43.23879" lon="5.62445">
        <ele>417.3359375</ele>
        <time>2015-09-27T08:11:41Z</time>
      </trkpt>
      <trkpt lat="43.23876" lon="5.6245">
        <ele>417.26953125</ele>
        <time>2015-09-27T08:11:42Z</time>
      </trkpt>
      <trkpt lat="43.23873" lon="5.62454">
        <ele>417.14453125</ele>
        <time>2015-09-27T08:11:43Z</time>
      </trkpt>
      <trkpt lat="43.23869" lon="5.62458">
        <ele>416.99609375</ele>
        <time>2015-09-27T08:11:44Z</time>
      </trkpt>
      <trkpt lat="43.23865" lon="5.62462">
        <ele>416.77734375</ele>
        <time>2015-09-27T08:11:45Z</time>
      </trkpt>
      <trkpt lat="43.23861" lon="5.62464">
        <ele>416.36328125</ele>
        <time>2015-09-27T08:11:46Z</time>
      </trkpt>
      <trkpt lat="43.23857" lon="5.62466">
        <ele>415.859375</ele>
        <time>2015-09-27T08:11:47Z</time>
      </trkpt>
      <trkpt lat="43.23846" lon="5.62468">
        <ele>414.33203125</ele>
        <time>2015-09-27T08:11:51Z</time>
      </trkpt>
      <trkpt lat="43.23837" lon="5.62471">
        <ele>413.08203125</ele>
        <time>2015-09-27T08:11:56Z</time>
      </trkpt>
      <trkpt lat="43.23824" lon="5.62472">
        <ele>411.09765625</ele>
        <time>2015-09-27T08:12:01Z</time>
      </trkpt>
      <trkpt lat="43.23822" lon="5.62472">
        <ele>410.57421875</ele>
        <time>2015-09-27T08:12:02Z</time>
      </trkpt>
      <trkpt lat="43.23811" lon="5.6247">
        <ele>408.61328125</ele>
        <time>2015-09-27T08:12:05Z</time>
      </trkpt>
      <trkpt lat="43.23801" lon="5.62467">
        <ele>407.4375</ele>
        <time>2015-09-27T08:12:08Z</time>
      </trkpt>
      <trkpt lat="43.23788" lon="5.62455">
        <ele>404.63671875</ele>
        <time>2015-09-27T08:12:13Z</time>
      </trkpt>
      <trkpt lat="43.23782" lon="5.62454">
        <ele>403.6484375</ele>
        <time>2015-09-27T08:12:15Z</time>
      </trkpt>
      <trkpt lat="43.2377" lon="5.62449">
        <ele>402.16015625</ele>
        <time>2015-09-27T08:12:19Z</time>
      </trkpt>
      <trkpt lat="43.23767" lon="5.62447">
        <ele>401.42578125</ele>
        <time>2015-09-27T08:12:20Z</time>
      </trkpt>
      <trkpt lat="43.23764" lon="5.62445">
        <ele>400.6328125</ele>
        <time>2015-09-27T08:12:21Z</time>
      </trkpt>
      <trkpt lat="43.23761" lon="5.62442">
        <ele>399.7578125</ele>
        <time>2015-09-27T08:12:22Z</time>
      </trkpt>
      <trkpt lat="43.23758" lon="5.6244">
        <ele>398.91015625</ele>
        <time>2015-09-27T08:12:23Z</time>
      </trkpt>
      <trkpt lat="43.23756" lon="5.62439">
        <ele>398.125</ele>
        <time>2015-09-27T08:12:24Z</time>
      </trkpt>
      <trkpt lat="43.23748" lon="5.62436">
        <ele>396.46484375</ele>
        <time>2015-09-27T08:12:26Z</time>
      </trkpt>
      <trkpt lat="43.23731" lon="5.62425">
        <ele>392.0234375</ele>
        <time>2015-09-27T08:12:31Z</time>
      </trkpt>
      <trkpt lat="43.2372" lon="5.62418">
        <ele>389.49609375</ele>
        <time>2015-09-27T08:12:34Z</time>
      </trkpt>
      <trkpt lat="43.23713" lon="5.62413">
        <ele>387.5859375</ele>
        <time>2015-09-27T08:12:36Z</time>
      </trkpt>
      <trkpt lat="43.23708" lon="5.62406">
        <ele>385.65625</ele>
        <time>2015-09-27T08:12:38Z</time>
      </trkpt>
      <trkpt lat="43.23692" lon="5.62392">
        <ele>383.6875</ele>
        <time>2015-09-27T08:12:43Z</time>
      </trkpt>
      <trkpt lat="43.23675" lon="5.62379">
        <ele>379.6953125</ele>
        <time>2015-09-27T08:12:49Z</time>
      </trkpt>
      <trkpt lat="43.23668" lon="5.62368">
        <ele>378.5625</ele>
        <time>2015-09-27T08:12:52Z</time>
      </trkpt>
      <trkpt lat="43.23652" lon="5.62358">
        <ele>376.8671875</ele>
        <time>2015-09-27T08:12:57Z</time>
      </trkpt>
      <trkpt lat="43.23651" lon="5.62357">
        <ele>376.703125</ele>
        <time>2015-09-27T08:12:58Z</time>
      </trkpt>
      <trkpt lat="43.23644" lon="5.62353">
        <ele>375.24609375</ele>
        <time>2015-09-27T08:13:00Z</time>
      </trkpt>
      <trkpt lat="43.23633" lon="5.62337">
        <ele>372.5625</ele>
        <time>2015-09-27T08:13:05Z</time>
      </trkpt>
      <trkpt lat="43.23617" lon="5.62322">
        <ele>368.0234375</ele>
        <time>2015-09-27T08:13:10Z</time>
      </trkpt>
      <trkpt lat="43.23608" lon="5.62317">
        <ele>367.12890625</ele>
        <time>2015-09-27T08:13:13Z</time>
      </trkpt>
      <trkpt lat="43.23608" lon="5.62315">
        <ele>366.84765625</ele>
        <time>2015-09-27T08:13:14Z</time>
      </trkpt>
      <trkpt lat="43.23609" lon="5.62307">
        <ele>365.9921875</ele>
        <time>2015-09-27T08:13:16Z</time>
      </trkpt>
      <trkpt lat="43.23606" lon="5.62295">
        <ele>364.1171875</ele>
        <time>2015-09-27T08:13:19Z</time>
      </trkpt>
      <trkpt lat="43.23599" lon="5.62283">
        <ele>361.48046875</ele>
        <time>2015-09-27T08:13:22Z</time>
      </trkpt>
      <trkpt lat="43.23597" lon="5.62279">
        <ele>360.1796875</ele>
        <time>2015-09-27T08:13:23Z</time>
      </trkpt>
      <trkpt lat="43.23594" lon="5.62274">
        <ele>358.671875</ele>
        <time>2015-09-27T08:13:24Z</time>
      </trkpt>
      <trkpt lat="43.23583" lon="5.62256">
        <ele>355.1953125</ele>
        <time>2015-09-27T08:13:28Z</time>
      </trkpt>
      <trkpt lat="43.2358" lon="5.62252">
        <ele>354.80078125</ele>
        <time>2015-09-27T08:13:29Z</time>
      </trkpt>
      <trkpt lat="43.23571" lon="5.6224">
        <ele>352.53515625</ele>
        <time>2015-09-27T08:13:33Z</time>
      </trkpt>
      <trkpt lat="43.23572" lon="5.62245">
        <ele>353.2265625</ele>
        <time>2015-09-27T08:13:43Z</time>
      </trkpt>
      <trkpt lat="43.23571" lon="5.62245">
        <ele>353.125</ele>
        <time>2015-09-27T08:13:44Z</time>
      </trkpt>
      <trkpt lat="43.23566" lon="5.62242">
        <ele>352.07421875</ele>
        <time>2015-09-27T08:13:58Z</time>
      </trkpt>
      <trkpt lat="43.23566" lon="5.62242">
        <ele>352.12890625</ele>
        <time>2015-09-27T08:14:20Z</time>
      </trkpt>
      <trkpt lat="43.23569" lon="5.62242">
        <ele>352.453125</ele>
        <time>2015-09-27T08:14:47Z</time>
      </trkpt>
      <trkpt lat="43.23566" lon="5.62237">
        <ele>351.53125</ele>
        <time>2015-09-27T08:15:09Z</time>
      </trkpt>
      <trkpt lat="43.23559" lon="5.6223">
        <ele>349.765625</ele>
        <time>2015-09-27T08:15:15Z</time>
      </trkpt>
      <trkpt lat="43.2355" lon="5.62206">
        <ele>345.7890625</ele>
        <time>2015-09-27T08:15:23Z</time>
      </trkpt>
      <trkpt lat="43.23548" lon="5.62199">
        <ele>344.87890625</ele>
        <time>2015-09-27T08:15:24Z</time>
      </trkpt>
      <trkpt lat="43.23544" lon="5.62191">
        <ele>343.41015625</ele>
        <time>2015-09-27T08:15:26Z</time>
      </trkpt>
      <trkpt lat="43.23542" lon="5.62189">
        <ele>342.65234375</ele>
        <time>2015-09-27T08:15:27Z</time>
      </trkpt>
      <trkpt lat="43.23538" lon="5.62187">
        <ele>341.62890625</ele>
        <time>2015-09-27T08:15:28Z</time>
      </trkpt>
      <trkpt lat="43.2353" lon="5.62181">
        <ele>340.19921875</ele>
        <time>2015-09-27T08:15:30Z</time>
      </trkpt>
      <trkpt lat="43.23509" lon="5.62166">
        <ele>339.76953125</ele>
        <time>2015-09-27T08:15:36Z</time>
      </trkpt>
      <trkpt lat="43.23505" lon="5.62163">
        <ele>339.40234375</ele>
        <time>2015-09-27T08:15:37Z</time>
      </trkpt>
      <trkpt lat="43.23497" lon="5.62158">
        <ele>338.5390625</ele>
        <time>2015-09-27T08:15:39Z</time>
      </trkpt>
      <trkpt lat="43.23494" lon="5.62155">
        <ele>338.04296875</ele>
        <time>2015-09-27T08:15:40Z</time>
      </trkpt>
      <trkpt lat="43.2349" lon="5.62153">
        <ele>337.62109375</ele>
        <time>2015-09-27T08:15:41Z</time>
      </trkpt>
      <trkpt lat="43.23477" lon="5.62151">
        <ele>336.3203125</ele>
        <time>2015-09-27T08:15:44Z</time>
      </trkpt>
      <trkpt lat="43.23468" lon="5.62151">
        <ele>336.05859375</ele>
        <time>2015-09-27T08:15:46Z</time>
      </trkpt>
      <trkpt lat="43.23453" lon="5.6215">
        <ele>335.4140625</ele>
        <time>2015-09-27T08:15:50Z</time>
      </trkpt>
      <trkpt lat="43.23427" lon="5.62142">
        <ele>331.73828125</ele>
        <time>2015-09-27T08:15:56Z</time>
      </trkpt>
      <trkpt lat="43.23418" lon="5.62141">
        <ele>330.484375</ele>
        <time>2015-09-27T08:15:58Z</time>
      </trkpt>
      <trkpt lat="43.23404" lon="5.62143">
        <ele>329.4765625</ele>
        <time>2015-09-27T08:16:01Z</time>
      </trkpt>
      <trkpt lat="43.23376" lon="5.62141">
        <ele>325.3203125</ele>
        <time>2015-09-27T08:16:08Z</time>
      </trkpt>
      <trkpt lat="43.23369" lon="5.62139">
        <ele>323.796875</ele>
        <time>2015-09-27T08:16:10Z</time>
      </trkpt>
      <trkpt lat="43.23354" lon="5.62117">
        <ele>321.1484375</ele>
        <time>2015-09-27T08:16:18Z</time>
      </trkpt>
      <trkpt lat="43.23353" lon="5.62115">
        <ele>321.140625</ele>
        <time>2015-09-27T08:16:19Z</time>
      </trkpt>
      <trkpt lat="43.23352" lon="5.62113">
        <ele>321.09765625</ele>
        <time>2015-09-27T08:16:20Z</time>
      </trkpt>
      <trkpt lat="43.2335" lon="5.62112">
        <ele>320.9375</ele>
        <time>2015-09-27T08:16:21Z</time>
      </trkpt>
      <trkpt lat="43.23345" lon="5.62103">
        <ele>320.32421875</ele>
        <time>2015-09-27T08:16:23Z</time>
      </trkpt>
      <trkpt lat="43.2334" lon="5.62093">
        <ele>319.73046875</ele>
        <time>2015-09-27T08:16:26Z</time>
      </trkpt>
      <trkpt lat="43.23333" lon="5.62085">
        <ele>319.6015625</ele>
        <time>2015-09-27T08:16:28Z</time>
      </trkpt>
      <trkpt lat="43.23297" lon="5.62052">
        <ele>315.66796875</ele>
        <time>2015-09-27T08:16:37Z</time>
      </trkpt>
      <trkpt lat="43.23279" lon="5.62041">
        <ele>312.59765625</ele>
        <time>2015-09-27T08:16:41Z</time>
      </trkpt>
      <trkpt lat="43.23274" lon="5.62039">
        <ele>312.3515625</ele>
        <time>2015-09-27T08:16:42Z</time>
      </trkpt>
      <trkpt lat="43.23265" lon="5.62036">
        <ele>311.9765625</ele>
        <time>2015-09-27T08:16:44Z</time>
      </trkpt>
      <trkpt lat="43.2326" lon="5.62036">
        <ele>311.92578125</ele>
        <time>2015-09-27T08:16:45Z</time>
      </trkpt>
      <trkpt lat="43.23255" lon="5.62036">
        <ele>311.875</ele>
        <time>2015-09-27T08:16:46Z</time>
      </trkpt>
      <trkpt lat="43.23243" lon="5.62038">
        <ele>310.67578125</ele>
        <time>2015-09-27T08:16:48Z</time>
      </trkpt>
      <trkpt lat="43.23236" lon="5.6204">
        <ele>310.19140625</ele>
        <time>2015-09-27T08:16:49Z</time>
      </trkpt>
      <trkpt lat="43.2323" lon="5.62042">
        <ele>309.765625</ele>
        <time>2015-09-27T08:16:50Z</time>
      </trkpt>
      <trkpt lat="43.23224" lon="5.62044">
        <ele>309.2890625</ele>
        <time>2015-09-27T08:16:51Z</time>
      </trkpt>
      <trkpt lat="43.23219" lon="5.62044">
        <ele>308.80078125</ele>
        <time>2015-09-27T08:16:52Z</time>
      </trkpt>
      <trkpt lat="43.23214" lon="5.62044">
        <ele>308.30078125</ele>
        <time>2015-09-27T08:16:53Z</time>
      </trkpt>
      <trkpt lat="43.2321" lon="5.62043">
        <ele>307.69140625</ele>
        <time>2015-09-27T08:16:54Z</time>
      </trkpt>
      <trkpt lat="43.23205" lon="5.62043">
        <ele>307.109375</ele>
        <time>2015-09-27T08:16:55Z</time>
      </trkpt>
      <trkpt lat="43.23199" lon="5.62043">
        <ele>306.48046875</ele>
        <time>2015-09-27T08:16:56Z</time>
      </trkpt>
      <trkpt lat="43.23195" lon="5.62041">
        <ele>305.48828125</ele>
        <time>2015-09-27T08:16:57Z</time>
      </trkpt>
      <trkpt lat="43.2319" lon="5.62038">
        <ele>304.43359375</ele>
        <time>2015-09-27T08:16:58Z</time>
      </trkpt>
      <trkpt lat="43.23186" lon="5.62036">
        <ele>303.4296875</ele>
        <time>2015-09-27T08:16:59Z</time>
      </trkpt>
      <trkpt lat="43.23179" lon="5.62029">
        <ele>301.75390625</ele>
        <time>2015-09-27T08:17:01Z</time>
      </trkpt>
      <trkpt lat="43.23178" lon="5.62024">
        <ele>301.15234375</ele>
        <time>2015-09-27T08:17:02Z</time>
      </trkpt>
      <trkpt lat="43.23179" lon="5.62017">
        <ele>300.6171875</ele>
        <time>2015-09-27T08:17:03Z</time>
      </trkpt>
      <trkpt lat="43.23181" lon="5.6201">
        <ele>300.1484375</ele>
        <time>2015-09-27T08:17:04Z</time>
      </trkpt>
      <trkpt lat="43.23183" lon="5.62004">
        <ele>299.9140625</ele>
        <time>2015-09-27T08:17:05Z</time>
      </trkpt>
      <trkpt lat="43.23187" lon="5.62">
        <ele>299.9921875</ele>
        <time>2015-09-27T08:17:06Z</time>
      </trkpt>
      <trkpt lat="43.23191" lon="5.61996">
        <ele>300.17578125</ele>
        <time>2015-09-27T08:17:07Z</time>
      </trkpt>
      <trkpt lat="43.23194" lon="5.61991">
        <ele>300.1953125</ele>
        <time>2015-09-27T08:17:08Z</time>
      </trkpt>
      <trkpt lat="43.23196" lon="5.61986">
        <ele>300.79296875</ele>
        <time>2015-09-27T08:17:09Z</time>
      </trkpt>
      <trkpt lat="43.23198" lon="5.61983">
        <ele>301.359375</ele>
        <time>2015-09-27T08:17:10Z</time>
      </trkpt>
      <trkpt lat="43.232" lon="5.61981">
        <ele>301.82421875</ele>
        <time>2015-09-27T08:17:11Z</time>
      </trkpt>
      <trkpt lat="43.23201" lon="5.61978">
        <ele>302.30859375</ele>
        <time>2015-09-27T08:17:12Z</time>
      </trkpt>
      <trkpt lat="43.23202" lon="5.61975">
        <ele>302.7578125</ele>
        <time>2015-09-27T08:17:13Z</time>
      </trkpt>
      <trkpt lat="43.23204" lon="5.61972">
        <ele>303.19921875</ele>
        <time>2015-09-27T08:17:14Z</time>
      </trkpt>
      <trkpt lat="43.23205" lon="5.6197">
        <ele>303.640625</ele>
        <time>2015-09-27T08:17:15Z</time>
      </trkpt>
      <trkpt lat="43.23207" lon="5.61952">
        <ele>305.57421875</ele>
        <time>2015-09-27T08:17:19Z</time>
      </trkpt>
      <trkpt lat="43.23204" lon="5.6195">
        <ele>305.28515625</ele>
        <time>2015-09-27T08:17:20Z</time>
      </trkpt>
      <trkpt lat="43.23202" lon="5.61947">
        <ele>304.98046875</ele>
        <time>2015-09-27T08:17:21Z</time>
      </trkpt>
      <trkpt lat="43.232" lon="5.61944">
        <ele>304.6328125</ele>
        <time>2015-09-27T08:17:22Z</time>
      </trkpt>
      <trkpt lat="43.23197" lon="5.61941">
        <ele>303.921875</ele>
        <time>2015-09-27T08:17:23Z</time>
      </trkpt>
      <trkpt lat="43.23193" lon="5.61938">
        <ele>302.84375</ele>
        <time>2015-09-27T08:17:24Z</time>
      </trkpt>
      <trkpt lat="43.23188" lon="5.61935">
        <ele>301.4765625</ele>
        <time>2015-09-27T08:17:25Z</time>
      </trkpt>
      <trkpt lat="43.23184" lon="5.61931">
        <ele>299.96875</ele>
        <time>2015-09-27T08:17:26Z</time>
      </trkpt>
      <trkpt lat="43.23179" lon="5.61929">
        <ele>298.43359375</ele>
        <time>2015-09-27T08:17:27Z</time>
      </trkpt>
      <trkpt lat="43.23175" lon="5.61926">
        <ele>296.7734375</ele>
        <time>2015-09-27T08:17:28Z</time>
      </trkpt>
      <trkpt lat="43.2317" lon="5.61926">
        <ele>295.30859375</ele>
        <time>2015-09-27T08:17:29Z</time>
      </trkpt>
      <trkpt lat="43.23165" lon="5.61925">
        <ele>294.1171875</ele>
        <time>2015-09-27T08:17:30Z</time>
      </trkpt>
      <trkpt lat="43.23161" lon="5.61924">
        <ele>292.97265625</ele>
        <time>2015-09-27T08:17:31Z</time>
      </trkpt>
      <trkpt lat="43.23157" lon="5.61925">
        <ele>292.01953125</ele>
        <time>2015-09-27T08:17:32Z</time>
      </trkpt>
      <trkpt lat="43.23153" lon="5.61925">
        <ele>291.171875</ele>
        <time>2015-09-27T08:17:33Z</time>
      </trkpt>
      <trkpt lat="43.2315" lon="5.61923">
        <ele>290.11328125</ele>
        <time>2015-09-27T08:17:34Z</time>
      </trkpt>
      <trkpt lat="43.23147" lon="5.6192">
        <ele>289.12109375</ele>
        <time>2015-09-27T08:17:35Z</time>
      </trkpt>
      <trkpt lat="43.23145" lon="5.61917">
        <ele>288.3125</ele>
        <time>2015-09-27T08:17:36Z</time>
      </trkpt>
      <trkpt lat="43.23144" lon="5.61913">
        <ele>287.6796875</ele>
        <time>2015-09-27T08:17:37Z</time>
      </trkpt>
      <trkpt lat="43.23144" lon="5.61909">
        <ele>287.125</ele>
        <time>2015-09-27T08:17:38Z</time>
      </trkpt>
      <trkpt lat="43.23143" lon="5.61905">
        <ele>286.90234375</ele>
        <time>2015-09-27T08:17:39Z</time>
      </trkpt>
      <trkpt lat="43.23141" lon="5.619">
        <ele>286.69921875</ele>
        <time>2015-09-27T08:17:40Z</time>
      </trkpt>
      <trkpt lat="43.23139" lon="5.61896">
        <ele>286.4609375</ele>
        <time>2015-09-27T08:17:41Z</time>
      </trkpt>
      <trkpt lat="43.23138" lon="5.61892">
        <ele>286.25</ele>
        <time>2015-09-27T08:17:42Z</time>
      </trkpt>
      <trkpt lat="43.23137" lon="5.61887">
        <ele>286.046875</ele>
        <time>2015-09-27T08:17:43Z</time>
      </trkpt>
      <trkpt lat="43.23137" lon="5.61882">
        <ele>285.875</ele>
        <time>2015-09-27T08:17:44Z</time>
      </trkpt>
      <trkpt lat="43.23137" lon="5.61878">
        <ele>285.9140625</ele>
        <time>2015-09-27T08:17:45Z</time>
      </trkpt>
      <trkpt lat="43.23139" lon="5.61873">
        <ele>286.21875</ele>
        <time>2015-09-27T08:17:46Z</time>
      </trkpt>
      <trkpt lat="43.2314" lon="5.61869">
        <ele>286.625</ele>
        <time>2015-09-27T08:17:47Z</time>
      </trkpt>
      <trkpt lat="43.23149" lon="5.61854">
        <ele>289.9921875</ele>
        <time>2015-09-27T08:17:51Z</time>
      </trkpt>
      <trkpt lat="43.23156" lon="5.61832">
        <ele>293.99609375</ele>
        <time>2015-09-27T08:17:56Z</time>
      </trkpt>
      <trkpt lat="43.23154" lon="5.61828">
        <ele>293.3203125</ele>
        <time>2015-09-27T08:17:57Z</time>
      </trkpt>
      <trkpt lat="43.23152" lon="5.61826">
        <ele>292.390625</ele>
        <time>2015-09-27T08:17:58Z</time>
      </trkpt>
      <trkpt lat="43.23149" lon="5.61825">
        <ele>291.17578125</ele>
        <time>2015-09-27T08:17:59Z</time>
      </trkpt>
      <trkpt lat="43.23146" lon="5.61824">
        <ele>289.96875</ele>
        <time>2015-09-27T08:18:00Z</time>
      </trkpt>
      <trkpt lat="43.23143" lon="5.61824">
        <ele>288.8671875</ele>
        <time>2015-09-27T08:18:01Z</time>
      </trkpt>
      <trkpt lat="43.23109" lon="5.61805">
        <ele>280.80859375</ele>
        <time>2015-09-27T08:18:12Z</time>
      </trkpt>
      <trkpt lat="43.23102" lon="5.61791">
        <ele>280.28125</ele>
        <time>2015-09-27T08:18:15Z</time>
      </trkpt>
      <trkpt lat="43.231" lon="5.61786">
        <ele>280.1875</ele>
        <time>2015-09-27T08:18:16Z</time>
      </trkpt>
      <trkpt lat="43.23098" lon="5.61782">
        <ele>280.0703125</ele>
        <time>2015-09-27T08:18:17Z</time>
      </trkpt>
      <trkpt lat="43.23097" lon="5.61778">
        <ele>279.87890625</ele>
        <time>2015-09-27T08:18:18Z</time>
      </trkpt>
      <trkpt lat="43.23095" lon="5.61776">
        <ele>279.578125</ele>
        <time>2015-09-27T08:18:19Z</time>
      </trkpt>
      <trkpt lat="43.23093" lon="5.61773">
        <ele>279.1953125</ele>
        <time>2015-09-27T08:18:20Z</time>
      </trkpt>
      <trkpt lat="43.23078" lon="5.61767">
        <ele>276.48828125</ele>
        <time>2015-09-27T08:18:25Z</time>
      </trkpt>
      <trkpt lat="43.23074" lon="5.61769">
        <ele>275.44140625</ele>
        <time>2015-09-27T08:18:26Z</time>
      </trkpt>
      <trkpt lat="43.23066" lon="5.61776">
        <ele>274.55078125</ele>
        <time>2015-09-27T08:18:28Z</time>
      </trkpt>
      <trkpt lat="43.23062" lon="5.61779">
        <ele>274.35546875</ele>
        <time>2015-09-27T08:18:29Z</time>
      </trkpt>
      <trkpt lat="43.23058" lon="5.61783">
        <ele>274.22265625</ele>
        <time>2015-09-27T08:18:30Z</time>
      </trkpt>
      <trkpt lat="43.23054" lon="5.61785">
        <ele>274.01953125</ele>
        <time>2015-09-27T08:18:31Z</time>
      </trkpt>
      <trkpt lat="43.2305" lon="5.61786">
        <ele>273.6796875</ele>
        <time>2015-09-27T08:18:32Z</time>
      </trkpt>
      <trkpt lat="43.23047" lon="5.61786">
        <ele>273.23828125</ele>
        <time>2015-09-27T08:18:33Z</time>
      </trkpt>
      <trkpt lat="43.23042" lon="5.61785">
        <ele>272.66015625</ele>
        <time>2015-09-27T08:18:34Z</time>
      </trkpt>
      <trkpt lat="43.23038" lon="5.61782">
        <ele>272.0625</ele>
        <time>2015-09-27T08:18:35Z</time>
      </trkpt>
      <trkpt lat="43.23034" lon="5.61779">
        <ele>271.51953125</ele>
        <time>2015-09-27T08:18:36Z</time>
      </trkpt>
      <trkpt lat="43.2303" lon="5.61775">
        <ele>270.96875</ele>
        <time>2015-09-27T08:18:37Z</time>
      </trkpt>
      <trkpt lat="43.23026" lon="5.61772">
        <ele>270.4140625</ele>
        <time>2015-09-27T08:18:38Z</time>
      </trkpt>
      <trkpt lat="43.23023" lon="5.61768">
        <ele>269.953125</ele>
        <time>2015-09-27T08:18:39Z</time>
      </trkpt>
      <trkpt lat="43.23019" lon="5.61764">
        <ele>269.69921875</ele>
        <time>2015-09-27T08:18:40Z</time>
      </trkpt>
      <trkpt lat="43.23015" lon="5.61759">
        <ele>269.49609375</ele>
        <time>2015-09-27T08:18:41Z</time>
      </trkpt>
      <trkpt lat="43.23013" lon="5.61753">
        <ele>269.43359375</ele>
        <time>2015-09-27T08:18:42Z</time>
      </trkpt>
      <trkpt lat="43.23012" lon="5.61747">
        <ele>269.51953125</ele>
        <time>2015-09-27T08:18:43Z</time>
      </trkpt>
      <trkpt lat="43.23012" lon="5.61744">
        <ele>269.6484375</ele>
        <time>2015-09-27T08:18:44Z</time>
      </trkpt>
      <trkpt lat="43.23014" lon="5.61711">
        <ele>271.12890625</ele>
        <time>2015-09-27T08:18:49Z</time>
      </trkpt>
      <trkpt lat="43.23012" lon="5.61706">
        <ele>270.71484375</ele>
        <time>2015-09-27T08:18:50Z</time>
      </trkpt>
      <trkpt lat="43.23009" lon="5.61703">
        <ele>270.24609375</ele>
        <time>2015-09-27T08:18:51Z</time>
      </trkpt>
      <trkpt lat="43.23006" lon="5.61699">
        <ele>269.68359375</ele>
        <time>2015-09-27T08:18:52Z</time>
      </trkpt>
      <trkpt lat="43.23002" lon="5.61696">
        <ele>269.3046875</ele>
        <time>2015-09-27T08:18:53Z</time>
      </trkpt>
      <trkpt lat="43.22997" lon="5.61693">
        <ele>268.93359375</ele>
        <time>2015-09-27T08:18:54Z</time>
      </trkpt>
      <trkpt lat="43.22993" lon="5.61691">
        <ele>268.52734375</ele>
        <time>2015-09-27T08:18:55Z</time>
      </trkpt>
      <trkpt lat="43.2299" lon="5.61691">
        <ele>268.16015625</ele>
        <time>2015-09-27T08:18:56Z</time>
      </trkpt>
      <trkpt lat="43.22987" lon="5.61691">
        <ele>267.859375</ele>
        <time>2015-09-27T08:18:57Z</time>
      </trkpt>
      <trkpt lat="43.22985" lon="5.61691">
        <ele>267.60546875</ele>
        <time>2015-09-27T08:18:58Z</time>
      </trkpt>
      <trkpt lat="43.22982" lon="5.61691">
        <ele>267.3515625</ele>
        <time>2015-09-27T08:18:59Z</time>
      </trkpt>
      <trkpt lat="43.22973" lon="5.61692">
        <ele>266.48828125</ele>
        <time>2015-09-27T08:19:03Z</time>
      </trkpt>
      <trkpt lat="43.22969" lon="5.6169">
        <ele>266.32421875</ele>
        <time>2015-09-27T08:19:14Z</time>
      </trkpt>
      <trkpt lat="43.22969" lon="5.61688">
        <ele>266.35546875</ele>
        <time>2015-09-27T08:19:41Z</time>
      </trkpt>
      <trkpt lat="43.22968" lon="5.6169">
        <ele>266.19921875</ele>
        <time>2015-09-27T08:20:11Z</time>
      </trkpt>
      <trkpt lat="43.22966" lon="5.6169">
        <ele>266.125</ele>
        <time>2015-09-27T08:20:26Z</time>
      </trkpt>
      <trkpt lat="43.22965" lon="5.61687">
        <ele>266.1015625</ele>
        <time>2015-09-27T08:20:27Z</time>
      </trkpt>
      <trkpt lat="43.22963" lon="5.61685">
        <ele>266.00390625</ele>
        <time>2015-09-27T08:20:28Z</time>
      </trkpt>
      <trkpt lat="43.2296" lon="5.61682">
        <ele>265.85546875</ele>
        <time>2015-09-27T08:20:29Z</time>
      </trkpt>
      <trkpt lat="43.22954" lon="5.61674">
        <ele>265.69140625</ele>
        <time>2015-09-27T08:20:32Z</time>
      </trkpt>
      <trkpt lat="43.22954" lon="5.61671">
        <ele>265.77734375</ele>
        <time>2015-09-27T08:20:33Z</time>
      </trkpt>
      <trkpt lat="43.22954" lon="5.61668">
        <ele>265.8359375</ele>
        <time>2015-09-27T08:20:34Z</time>
      </trkpt>
      <trkpt lat="43.22952" lon="5.61664">
        <ele>265.89453125</ele>
        <time>2015-09-27T08:20:35Z</time>
      </trkpt>
      <trkpt lat="43.22951" lon="5.61659">
        <ele>266.015625</ele>
        <time>2015-09-27T08:20:36Z</time>
      </trkpt>
      <trkpt lat="43.22951" lon="5.61654">
        <ele>266.078125</ele>
        <time>2015-09-27T08:20:37Z</time>
      </trkpt>
      <trkpt lat="43.22951" lon="5.61648">
        <ele>266.1015625</ele>
        <time>2015-09-27T08:20:38Z</time>
      </trkpt>
      <trkpt lat="43.2295" lon="5.61643">
        <ele>266.078125</ele>
        <time>2015-09-27T08:20:39Z</time>
      </trkpt>
      <trkpt lat="43.22951" lon="5.61625">
        <ele>266.46484375</ele>
        <time>2015-09-27T08:20:42Z</time>
      </trkpt>
      <trkpt lat="43.22952" lon="5.61619">
        <ele>266.97265625</ele>
        <time>2015-09-27T08:20:43Z</time>
      </trkpt>
      <trkpt lat="43.22953" lon="5.61614">
        <ele>267.27734375</ele>
        <time>2015-09-27T08:20:44Z</time>
      </trkpt>
      <trkpt lat="43.22952" lon="5.61611">
        <ele>267.29296875</ele>
        <time>2015-09-27T08:20:45Z</time>
      </trkpt>
      <trkpt lat="43.22951" lon="5.61606">
        <ele>267.1484375</ele>
        <time>2015-09-27T08:20:46Z</time>
      </trkpt>
      <trkpt lat="43.22941" lon="5.61589">
        <ele>264.5703125</ele>
        <time>2015-09-27T08:20:50Z</time>
      </trkpt>
      <trkpt lat="43.22937" lon="5.61586">
        <ele>263.02734375</ele>
        <time>2015-09-27T08:20:51Z</time>
      </trkpt>
      <trkpt lat="43.22929" lon="5.6158">
        <ele>259.6640625</ele>
        <time>2015-09-27T08:20:53Z</time>
      </trkpt>
      <trkpt lat="43.22926" lon="5.61579">
        <ele>258.06640625</ele>
        <time>2015-09-27T08:20:54Z</time>
      </trkpt>
      <trkpt lat="43.22922" lon="5.61579">
        <ele>256.49609375</ele>
        <time>2015-09-27T08:20:55Z</time>
      </trkpt>
      <trkpt lat="43.22918" lon="5.6158">
        <ele>255.90234375</ele>
        <time>2015-09-27T08:20:56Z</time>
      </trkpt>
      <trkpt lat="43.22912" lon="5.61584">
        <ele>255.30859375</ele>
        <time>2015-09-27T08:20:58Z</time>
      </trkpt>
      <trkpt lat="43.22911" lon="5.61586">
        <ele>255.3515625</ele>
        <time>2015-09-27T08:20:59Z</time>
      </trkpt>
      <trkpt lat="43.2291" lon="5.6159">
        <ele>255.5546875</ele>
        <time>2015-09-27T08:21:00Z</time>
      </trkpt>
      <trkpt lat="43.22908" lon="5.61595">
        <ele>255.80859375</ele>
        <time>2015-09-27T08:21:01Z</time>
      </trkpt>
      <trkpt lat="43.22906" lon="5.616">
        <ele>255.91015625</ele>
        <time>2015-09-27T08:21:02Z</time>
      </trkpt>
      <trkpt lat="43.22904" lon="5.61604">
        <ele>255.9765625</ele>
        <time>2015-09-27T08:21:03Z</time>
      </trkpt>
      <trkpt lat="43.22903" lon="5.61608">
        <ele>256.1953125</ele>
        <time>2015-09-27T08:21:04Z</time>
      </trkpt>
      <trkpt lat="43.22902" lon="5.61612">
        <ele>256.49609375</ele>
        <time>2015-09-27T08:21:05Z</time>
      </trkpt>
      <trkpt lat="43.229" lon="5.61616">
        <ele>256.65234375</ele>
        <time>2015-09-27T08:21:06Z</time>
      </trkpt>
      <trkpt lat="43.22898" lon="5.61619">
        <ele>256.546875</ele>
        <time>2015-09-27T08:21:07Z</time>
      </trkpt>
      <trkpt lat="43.22872" lon="5.61622">
        <ele>252.2421875</ele>
        <time>2015-09-27T08:21:15Z</time>
      </trkpt>
      <trkpt lat="43.22868" lon="5.61624">
        <ele>251.70703125</ele>
        <time>2015-09-27T08:21:16Z</time>
      </trkpt>
      <trkpt lat="43.22865" lon="5.61627">
        <ele>251.265625</ele>
        <time>2015-09-27T08:21:17Z</time>
      </trkpt>
      <trkpt lat="43.22862" lon="5.6163">
        <ele>250.8125</ele>
        <time>2015-09-27T08:21:18Z</time>
      </trkpt>
      <trkpt lat="43.22859" lon="5.61633">
        <ele>250.25</ele>
        <time>2015-09-27T08:21:19Z</time>
      </trkpt>
      <trkpt lat="43.22855" lon="5.61634">
        <ele>249.41796875</ele>
        <time>2015-09-27T08:21:20Z</time>
      </trkpt>
      <trkpt lat="43.22852" lon="5.61636">
        <ele>248.52734375</ele>
        <time>2015-09-27T08:21:21Z</time>
      </trkpt>
      <trkpt lat="43.22849" lon="5.61636">
        <ele>247.59765625</ele>
        <time>2015-09-27T08:21:22Z</time>
      </trkpt>
      <trkpt lat="43.22846" lon="5.61634">
        <ele>246.69140625</ele>
        <time>2015-09-27T08:21:23Z</time>
      </trkpt>
      <trkpt lat="43.22845" lon="5.6163">
        <ele>245.87890625</ele>
        <time>2015-09-27T08:21:24Z</time>
      </trkpt>
      <trkpt lat="43.22844" lon="5.61626">
        <ele>245.51953125</ele>
        <time>2015-09-27T08:21:25Z</time>
      </trkpt>
      <trkpt lat="43.22845" lon="5.61616">
        <ele>245.10546875</ele>
        <time>2015-09-27T08:21:27Z</time>
      </trkpt>
      <trkpt lat="43.22845" lon="5.6161">
        <ele>244.76953125</ele>
        <time>2015-09-27T08:21:28Z</time>
      </trkpt>
      <trkpt lat="43.22845" lon="5.61605">
        <ele>244.4765625</ele>
        <time>2015-09-27T08:21:29Z</time>
      </trkpt>
      <trkpt lat="43.22843" lon="5.616">
        <ele>244.015625</ele>
        <time>2015-09-27T08:21:30Z</time>
      </trkpt>
      <trkpt lat="43.22841" lon="5.61597">
        <ele>243.43359375</ele>
        <time>2015-09-27T08:21:31Z</time>
      </trkpt>
      <trkpt lat="43.22839" lon="5.61595">
        <ele>242.7890625</ele>
        <time>2015-09-27T08:21:32Z</time>
      </trkpt>
      <trkpt lat="43.22836" lon="5.61594">
        <ele>242.23828125</ele>
        <time>2015-09-27T08:21:33Z</time>
      </trkpt>
      <trkpt lat="43.22833" lon="5.61593">
        <ele>241.75390625</ele>
        <time>2015-09-27T08:21:34Z</time>
      </trkpt>
      <trkpt lat="43.2283" lon="5.61594">
        <ele>241.33203125</ele>
        <time>2015-09-27T08:21:35Z</time>
      </trkpt>
      <trkpt lat="43.22828" lon="5.61594">
        <ele>240.9765625</ele>
        <time>2015-09-27T08:21:36Z</time>
      </trkpt>
      <trkpt lat="43.22826" lon="5.61594">
        <ele>240.56640625</ele>
        <time>2015-09-27T08:21:37Z</time>
      </trkpt>
      <trkpt lat="43.22823" lon="5.61592">
        <ele>239.99609375</ele>
        <time>2015-09-27T08:21:38Z</time>
      </trkpt>
      <trkpt lat="43.228" lon="5.61597">
        <ele>237.0703125</ele>
        <time>2015-09-27T08:21:44Z</time>
      </trkpt>
      <trkpt lat="43.22791" lon="5.61598">
        <ele>236.359375</ele>
        <time>2015-09-27T08:21:46Z</time>
      </trkpt>
      <trkpt lat="43.22776" lon="5.61599">
        <ele>235.265625</ele>
        <time>2015-09-27T08:21:49Z</time>
      </trkpt>
      <trkpt lat="43.22747" lon="5.61594">
        <ele>232.41015625</ele>
        <time>2015-09-27T08:21:55Z</time>
      </trkpt>
      <trkpt lat="43.22743" lon="5.61591">
        <ele>231.73828125</ele>
        <time>2015-09-27T08:21:56Z</time>
      </trkpt>
      <trkpt lat="43.2274" lon="5.61588">
        <ele>231.0234375</ele>
        <time>2015-09-27T08:21:57Z</time>
      </trkpt>
      <trkpt lat="43.22738" lon="5.61584">
        <ele>230.36328125</ele>
        <time>2015-09-27T08:21:58Z</time>
      </trkpt>
      <trkpt lat="43.22737" lon="5.61579">
        <ele>229.74609375</ele>
        <time>2015-09-27T08:21:59Z</time>
      </trkpt>
      <trkpt lat="43.22737" lon="5.61576">
        <ele>229.23046875</ele>
        <time>2015-09-27T08:22:00Z</time>
      </trkpt>
      <trkpt lat="43.22739" lon="5.61572">
        <ele>228.94921875</ele>
        <time>2015-09-27T08:22:01Z</time>
      </trkpt>
      <trkpt lat="43.22741" lon="5.61568">
        <ele>228.80078125</ele>
        <time>2015-09-27T08:22:02Z</time>
      </trkpt>
      <trkpt lat="43.22743" lon="5.61565">
        <ele>228.72265625</ele>
        <time>2015-09-27T08:22:03Z</time>
      </trkpt>
      <trkpt lat="43.22745" lon="5.61561">
        <ele>228.6640625</ele>
        <time>2015-09-27T08:22:04Z</time>
      </trkpt>
      <trkpt lat="43.22748" lon="5.61558">
        <ele>228.65625</ele>
        <time>2015-09-27T08:22:05Z</time>
      </trkpt>
      <trkpt lat="43.2275" lon="5.61554">
        <ele>228.63671875</ele>
        <time>2015-09-27T08:22:06Z</time>
      </trkpt>
      <trkpt lat="43.22751" lon="5.6155">
        <ele>228.5390625</ele>
        <time>2015-09-27T08:22:07Z</time>
      </trkpt>
      <trkpt lat="43.22752" lon="5.61545">
        <ele>228.51171875</ele>
        <time>2015-09-27T08:22:08Z</time>
      </trkpt>
      <trkpt lat="43.22753" lon="5.6154">
        <ele>228.60546875</ele>
        <time>2015-09-27T08:22:09Z</time>
      </trkpt>
      <trkpt lat="43.22758" lon="5.61512">
        <ele>230.4921875</ele>
        <time>2015-09-27T08:22:14Z</time>
      </trkpt>
      <trkpt lat="43.22758" lon="5.61507">
        <ele>231.0859375</ele>
        <time>2015-09-27T08:22:15Z</time>
      </trkpt>
      <trkpt lat="43.22758" lon="5.61503">
        <ele>231.3984375</ele>
        <time>2015-09-27T08:22:16Z</time>
      </trkpt>
      <trkpt lat="43.22758" lon="5.615">
        <ele>231.63671875</ele>
        <time>2015-09-27T08:22:17Z</time>
      </trkpt>
      <trkpt lat="43.22758" lon="5.61496">
        <ele>231.85546875</ele>
        <time>2015-09-27T08:22:18Z</time>
      </trkpt>
      <trkpt lat="43.22758" lon="5.61493">
        <ele>232.0859375</ele>
        <time>2015-09-27T08:22:19Z</time>
      </trkpt>
      <trkpt lat="43.22755" lon="5.6149">
        <ele>230.9296875</ele>
        <time>2015-09-27T08:22:20Z</time>
      </trkpt>
      <trkpt lat="43.22751" lon="5.61489">
        <ele>229.6875</ele>
        <time>2015-09-27T08:22:21Z</time>
      </trkpt>
      <trkpt lat="43.22732" lon="5.61483">
        <ele>222.6875</ele>
        <time>2015-09-27T08:22:24Z</time>
      </trkpt>
      <trkpt lat="43.22726" lon="5.61481">
        <ele>221.234375</ele>
        <time>2015-09-27T08:22:25Z</time>
      </trkpt>
      <trkpt lat="43.22721" lon="5.6148">
        <ele>221.72265625</ele>
        <time>2015-09-27T08:22:26Z</time>
      </trkpt>
      <trkpt lat="43.22717" lon="5.61481">
        <ele>222.0390625</ele>
        <time>2015-09-27T08:22:27Z</time>
      </trkpt>
      <trkpt lat="43.22713" lon="5.61481">
        <ele>222.37890625</ele>
        <time>2015-09-27T08:22:28Z</time>
      </trkpt>
      <trkpt lat="43.22711" lon="5.61481">
        <ele>222.56640625</ele>
        <time>2015-09-27T08:22:29Z</time>
      </trkpt>
      <trkpt lat="43.22695" lon="5.61481">
        <ele>223.49609375</ele>
        <time>2015-09-27T08:22:32Z</time>
      </trkpt>
      <trkpt lat="43.22682" lon="5.6148">
        <ele>223.0859375</ele>
        <time>2015-09-27T08:22:43Z</time>
      </trkpt>
      <trkpt lat="43.22683" lon="5.61479">
        <ele>223.0546875</ele>
        <time>2015-09-27T08:23:14Z</time>
      </trkpt>
      <trkpt lat="43.22679" lon="5.61482">
        <ele>223.1875</ele>
        <time>2015-09-27T08:23:41Z</time>
      </trkpt>
      <trkpt lat="43.22678" lon="5.61483">
        <ele>223.21484375</ele>
        <time>2015-09-27T08:23:42Z</time>
      </trkpt>
      <trkpt lat="43.22675" lon="5.61484">
        <ele>223.2578125</ele>
        <time>2015-09-27T08:23:43Z</time>
      </trkpt>
      <trkpt lat="43.22662" lon="5.61489">
        <ele>221.7421875</ele>
        <time>2015-09-27T08:23:47Z</time>
      </trkpt>
      <trkpt lat="43.2266" lon="5.61491">
        <ele>221.39453125</ele>
        <time>2015-09-27T08:23:48Z</time>
      </trkpt>
      <trkpt lat="43.22657" lon="5.61493">
        <ele>221.1796875</ele>
        <time>2015-09-27T08:23:49Z</time>
      </trkpt>
      <trkpt lat="43.22655" lon="5.61496">
        <ele>221</ele>
        <time>2015-09-27T08:23:50Z</time>
      </trkpt>
      <trkpt lat="43.22651" lon="5.61499">
        <ele>220.58984375</ele>
        <time>2015-09-27T08:23:51Z</time>
      </trkpt>
      <trkpt lat="43.22648" lon="5.61501">
        <ele>219.99609375</ele>
        <time>2015-09-27T08:23:52Z</time>
      </trkpt>
      <trkpt lat="43.22644" lon="5.61504">
        <ele>219.46484375</ele>
        <time>2015-09-27T08:23:53Z</time>
      </trkpt>
      <trkpt lat="43.22641" lon="5.61508">
        <ele>219.10546875</ele>
        <time>2015-09-27T08:23:54Z</time>
      </trkpt>
      <trkpt lat="43.22638" lon="5.61513">
        <ele>218.5703125</ele>
        <time>2015-09-27T08:23:55Z</time>
      </trkpt>
      <trkpt lat="43.22634" lon="5.61518">
        <ele>217.69140625</ele>
        <time>2015-09-27T08:23:56Z</time>
      </trkpt>
      <trkpt lat="43.2263" lon="5.61523">
        <ele>216.87890625</ele>
        <time>2015-09-27T08:23:57Z</time>
      </trkpt>
      <trkpt lat="43.22626" lon="5.61528">
        <ele>216.1015625</ele>
        <time>2015-09-27T08:23:58Z</time>
      </trkpt>
      <trkpt lat="43.22624" lon="5.61533">
        <ele>215.41015625</ele>
        <time>2015-09-27T08:23:59Z</time>
      </trkpt>
      <trkpt lat="43.22621" lon="5.61539">
        <ele>214.69921875</ele>
        <time>2015-09-27T08:24:00Z</time>
      </trkpt>
      <trkpt lat="43.22619" lon="5.61545">
        <ele>214.01953125</ele>
        <time>2015-09-27T08:24:01Z</time>
      </trkpt>
      <trkpt lat="43.22617" lon="5.61552">
        <ele>213.1015625</ele>
        <time>2015-09-27T08:24:02Z</time>
      </trkpt>
      <trkpt lat="43.22615" lon="5.61556">
        <ele>211.84375</ele>
        <time>2015-09-27T08:24:03Z</time>
      </trkpt>
      <trkpt lat="43.22612" lon="5.61559">
        <ele>210.05078125</ele>
        <time>2015-09-27T08:24:04Z</time>
      </trkpt>
      <trkpt lat="43.226" lon="5.61567">
        <ele>202.49609375</ele>
        <time>2015-09-27T08:24:07Z</time>
      </trkpt>
      <trkpt lat="43.22596" lon="5.6157">
        <ele>200.1015625</ele>
        <time>2015-09-27T08:24:08Z</time>
      </trkpt>
      <trkpt lat="43.2259" lon="5.61578">
        <ele>195.609375</ele>
        <time>2015-09-27T08:24:10Z</time>
      </trkpt>
      <trkpt lat="43.22586" lon="5.61582">
        <ele>194.40234375</ele>
        <time>2015-09-27T08:24:11Z</time>
      </trkpt>
      <trkpt lat="43.22556" lon="5.61608">
        <ele>193.125</ele>
        <time>2015-09-27T08:24:17Z</time>
      </trkpt>
      <trkpt lat="43.22542" lon="5.61622">
        <ele>192.7578125</ele>
        <time>2015-09-27T08:24:20Z</time>
      </trkpt>
      <trkpt lat="43.22539" lon="5.61628">
        <ele>192.484375</ele>
        <time>2015-09-27T08:24:21Z</time>
      </trkpt>
      <trkpt lat="43.22537" lon="5.61635">
        <ele>192.34765625</ele>
        <time>2015-09-27T08:24:22Z</time>
      </trkpt>
      <trkpt lat="43.22536" lon="5.61642">
        <ele>192.296875</ele>
        <time>2015-09-27T08:24:23Z</time>
      </trkpt>
      <trkpt lat="43.22536" lon="5.61649">
        <ele>192.31640625</ele>
        <time>2015-09-27T08:24:24Z</time>
      </trkpt>
      <trkpt lat="43.22536" lon="5.61656">
        <ele>192.40234375</ele>
        <time>2015-09-27T08:24:25Z</time>
      </trkpt>
      <trkpt lat="43.22537" lon="5.61663">
        <ele>193</ele>
        <time>2015-09-27T08:24:26Z</time>
      </trkpt>
      <trkpt lat="43.22538" lon="5.6167">
        <ele>193.84375</ele>
        <time>2015-09-27T08:24:27Z</time>
      </trkpt>
      <trkpt lat="43.22539" lon="5.61677">
        <ele>194.78515625</ele>
        <time>2015-09-27T08:24:28Z</time>
      </trkpt>
      <trkpt lat="43.22541" lon="5.617">
        <ele>198.546875</ele>
        <time>2015-09-27T08:24:31Z</time>
      </trkpt>
      <trkpt lat="43.22541" lon="5.61707">
        <ele>199.7578125</ele>
        <time>2015-09-27T08:24:32Z</time>
      </trkpt>
      <trkpt lat="43.22541" lon="5.61714">
        <ele>200.65625</ele>
        <time>2015-09-27T08:24:33Z</time>
      </trkpt>
      <trkpt lat="43.2254" lon="5.6172">
        <ele>201.953125</ele>
        <time>2015-09-27T08:24:34Z</time>
      </trkpt>
      <trkpt lat="43.22539" lon="5.61726">
        <ele>203.22265625</ele>
        <time>2015-09-27T08:24:35Z</time>
      </trkpt>
      <trkpt lat="43.22538" lon="5.61731">
        <ele>204.21484375</ele>
        <time>2015-09-27T08:24:36Z</time>
      </trkpt>
      <trkpt lat="43.22535" lon="5.61735">
        <ele>204.28515625</ele>
        <time>2015-09-27T08:24:37Z</time>
      </trkpt>
      <trkpt lat="43.22532" lon="5.61738">
        <ele>203.78125</ele>
        <time>2015-09-27T08:24:38Z</time>
      </trkpt>
      <trkpt lat="43.22529" lon="5.6174">
        <ele>203.5390625</ele>
        <time>2015-09-27T08:24:39Z</time>
      </trkpt>
      <trkpt lat="43.22514" lon="5.61745">
        <ele>200.41796875</ele>
        <time>2015-09-27T08:24:43Z</time>
      </trkpt>
      <trkpt lat="43.2251" lon="5.61743">
        <ele>198.33984375</ele>
        <time>2015-09-27T08:24:44Z</time>
      </trkpt>
      <trkpt lat="43.22506" lon="5.6174">
        <ele>195.90625</ele>
        <time>2015-09-27T08:24:45Z</time>
      </trkpt>
      <trkpt lat="43.22503" lon="5.61736">
        <ele>194.171875</ele>
        <time>2015-09-27T08:24:46Z</time>
      </trkpt>
      <trkpt lat="43.225" lon="5.61732">
        <ele>192.81640625</ele>
        <time>2015-09-27T08:24:47Z</time>
      </trkpt>
      <trkpt lat="43.22495" lon="5.6173">
        <ele>191.64453125</ele>
        <time>2015-09-27T08:24:48Z</time>
      </trkpt>
      <trkpt lat="43.22491" lon="5.61728">
        <ele>190.578125</ele>
        <time>2015-09-27T08:24:49Z</time>
      </trkpt>
      <trkpt lat="43.22486" lon="5.61726">
        <ele>189.55859375</ele>
        <time>2015-09-27T08:24:50Z</time>
      </trkpt>
      <trkpt lat="43.22481" lon="5.61724">
        <ele>188.40234375</ele>
        <time>2015-09-27T08:24:51Z</time>
      </trkpt>
      <trkpt lat="43.22473" lon="5.61718">
        <ele>186.51171875</ele>
        <time>2015-09-27T08:24:53Z</time>
      </trkpt>
      <trkpt lat="43.22469" lon="5.61715">
        <ele>185.734375</ele>
        <time>2015-09-27T08:24:54Z</time>
      </trkpt>
      <trkpt lat="43.22465" lon="5.61712">
        <ele>185.46484375</ele>
        <time>2015-09-27T08:24:55Z</time>
      </trkpt>
      <trkpt lat="43.22461" lon="5.6171">
        <ele>185.7109375</ele>
        <time>2015-09-27T08:24:56Z</time>
      </trkpt>
      <trkpt lat="43.22456" lon="5.6171">
        <ele>185.9609375</ele>
        <time>2015-09-27T08:24:57Z</time>
      </trkpt>
      <trkpt lat="43.22451" lon="5.6171">
        <ele>186.1640625</ele>
        <time>2015-09-27T08:24:58Z</time>
      </trkpt>
      <trkpt lat="43.22441" lon="5.61713">
        <ele>185.71484375</ele>
        <time>2015-09-27T08:25:00Z</time>
      </trkpt>
      <trkpt lat="43.22418" lon="5.61725">
        <ele>187.796875</ele>
        <time>2015-09-27T08:25:06Z</time>
      </trkpt>
      <trkpt lat="43.22413" lon="5.61727">
        <ele>187.8046875</ele>
        <time>2015-09-27T08:25:07Z</time>
      </trkpt>
      <trkpt lat="43.22409" lon="5.61728">
        <ele>187.65234375</ele>
        <time>2015-09-27T08:25:08Z</time>
      </trkpt>
      <trkpt lat="43.22404" lon="5.61727">
        <ele>187.2265625</ele>
        <time>2015-09-27T08:25:09Z</time>
      </trkpt>
      <trkpt lat="43.224" lon="5.61725">
        <ele>186.46875</ele>
        <time>2015-09-27T08:25:10Z</time>
      </trkpt>
      <trkpt lat="43.22396" lon="5.61721">
        <ele>185.51953125</ele>
        <time>2015-09-27T08:25:11Z</time>
      </trkpt>
      <trkpt lat="43.22392" lon="5.61718">
        <ele>184.37890625</ele>
        <time>2015-09-27T08:25:12Z</time>
      </trkpt>
      <trkpt lat="43.22387" lon="5.61715">
        <ele>183.22265625</ele>
        <time>2015-09-27T08:25:13Z</time>
      </trkpt>
      <trkpt lat="43.22363" lon="5.61712">
        <ele>179.84375</ele>
        <time>2015-09-27T08:25:19Z</time>
      </trkpt>
      <trkpt lat="43.2236" lon="5.61714">
        <ele>179.3515625</ele>
        <time>2015-09-27T08:25:20Z</time>
      </trkpt>
      <trkpt lat="43.22356" lon="5.61718">
        <ele>179.19140625</ele>
        <time>2015-09-27T08:25:21Z</time>
      </trkpt>
      <trkpt lat="43.22351" lon="5.61721">
        <ele>178.890625</ele>
        <time>2015-09-27T08:25:22Z</time>
      </trkpt>
      <trkpt lat="43.22347" lon="5.61725">
        <ele>178.5546875</ele>
        <time>2015-09-27T08:25:23Z</time>
      </trkpt>
      <trkpt lat="43.22345" lon="5.61729">
        <ele>178.43359375</ele>
        <time>2015-09-27T08:25:24Z</time>
      </trkpt>
      <trkpt lat="43.22343" lon="5.61733">
        <ele>178.4609375</ele>
        <time>2015-09-27T08:25:25Z</time>
      </trkpt>
      <trkpt lat="43.22341" lon="5.61739">
        <ele>178.37890625</ele>
        <time>2015-09-27T08:25:26Z</time>
      </trkpt>
      <trkpt lat="43.2234" lon="5.61744">
        <ele>178.40625</ele>
        <time>2015-09-27T08:25:27Z</time>
      </trkpt>
      <trkpt lat="43.22338" lon="5.61751">
        <ele>178.64453125</ele>
        <time>2015-09-27T08:25:28Z</time>
      </trkpt>
      <trkpt lat="43.22338" lon="5.61757">
        <ele>179.07421875</ele>
        <time>2015-09-27T08:25:29Z</time>
      </trkpt>
      <trkpt lat="43.22338" lon="5.61765">
        <ele>179.6640625</ele>
        <time>2015-09-27T08:25:30Z</time>
      </trkpt>
      <trkpt lat="43.22339" lon="5.61772">
        <ele>180.3515625</ele>
        <time>2015-09-27T08:25:31Z</time>
      </trkpt>
      <trkpt lat="43.2234" lon="5.6178">
        <ele>181.078125</ele>
        <time>2015-09-27T08:25:32Z</time>
      </trkpt>
      <trkpt lat="43.22341" lon="5.61787">
        <ele>181.89453125</ele>
        <time>2015-09-27T08:25:33Z</time>
      </trkpt>
      <trkpt lat="43.22342" lon="5.61793">
        <ele>182.83984375</ele>
        <time>2015-09-27T08:25:34Z</time>
      </trkpt>
      <trkpt lat="43.22343" lon="5.61799">
        <ele>183.7578125</ele>
        <time>2015-09-27T08:25:35Z</time>
      </trkpt>
      <trkpt lat="43.22344" lon="5.61805">
        <ele>184.390625</ele>
        <time>2015-09-27T08:25:36Z</time>
      </trkpt>
      <trkpt lat="43.22343" lon="5.61812">
        <ele>184.71484375</ele>
        <time>2015-09-27T08:25:37Z</time>
      </trkpt>
      <trkpt lat="43.22342" lon="5.6182">
        <ele>184.8515625</ele>
        <time>2015-09-27T08:25:38Z</time>
      </trkpt>
      <trkpt lat="43.2234" lon="5.61825">
        <ele>184.44921875</ele>
        <time>2015-09-27T08:25:39Z</time>
      </trkpt>
      <trkpt lat="43.22337" lon="5.6183">
        <ele>183.38671875</ele>
        <time>2015-09-27T08:25:40Z</time>
      </trkpt>
      <trkpt lat="43.22333" lon="5.61835">
        <ele>182.05859375</ele>
        <time>2015-09-27T08:25:41Z</time>
      </trkpt>
      <trkpt lat="43.22326" lon="5.61845">
        <ele>179.25390625</ele>
        <time>2015-09-27T08:25:43Z</time>
      </trkpt>
      <trkpt lat="43.22323" lon="5.6185">
        <ele>177.97265625</ele>
        <time>2015-09-27T08:25:44Z</time>
      </trkpt>
      <trkpt lat="43.22317" lon="5.61861">
        <ele>175.2109375</ele>
        <time>2015-09-27T08:25:46Z</time>
      </trkpt>
      <trkpt lat="43.22315" lon="5.61866">
        <ele>174.02734375</ele>
        <time>2015-09-27T08:25:47Z</time>
      </trkpt>
      <trkpt lat="43.22314" lon="5.61869">
        <ele>173.421875</ele>
        <time>2015-09-27T08:25:48Z</time>
      </trkpt>
      <trkpt lat="43.22315" lon="5.61887">
        <ele>173.48046875</ele>
        <time>2015-09-27T08:25:53Z</time>
      </trkpt>
      <trkpt lat="43.22318" lon="5.6189">
        <ele>174.47265625</ele>
        <time>2015-09-27T08:25:54Z</time>
      </trkpt>
      <trkpt lat="43.22321" lon="5.61894">
        <ele>175.30078125</ele>
        <time>2015-09-27T08:25:55Z</time>
      </trkpt>
      <trkpt lat="43.22323" lon="5.61899">
        <ele>175.88671875</ele>
        <time>2015-09-27T08:25:56Z</time>
      </trkpt>
      <trkpt lat="43.22325" lon="5.61904">
        <ele>176.40625</ele>
        <time>2015-09-27T08:25:57Z</time>
      </trkpt>
      <trkpt lat="43.22327" lon="5.61909">
        <ele>176.53125</ele>
        <time>2015-09-27T08:25:58Z</time>
      </trkpt>
      <trkpt lat="43.22327" lon="5.61913">
        <ele>176.2890625</ele>
        <time>2015-09-27T08:25:59Z</time>
      </trkpt>
      <trkpt lat="43.22327" lon="5.61917">
        <ele>175.7734375</ele>
        <time>2015-09-27T08:26:00Z</time>
      </trkpt>
      <trkpt lat="43.22327" lon="5.61922">
        <ele>175.3359375</ele>
        <time>2015-09-27T08:26:01Z</time>
      </trkpt>
      <trkpt lat="43.22327" lon="5.61926">
        <ele>174.9375</ele>
        <time>2015-09-27T08:26:02Z</time>
      </trkpt>
      <trkpt lat="43.22328" lon="5.61948">
        <ele>172.97265625</ele>
        <time>2015-09-27T08:26:06Z</time>
      </trkpt>
      <trkpt lat="43.22331" lon="5.61968">
        <ele>172.484375</ele>
        <time>2015-09-27T08:26:09Z</time>
      </trkpt>
      <trkpt lat="43.22332" lon="5.61974">
        <ele>172.40625</ele>
        <time>2015-09-27T08:26:10Z</time>
      </trkpt>
      <trkpt lat="43.22334" lon="5.6198">
        <ele>172.28515625</ele>
        <time>2015-09-27T08:26:11Z</time>
      </trkpt>
      <trkpt lat="43.22334" lon="5.61984">
        <ele>172.08203125</ele>
        <time>2015-09-27T08:26:12Z</time>
      </trkpt>
      <trkpt lat="43.22335" lon="5.61987">
        <ele>171.9296875</ele>
        <time>2015-09-27T08:26:13Z</time>
      </trkpt>
      <trkpt lat="43.22337" lon="5.62021">
        <ele>170.31640625</ele>
        <time>2015-09-27T08:26:25Z</time>
      </trkpt>
      <trkpt lat="43.22338" lon="5.62045">
        <ele>170.6328125</ele>
        <time>2015-09-27T08:26:31Z</time>
      </trkpt>
      <trkpt lat="43.22337" lon="5.62051">
        <ele>170.4453125</ele>
        <time>2015-09-27T08:26:32Z</time>
      </trkpt>
      <trkpt lat="43.22336" lon="5.62057">
        <ele>170.1015625</ele>
        <time>2015-09-27T08:26:33Z</time>
      </trkpt>
      <trkpt lat="43.22335" lon="5.62063">
        <ele>169.78515625</ele>
        <time>2015-09-27T08:26:34Z</time>
      </trkpt>
      <trkpt lat="43.22334" lon="5.6207">
        <ele>169.50390625</ele>
        <time>2015-09-27T08:26:35Z</time>
      </trkpt>
      <trkpt lat="43.22333" lon="5.62075">
        <ele>169.125</ele>
        <time>2015-09-27T08:26:36Z</time>
      </trkpt>
      <trkpt lat="43.22331" lon="5.62079">
        <ele>168.73046875</ele>
        <time>2015-09-27T08:26:37Z</time>
      </trkpt>
      <trkpt lat="43.22329" lon="5.62084">
        <ele>168.1484375</ele>
        <time>2015-09-27T08:26:38Z</time>
      </trkpt>
      <trkpt lat="43.22327" lon="5.62089">
        <ele>167.55859375</ele>
        <time>2015-09-27T08:26:39Z</time>
      </trkpt>
      <trkpt lat="43.2232" lon="5.62118">
        <ele>166.60546875</ele>
        <time>2015-09-27T08:26:45Z</time>
      </trkpt>
      <trkpt lat="43.22307" lon="5.62142">
        <ele>163.4765625</ele>
        <time>2015-09-27T08:26:51Z</time>
      </trkpt>
      <trkpt lat="43.22302" lon="5.62148">
        <ele>162.2578125</ele>
        <time>2015-09-27T08:26:54Z</time>
      </trkpt>
      <trkpt lat="43.22299" lon="5.6215">
        <ele>161.53515625</ele>
        <time>2015-09-27T08:26:55Z</time>
      </trkpt>
      <trkpt lat="43.22297" lon="5.62153">
        <ele>160.8828125</ele>
        <time>2015-09-27T08:26:56Z</time>
      </trkpt>
      <trkpt lat="43.22295" lon="5.62157">
        <ele>160.3359375</ele>
        <time>2015-09-27T08:26:57Z</time>
      </trkpt>
      <trkpt lat="43.22295" lon="5.62163">
        <ele>160.31640625</ele>
        <time>2015-09-27T08:26:58Z</time>
      </trkpt>
      <trkpt lat="43.22295" lon="5.62168">
        <ele>160.91796875</ele>
        <time>2015-09-27T08:26:59Z</time>
      </trkpt>
      <trkpt lat="43.22296" lon="5.62172">
        <ele>161.55078125</ele>
        <time>2015-09-27T08:27:00Z</time>
      </trkpt>
      <trkpt lat="43.22296" lon="5.62176">
        <ele>161.9453125</ele>
        <time>2015-09-27T08:27:01Z</time>
      </trkpt>
      <trkpt lat="43.22296" lon="5.6218">
        <ele>162.01171875</ele>
        <time>2015-09-27T08:27:02Z</time>
      </trkpt>
      <trkpt lat="43.22295" lon="5.62184">
        <ele>161.75</ele>
        <time>2015-09-27T08:27:03Z</time>
      </trkpt>
      <trkpt lat="43.22293" lon="5.62188">
        <ele>161.10546875</ele>
        <time>2015-09-27T08:27:04Z</time>
      </trkpt>
      <trkpt lat="43.22292" lon="5.62193">
        <ele>160.6171875</ele>
        <time>2015-09-27T08:27:05Z</time>
      </trkpt>
      <trkpt lat="43.2229" lon="5.62199">
        <ele>160.10546875</ele>
        <time>2015-09-27T08:27:06Z</time>
      </trkpt>
      <trkpt lat="43.22288" lon="5.62205">
        <ele>159.515625</ele>
        <time>2015-09-27T08:27:07Z</time>
      </trkpt>
      <trkpt lat="43.22287" lon="5.6221">
        <ele>159.09765625</ele>
        <time>2015-09-27T08:27:08Z</time>
      </trkpt>
      <trkpt lat="43.22286" lon="5.62216">
        <ele>158.72265625</ele>
        <time>2015-09-27T08:27:09Z</time>
      </trkpt>
      <trkpt lat="43.22284" lon="5.62221">
        <ele>158.2265625</ele>
        <time>2015-09-27T08:27:10Z</time>
      </trkpt>
      <trkpt lat="43.22282" lon="5.62226">
        <ele>157.51953125</ele>
        <time>2015-09-27T08:27:11Z</time>
      </trkpt>
      <trkpt lat="43.2228" lon="5.6223">
        <ele>156.5078125</ele>
        <time>2015-09-27T08:27:12Z</time>
      </trkpt>
      <trkpt lat="43.22278" lon="5.62235">
        <ele>155.62109375</ele>
        <time>2015-09-27T08:27:13Z</time>
      </trkpt>
      <trkpt lat="43.22275" lon="5.6224">
        <ele>154.30078125</ele>
        <time>2015-09-27T08:27:14Z</time>
      </trkpt>
      <trkpt lat="43.22272" lon="5.62245">
        <ele>152.93359375</ele>
        <time>2015-09-27T08:27:15Z</time>
      </trkpt>
      <trkpt lat="43.22268" lon="5.6225">
        <ele>151.56640625</ele>
        <time>2015-09-27T08:27:16Z</time>
      </trkpt>
      <trkpt lat="43.22262" lon="5.62259">
        <ele>148.76953125</ele>
        <time>2015-09-27T08:27:18Z</time>
      </trkpt>
      <trkpt lat="43.22259" lon="5.62263">
        <ele>147.79296875</ele>
        <time>2015-09-27T08:27:19Z</time>
      </trkpt>
      <trkpt lat="43.22257" lon="5.62267">
        <ele>147.01953125</ele>
        <time>2015-09-27T08:27:20Z</time>
      </trkpt>
      <trkpt lat="43.22255" lon="5.62271">
        <ele>146.30078125</ele>
        <time>2015-09-27T08:27:21Z</time>
      </trkpt>
      <trkpt lat="43.22254" lon="5.62276">
        <ele>146.30078125</ele>
        <time>2015-09-27T08:27:22Z</time>
      </trkpt>
      <trkpt lat="43.22251" lon="5.62281">
        <ele>145.87109375</ele>
        <time>2015-09-27T08:27:23Z</time>
      </trkpt>
      <trkpt lat="43.22249" lon="5.62284">
        <ele>145.31640625</ele>
        <time>2015-09-27T08:27:24Z</time>
      </trkpt>
      <trkpt lat="43.22246" lon="5.62289">
        <ele>144.71875</ele>
        <time>2015-09-27T08:27:25Z</time>
      </trkpt>
      <trkpt lat="43.22244" lon="5.62293">
        <ele>144.02734375</ele>
        <time>2015-09-27T08:27:26Z</time>
      </trkpt>
      <trkpt lat="43.22234" lon="5.62328">
        <ele>139.6953125</ele>
        <time>2015-09-27T08:27:33Z</time>
      </trkpt>
      <trkpt lat="43.22229" lon="5.62349">
        <ele>135.8046875</ele>
        <time>2015-09-27T08:27:38Z</time>
      </trkpt>
      <trkpt lat="43.22224" lon="5.62368">
        <ele>133.5703125</ele>
        <time>2015-09-27T08:27:41Z</time>
      </trkpt>
      <trkpt lat="43.2222" lon="5.62382">
        <ele>131.94921875</ele>
        <time>2015-09-27T08:27:43Z</time>
      </trkpt>
      <trkpt lat="43.22218" lon="5.62388">
        <ele>131.0703125</ele>
        <time>2015-09-27T08:27:44Z</time>
      </trkpt>
      <trkpt lat="43.22216" lon="5.62394">
        <ele>130.21484375</ele>
        <time>2015-09-27T08:27:45Z</time>
      </trkpt>
      <trkpt lat="43.22213" lon="5.624">
        <ele>129.19140625</ele>
        <time>2015-09-27T08:27:46Z</time>
      </trkpt>
      <trkpt lat="43.22206" lon="5.62411">
        <ele>127.32421875</ele>
        <time>2015-09-27T08:27:48Z</time>
      </trkpt>
      <trkpt lat="43.22201" lon="5.62422">
        <ele>126.1796875</ele>
        <time>2015-09-27T08:27:50Z</time>
      </trkpt>
      <trkpt lat="43.22199" lon="5.62428">
        <ele>125.97265625</ele>
        <time>2015-09-27T08:27:51Z</time>
      </trkpt>
      <trkpt lat="43.22198" lon="5.62433">
        <ele>125.921875</ele>
        <time>2015-09-27T08:27:52Z</time>
      </trkpt>
      <trkpt lat="43.2219" lon="5.62447">
        <ele>126.1171875</ele>
        <time>2015-09-27T08:27:56Z</time>
      </trkpt>
      <trkpt lat="43.22179" lon="5.62451">
        <ele>126.53515625</ele>
        <time>2015-09-27T08:27:59Z</time>
      </trkpt>
      <trkpt lat="43.22175" lon="5.62449">
        <ele>126.44921875</ele>
        <time>2015-09-27T08:28:00Z</time>
      </trkpt>
      <trkpt lat="43.22172" lon="5.62446">
        <ele>126.15625</ele>
        <time>2015-09-27T08:28:01Z</time>
      </trkpt>
      <trkpt lat="43.22146" lon="5.62404">
        <ele>121.265625</ele>
        <time>2015-09-27T08:28:12Z</time>
      </trkpt>
      <trkpt lat="43.22143" lon="5.62403">
        <ele>120.98046875</ele>
        <time>2015-09-27T08:28:13Z</time>
      </trkpt>
      <trkpt lat="43.22141" lon="5.62403">
        <ele>120.71484375</ele>
        <time>2015-09-27T08:28:14Z</time>
      </trkpt>
      <trkpt lat="43.22134" lon="5.62401">
        <ele>119.796875</ele>
        <time>2015-09-27T08:28:18Z</time>
      </trkpt>
      <trkpt lat="43.22132" lon="5.624">
        <ele>119.59375</ele>
        <time>2015-09-27T08:28:19Z</time>
      </trkpt>
      <trkpt lat="43.22131" lon="5.624">
        <ele>119.3828125</ele>
        <time>2015-09-27T08:28:20Z</time>
      </trkpt>
      <trkpt lat="43.22129" lon="5.624">
        <ele>119.21875</ele>
        <time>2015-09-27T08:28:21Z</time>
      </trkpt>
      <trkpt lat="43.22128" lon="5.624">
        <ele>119.03515625</ele>
        <time>2015-09-27T08:28:22Z</time>
      </trkpt>
      <trkpt lat="43.22107" lon="5.62406">
        <ele>118.5546875</ele>
        <time>2015-09-27T08:28:35Z</time>
      </trkpt>
      <trkpt lat="43.22092" lon="5.62417">
        <ele>122.1640625</ele>
        <time>2015-09-27T08:28:45Z</time>
      </trkpt>
      <trkpt lat="43.2209" lon="5.62418">
        <ele>122.62890625</ele>
        <time>2015-09-27T08:28:46Z</time>
      </trkpt>
      <trkpt lat="43.22088" lon="5.62419">
        <ele>123.07421875</ele>
        <time>2015-09-27T08:28:47Z</time>
      </trkpt>
      <trkpt lat="43.22087" lon="5.62421">
        <ele>123.4453125</ele>
        <time>2015-09-27T08:28:48Z</time>
      </trkpt>
      <trkpt lat="43.22085" lon="5.62422">
        <ele>123.8125</ele>
        <time>2015-09-27T08:28:49Z</time>
      </trkpt>
      <trkpt lat="43.22083" lon="5.62422">
        <ele>124.0703125</ele>
        <time>2015-09-27T08:28:50Z</time>
      </trkpt>
      <trkpt lat="43.22064" lon="5.62427">
        <ele>126.40234375</ele>
        <time>2015-09-27T08:29:02Z</time>
      </trkpt>
      <trkpt lat="43.22046" lon="5.62441">
        <ele>129.1328125</ele>
        <time>2015-09-27T08:29:16Z</time>
      </trkpt>
      <trkpt lat="43.22044" lon="5.62442">
        <ele>129.3046875</ele>
        <time>2015-09-27T08:29:17Z</time>
      </trkpt>
      <trkpt lat="43.22043" lon="5.62443">
        <ele>129.5078125</ele>
        <time>2015-09-27T08:29:18Z</time>
      </trkpt>
      <trkpt lat="43.22042" lon="5.62444">
        <ele>129.84375</ele>
        <time>2015-09-27T08:29:19Z</time>
      </trkpt>
      <trkpt lat="43.22042" lon="5.62445">
        <ele>130.26953125</ele>
        <time>2015-09-27T08:29:20Z</time>
      </trkpt>
      <trkpt lat="43.2204" lon="5.62447">
        <ele>130.484375</ele>
        <time>2015-09-27T08:29:21Z</time>
      </trkpt>
      <trkpt lat="43.22039" lon="5.62448">
        <ele>130.68359375</ele>
        <time>2015-09-27T08:29:22Z</time>
      </trkpt>
      <trkpt lat="43.22038" lon="5.62449">
        <ele>130.9609375</ele>
        <time>2015-09-27T08:29:23Z</time>
      </trkpt>
      <trkpt lat="43.22025" lon="5.62462">
        <ele>133.9296875</ele>
        <time>2015-09-27T08:29:37Z</time>
      </trkpt>
      <trkpt lat="43.22023" lon="5.62465">
        <ele>134.421875</ele>
        <time>2015-09-27T08:29:39Z</time>
      </trkpt>
      <trkpt lat="43.22022" lon="5.62466">
        <ele>134.7890625</ele>
        <time>2015-09-27T08:29:40Z</time>
      </trkpt>
      <trkpt lat="43.22022" lon="5.62468">
        <ele>135.07421875</ele>
        <time>2015-09-27T08:29:41Z</time>
      </trkpt>
      <trkpt lat="43.22021" lon="5.62468">
        <ele>135.140625</ele>
        <time>2015-09-27T08:29:42Z</time>
      </trkpt>
      <trkpt lat="43.22018" lon="5.6247">
        <ele>135.578125</ele>
        <time>2015-09-27T08:29:44Z</time>
      </trkpt>
      <trkpt lat="43.22016" lon="5.62473">
        <ele>136.05859375</ele>
        <time>2015-09-27T08:29:46Z</time>
      </trkpt>
      <trkpt lat="43.22015" lon="5.62473">
        <ele>136.08203125</ele>
        <time>2015-09-27T08:29:47Z</time>
      </trkpt>
      <trkpt lat="43.22014" lon="5.62474">
        <ele>136.1640625</ele>
        <time>2015-09-27T08:29:48Z</time>
      </trkpt>
      <trkpt lat="43.22012" lon="5.62475">
        <ele>136.23046875</ele>
        <time>2015-09-27T08:29:49Z</time>
      </trkpt>
      <trkpt lat="43.22011" lon="5.62476">
        <ele>136.32421875</ele>
        <time>2015-09-27T08:29:50Z</time>
      </trkpt>
      <trkpt lat="43.21992" lon="5.62479">
        <ele>134.78515625</ele>
        <time>2015-09-27T08:30:05Z</time>
      </trkpt>
      <trkpt lat="43.21973" lon="5.62481">
        <ele>132.83203125</ele>
        <time>2015-09-27T08:30:19Z</time>
      </trkpt>
      <trkpt lat="43.21954" lon="5.62486">
        <ele>132.92578125</ele>
        <time>2015-09-27T08:30:33Z</time>
      </trkpt>
      <trkpt lat="43.21938" lon="5.62492">
        <ele>133.81640625</ele>
        <time>2015-09-27T08:30:46Z</time>
      </trkpt>
      <trkpt lat="43.21937" lon="5.62492">
        <ele>133.92578125</ele>
        <time>2015-09-27T08:30:47Z</time>
      </trkpt>
      <trkpt lat="43.21936" lon="5.62493">
        <ele>134.0234375</ele>
        <time>2015-09-27T08:30:48Z</time>
      </trkpt>
      <trkpt lat="43.21934" lon="5.62494">
        <ele>134.16796875</ele>
        <time>2015-09-27T08:30:49Z</time>
      </trkpt>
      <trkpt lat="43.21933" lon="5.62495">
        <ele>134.3515625</ele>
        <time>2015-09-27T08:30:50Z</time>
      </trkpt>
      <trkpt lat="43.21913" lon="5.6251">
        <ele>136.2265625</ele>
        <time>2015-09-27T08:31:04Z</time>
      </trkpt>
      <trkpt lat="43.219" lon="5.62528">
        <ele>138.09765625</ele>
        <time>2015-09-27T08:31:17Z</time>
      </trkpt>
      <trkpt lat="43.21896" lon="5.62532">
        <ele>138.12109375</ele>
        <time>2015-09-27T08:31:21Z</time>
      </trkpt>
      <trkpt lat="43.21895" lon="5.62533">
        <ele>138.1640625</ele>
        <time>2015-09-27T08:31:22Z</time>
      </trkpt>
      <trkpt lat="43.21894" lon="5.62534">
        <ele>138.140625</ele>
        <time>2015-09-27T08:31:23Z</time>
      </trkpt>
      <trkpt lat="43.21893" lon="5.62534">
        <ele>138.12890625</ele>
        <time>2015-09-27T08:31:24Z</time>
      </trkpt>
      <trkpt lat="43.21892" lon="5.62535">
        <ele>138.15234375</ele>
        <time>2015-09-27T08:31:25Z</time>
      </trkpt>
      <trkpt lat="43.21891" lon="5.62537">
        <ele>138.30078125</ele>
        <time>2015-09-27T08:31:26Z</time>
      </trkpt>
      <trkpt lat="43.2189" lon="5.62538">
        <ele>138.4296875</ele>
        <time>2015-09-27T08:31:27Z</time>
      </trkpt>
      <trkpt lat="43.21889" lon="5.6254">
        <ele>138.5234375</ele>
        <time>2015-09-27T08:31:28Z</time>
      </trkpt>
      <trkpt lat="43.21888" lon="5.62541">
        <ele>138.546875</ele>
        <time>2015-09-27T08:31:29Z</time>
      </trkpt>
      <trkpt lat="43.21887" lon="5.62542">
        <ele>138.56640625</ele>
        <time>2015-09-27T08:31:30Z</time>
      </trkpt>
      <trkpt lat="43.21886" lon="5.62543">
        <ele>138.61328125</ele>
        <time>2015-09-27T08:31:31Z</time>
      </trkpt>
      <trkpt lat="43.21885" lon="5.62544">
        <ele>138.703125</ele>
        <time>2015-09-27T08:31:32Z</time>
      </trkpt>
      <trkpt lat="43.21885" lon="5.62545">
        <ele>138.85546875</ele>
        <time>2015-09-27T08:31:33Z</time>
      </trkpt>
      <trkpt lat="43.21885" lon="5.62547">
        <ele>138.984375</ele>
        <time>2015-09-27T08:31:34Z</time>
      </trkpt>
      <trkpt lat="43.21884" lon="5.62548">
        <ele>139.0703125</ele>
        <time>2015-09-27T08:31:35Z</time>
      </trkpt>
      <trkpt lat="43.21884" lon="5.6255">
        <ele>139.1796875</ele>
        <time>2015-09-27T08:31:36Z</time>
      </trkpt>
      <trkpt lat="43.21884" lon="5.62551">
        <ele>139.24609375</ele>
        <time>2015-09-27T08:31:37Z</time>
      </trkpt>
      <trkpt lat="43.21884" lon="5.62553">
        <ele>139.30859375</ele>
        <time>2015-09-27T08:31:38Z</time>
      </trkpt>
      <trkpt lat="43.21884" lon="5.62554">
        <ele>139.4375</ele>
        <time>2015-09-27T08:31:39Z</time>
      </trkpt>
      <trkpt lat="43.21885" lon="5.62555">
        <ele>139.6171875</ele>
        <time>2015-09-27T08:31:40Z</time>
      </trkpt>
      <trkpt lat="43.21886" lon="5.62557">
        <ele>139.8203125</ele>
        <time>2015-09-27T08:31:41Z</time>
      </trkpt>
      <trkpt lat="43.21887" lon="5.62558">
        <ele>140.01171875</ele>
        <time>2015-09-27T08:31:42Z</time>
      </trkpt>
      <trkpt lat="43.21888" lon="5.62559">
        <ele>140.21484375</ele>
        <time>2015-09-27T08:31:43Z</time>
      </trkpt>
      <trkpt lat="43.21889" lon="5.6256">
        <ele>140.40625</ele>
        <time>2015-09-27T08:31:44Z</time>
      </trkpt>
      <trkpt lat="43.2189" lon="5.62561">
        <ele>140.58984375</ele>
        <time>2015-09-27T08:31:45Z</time>
      </trkpt>
      <trkpt lat="43.21892" lon="5.62561">
        <ele>140.74609375</ele>
        <time>2015-09-27T08:31:46Z</time>
      </trkpt>
      <trkpt lat="43.21893" lon="5.62561">
        <ele>140.90234375</ele>
        <time>2015-09-27T08:31:47Z</time>
      </trkpt>
      <trkpt lat="43.21894" lon="5.62561">
        <ele>141.0546875</ele>
        <time>2015-09-27T08:31:48Z</time>
      </trkpt>
      <trkpt lat="43.21896" lon="5.62561">
        <ele>141.26171875</ele>
        <time>2015-09-27T08:31:49Z</time>
      </trkpt>
      <trkpt lat="43.21897" lon="5.62561">
        <ele>141.43359375</ele>
        <time>2015-09-27T08:31:50Z</time>
      </trkpt>
      <trkpt lat="43.21898" lon="5.62561">
        <ele>141.64453125</ele>
        <time>2015-09-27T08:31:51Z</time>
      </trkpt>
      <trkpt lat="43.219" lon="5.62562">
        <ele>141.83984375</ele>
        <time>2015-09-27T08:31:52Z</time>
      </trkpt>
      <trkpt lat="43.21901" lon="5.62561">
        <ele>142.02734375</ele>
        <time>2015-09-27T08:31:53Z</time>
      </trkpt>
      <trkpt lat="43.21918" lon="5.6256">
        <ele>144.37890625</ele>
        <time>2015-09-27T08:32:06Z</time>
      </trkpt>
      <trkpt lat="43.21926" lon="5.62558">
        <ele>145.18359375</ele>
        <time>2015-09-27T08:32:12Z</time>
      </trkpt>
      <trkpt lat="43.21927" lon="5.62557">
        <ele>145.2578125</ele>
        <time>2015-09-27T08:32:13Z</time>
      </trkpt>
      <trkpt lat="43.21929" lon="5.62558">
        <ele>145.40234375</ele>
        <time>2015-09-27T08:32:14Z</time>
      </trkpt>
      <trkpt lat="43.21952" lon="5.62556">
        <ele>147.27734375</ele>
        <time>2015-09-27T08:32:31Z</time>
      </trkpt>
      <trkpt lat="43.21974" lon="5.62557">
        <ele>149.71875</ele>
        <time>2015-09-27T08:32:47Z</time>
      </trkpt>
      <trkpt lat="43.21983" lon="5.62558">
        <ele>150.8359375</ele>
        <time>2015-09-27T08:32:53Z</time>
      </trkpt>
      <trkpt lat="43.21984" lon="5.62558">
        <ele>150.9921875</ele>
        <time>2015-09-27T08:32:54Z</time>
      </trkpt>
      <trkpt lat="43.21991" lon="5.62561">
        <ele>151.98828125</ele>
        <time>2015-09-27T08:32:59Z</time>
      </trkpt>
      <trkpt lat="43.21992" lon="5.62561">
        <ele>152.11328125</ele>
        <time>2015-09-27T08:33:00Z</time>
      </trkpt>
      <trkpt lat="43.21993" lon="5.62561">
        <ele>152.265625</ele>
        <time>2015-09-27T08:33:01Z</time>
      </trkpt>
      <trkpt lat="43.21994" lon="5.62561">
        <ele>152.390625</ele>
        <time>2015-09-27T08:33:02Z</time>
      </trkpt>
      <trkpt lat="43.21995" lon="5.62561">
        <ele>152.50390625</ele>
        <time>2015-09-27T08:33:03Z</time>
      </trkpt>
      <trkpt lat="43.21997" lon="5.62561">
        <ele>152.66015625</ele>
        <time>2015-09-27T08:33:04Z</time>
      </trkpt>
      <trkpt lat="43.22012" lon="5.62565">
        <ele>154.734375</ele>
        <time>2015-09-27T08:33:17Z</time>
      </trkpt>
      <trkpt lat="43.22014" lon="5.62564">
        <ele>154.83984375</ele>
        <time>2015-09-27T08:33:18Z</time>
      </trkpt>
      <trkpt lat="43.22015" lon="5.62564">
        <ele>154.9453125</ele>
        <time>2015-09-27T08:33:19Z</time>
      </trkpt>
      <trkpt lat="43.22016" lon="5.62564">
        <ele>155.05078125</ele>
        <time>2015-09-27T08:33:20Z</time>
      </trkpt>
      <trkpt lat="43.22017" lon="5.62564">
        <ele>155.1484375</ele>
        <time>2015-09-27T08:33:21Z</time>
      </trkpt>
      <trkpt lat="43.22019" lon="5.62564">
        <ele>155.32421875</ele>
        <time>2015-09-27T08:33:22Z</time>
      </trkpt>
      <trkpt lat="43.2202" lon="5.62564">
        <ele>155.47265625</ele>
        <time>2015-09-27T08:33:23Z</time>
      </trkpt>
      <trkpt lat="43.22021" lon="5.62564">
        <ele>155.58984375</ele>
        <time>2015-09-27T08:33:24Z</time>
      </trkpt>
      <trkpt lat="43.22023" lon="5.62564">
        <ele>155.7265625</ele>
        <time>2015-09-27T08:33:25Z</time>
      </trkpt>
      <trkpt lat="43.22045" lon="5.62561">
        <ele>157.78515625</ele>
        <time>2015-09-27T08:33:42Z</time>
      </trkpt>
      <trkpt lat="43.2206" lon="5.62556">
        <ele>159.0390625</ele>
        <time>2015-09-27T08:33:54Z</time>
      </trkpt>
      <trkpt lat="43.22062" lon="5.62556">
        <ele>159.11328125</ele>
        <time>2015-09-27T08:33:55Z</time>
      </trkpt>
      <trkpt lat="43.22063" lon="5.62556">
        <ele>159.109375</ele>
        <time>2015-09-27T08:33:56Z</time>
      </trkpt>
      <trkpt lat="43.22064" lon="5.62555">
        <ele>159.08984375</ele>
        <time>2015-09-27T08:33:57Z</time>
      </trkpt>
      <trkpt lat="43.22066" lon="5.62555">
        <ele>159.11328125</ele>
        <time>2015-09-27T08:33:58Z</time>
      </trkpt>
      <trkpt lat="43.22067" lon="5.62555">
        <ele>159.140625</ele>
        <time>2015-09-27T08:33:59Z</time>
      </trkpt>
      <trkpt lat="43.22068" lon="5.62555">
        <ele>159.1875</ele>
        <time>2015-09-27T08:34:00Z</time>
      </trkpt>
      <trkpt lat="43.2207" lon="5.62554">
        <ele>159.19140625</ele>
        <time>2015-09-27T08:34:01Z</time>
      </trkpt>
      <trkpt lat="43.22071" lon="5.62553">
        <ele>159.1328125</ele>
        <time>2015-09-27T08:34:02Z</time>
      </trkpt>
      <trkpt lat="43.2209" lon="5.62555">
        <ele>159.9375</ele>
        <time>2015-09-27T08:34:16Z</time>
      </trkpt>
      <trkpt lat="43.22092" lon="5.62555">
        <ele>159.95703125</ele>
        <time>2015-09-27T08:34:17Z</time>
      </trkpt>
      <trkpt lat="43.22093" lon="5.62555">
        <ele>160</ele>
        <time>2015-09-27T08:34:18Z</time>
      </trkpt>
      <trkpt lat="43.22094" lon="5.62555">
        <ele>160.05078125</ele>
        <time>2015-09-27T08:34:19Z</time>
      </trkpt>
      <trkpt lat="43.22096" lon="5.62556">
        <ele>160.15234375</ele>
        <time>2015-09-27T08:34:20Z</time>
      </trkpt>
      <trkpt lat="43.221" lon="5.62559">
        <ele>160.56640625</ele>
        <time>2015-09-27T08:34:24Z</time>
      </trkpt>
      <trkpt lat="43.22102" lon="5.6256">
        <ele>160.6796875</ele>
        <time>2015-09-27T08:34:25Z</time>
      </trkpt>
      <trkpt lat="43.22103" lon="5.6256">
        <ele>160.8046875</ele>
        <time>2015-09-27T08:34:26Z</time>
      </trkpt>
      <trkpt lat="43.22105" lon="5.62563">
        <ele>161.125</ele>
        <time>2015-09-27T08:34:28Z</time>
      </trkpt>
      <trkpt lat="43.22108" lon="5.62567">
        <ele>161.80078125</ele>
        <time>2015-09-27T08:34:31Z</time>
      </trkpt>
      <trkpt lat="43.2211" lon="5.62568">
        <ele>161.98046875</ele>
        <time>2015-09-27T08:34:32Z</time>
      </trkpt>
      <trkpt lat="43.22111" lon="5.6257">
        <ele>162.20703125</ele>
        <time>2015-09-27T08:34:33Z</time>
      </trkpt>
      <trkpt lat="43.22112" lon="5.6257">
        <ele>162.3515625</ele>
        <time>2015-09-27T08:34:34Z</time>
      </trkpt>
      <trkpt lat="43.22113" lon="5.62571">
        <ele>162.5078125</ele>
        <time>2015-09-27T08:34:35Z</time>
      </trkpt>
      <trkpt lat="43.22114" lon="5.62572">
        <ele>162.65234375</ele>
        <time>2015-09-27T08:34:36Z</time>
      </trkpt>
      <trkpt lat="43.22115" lon="5.62573">
        <ele>162.80078125</ele>
        <time>2015-09-27T08:34:37Z</time>
      </trkpt>
      <trkpt lat="43.22116" lon="5.62574">
        <ele>163.00390625</ele>
        <time>2015-09-27T08:34:38Z</time>
      </trkpt>
      <trkpt lat="43.22117" lon="5.62576">
        <ele>163.09765625</ele>
        <time>2015-09-27T08:34:39Z</time>
      </trkpt>
      <trkpt lat="43.22118" lon="5.62577">
        <ele>163.14453125</ele>
        <time>2015-09-27T08:34:40Z</time>
      </trkpt>
      <trkpt lat="43.22119" lon="5.62578">
        <ele>163.18359375</ele>
        <time>2015-09-27T08:34:41Z</time>
      </trkpt>
      <trkpt lat="43.22121" lon="5.62578">
        <ele>163.19921875</ele>
        <time>2015-09-27T08:34:42Z</time>
      </trkpt>
      <trkpt lat="43.2214" lon="5.62591">
        <ele>163.890625</ele>
        <time>2015-09-27T08:34:57Z</time>
      </trkpt>
      <trkpt lat="43.22159" lon="5.62601">
        <ele>164.39453125</ele>
        <time>2015-09-27T08:35:11Z</time>
      </trkpt>
      <trkpt lat="43.22179" lon="5.62615">
        <ele>163.6953125</ele>
        <time>2015-09-27T08:35:27Z</time>
      </trkpt>
      <trkpt lat="43.22185" lon="5.62638">
        <ele>165.015625</ele>
        <time>2015-09-27T08:35:39Z</time>
      </trkpt>
      <trkpt lat="43.22194" lon="5.62666">
        <ele>167.29296875</ele>
        <time>2015-09-27T08:35:54Z</time>
      </trkpt>
      <trkpt lat="43.22191" lon="5.62705">
        <ele>171.265625</ele>
        <time>2015-09-27T08:36:07Z</time>
      </trkpt>
      <trkpt lat="43.22185" lon="5.62731">
        <ele>172.96484375</ele>
        <time>2015-09-27T08:36:13Z</time>
      </trkpt>
      <trkpt lat="43.22166" lon="5.62767">
        <ele>173.3046875</ele>
        <time>2015-09-27T08:36:24Z</time>
      </trkpt>
      <trkpt lat="43.22153" lon="5.62828">
        <ele>173.2109375</ele>
        <time>2015-09-27T08:36:38Z</time>
      </trkpt>
      <trkpt lat="43.22147" lon="5.62886">
        <ele>170.9609375</ele>
        <time>2015-09-27T08:36:51Z</time>
      </trkpt>
      <trkpt lat="43.22148" lon="5.62893">
        <ele>170.59765625</ele>
        <time>2015-09-27T08:37:00Z</time>
      </trkpt>
      <trkpt lat="43.22153" lon="5.62895">
        <ele>171.30078125</ele>
        <time>2015-09-27T08:37:11Z</time>
      </trkpt>
      <trkpt lat="43.22154" lon="5.62895">
        <ele>171.4609375</ele>
        <time>2015-09-27T08:37:12Z</time>
      </trkpt>
      <trkpt lat="43.22155" lon="5.62896">
        <ele>171.609375</ele>
        <time>2015-09-27T08:37:13Z</time>
      </trkpt>
      <trkpt lat="43.22156" lon="5.62898">
        <ele>171.68359375</ele>
        <time>2015-09-27T08:37:15Z</time>
      </trkpt>
      <trkpt lat="43.22157" lon="5.62901">
        <ele>171.6171875</ele>
        <time>2015-09-27T08:37:16Z</time>
      </trkpt>
      <trkpt lat="43.22159" lon="5.6292">
        <ele>171.20703125</ele>
        <time>2015-09-27T08:37:21Z</time>
      </trkpt>
      <trkpt lat="43.22158" lon="5.62924">
        <ele>170.84375</ele>
        <time>2015-09-27T08:37:23Z</time>
      </trkpt>
      <trkpt lat="43.22157" lon="5.62933">
        <ele>170.26953125</ele>
        <time>2015-09-27T08:37:25Z</time>
      </trkpt>
      <trkpt lat="43.22158" lon="5.62937">
        <ele>170.328125</ele>
        <time>2015-09-27T08:37:26Z</time>
      </trkpt>
      <trkpt lat="43.2216" lon="5.62938">
        <ele>170.578125</ele>
        <time>2015-09-27T08:37:27Z</time>
      </trkpt>
      <trkpt lat="43.22164" lon="5.6294">
        <ele>171.125</ele>
        <time>2015-09-27T08:37:29Z</time>
      </trkpt>
      <trkpt lat="43.22165" lon="5.62942">
        <ele>171.2890625</ele>
        <time>2015-09-27T08:37:30Z</time>
      </trkpt>
      <trkpt lat="43.22167" lon="5.62944">
        <ele>171.49609375</ele>
        <time>2015-09-27T08:37:31Z</time>
      </trkpt>
      <trkpt lat="43.2217" lon="5.62946">
        <ele>171.78515625</ele>
        <time>2015-09-27T08:37:32Z</time>
      </trkpt>
      <trkpt lat="43.22172" lon="5.62947">
        <ele>172.13671875</ele>
        <time>2015-09-27T08:37:33Z</time>
      </trkpt>
      <trkpt lat="43.22175" lon="5.62948">
        <ele>172.50390625</ele>
        <time>2015-09-27T08:37:34Z</time>
      </trkpt>
      <trkpt lat="43.22188" lon="5.62954">
        <ele>174.4765625</ele>
        <time>2015-09-27T08:37:40Z</time>
      </trkpt>
      <trkpt lat="43.2219" lon="5.62956">
        <ele>174.62109375</ele>
        <time>2015-09-27T08:37:41Z</time>
      </trkpt>
      <trkpt lat="43.22191" lon="5.62958">
        <ele>174.7421875</ele>
        <time>2015-09-27T08:37:42Z</time>
      </trkpt>
      <trkpt lat="43.22192" lon="5.62959">
        <ele>174.8125</ele>
        <time>2015-09-27T08:37:43Z</time>
      </trkpt>
      <trkpt lat="43.22193" lon="5.62961">
        <ele>174.8359375</ele>
        <time>2015-09-27T08:37:44Z</time>
      </trkpt>
      <trkpt lat="43.22193" lon="5.62962">
        <ele>174.859375</ele>
        <time>2015-09-27T08:37:45Z</time>
      </trkpt>
      <trkpt lat="43.22194" lon="5.62964">
        <ele>174.890625</ele>
        <time>2015-09-27T08:37:46Z</time>
      </trkpt>
      <trkpt lat="43.22194" lon="5.62968">
        <ele>174.84765625</ele>
        <time>2015-09-27T08:37:58Z</time>
      </trkpt>
      <trkpt lat="43.22194" lon="5.62967">
        <ele>174.76953125</ele>
        <time>2015-09-27T08:38:01Z</time>
      </trkpt>
      <trkpt lat="43.22189" lon="5.62966">
        <ele>173.8515625</ele>
        <time>2015-09-27T08:38:13Z</time>
      </trkpt>
      <trkpt lat="43.22188" lon="5.62966">
        <ele>173.6796875</ele>
        <time>2015-09-27T08:38:31Z</time>
      </trkpt>
      <trkpt lat="43.22188" lon="5.62966">
        <ele>173.671875</ele>
        <time>2015-09-27T08:38:44Z</time>
      </trkpt>
      <trkpt lat="43.22188" lon="5.62965">
        <ele>173.69921875</ele>
        <time>2015-09-27T08:39:01Z</time>
      </trkpt>
      <trkpt lat="43.22187" lon="5.62968">
        <ele>173.42578125</ele>
        <time>2015-09-27T08:39:18Z</time>
      </trkpt>
      <trkpt lat="43.22187" lon="5.6297">
        <ele>173.359375</ele>
        <time>2015-09-27T08:39:31Z</time>
      </trkpt>
      <trkpt lat="43.22187" lon="5.62968">
        <ele>173.49609375</ele>
        <time>2015-09-27T08:39:36Z</time>
      </trkpt>
      <trkpt lat="43.22187" lon="5.62968">
        <ele>173.4921875</ele>
        <time>2015-09-27T08:39:38Z</time>
      </trkpt>
      <trkpt lat="43.22188" lon="5.62969">
        <ele>173.72265625</ele>
        <time>2015-09-27T08:39:47Z</time>
      </trkpt>
    </trkseg>
  </trk>
</gpx>